<?xml version="1.0" encoding="UTF-8" standalone="no" ?>
<gpx xmlns="http://www.topografix.com/GPX/1/1" xmlns:xsi="http://www.w3.org/2001/XMLSchema-instance" xsi:schemaLocation="http://www.topografix.com/GPX/1/1 http://www.topografix.com/GPX/1/1/gpx.xsd" version="1.1" creator="VisuGPX - https://www.visugpx.com">
  <metadata>
    <name>Tardevant</name>
    <desc><![CDATA[grp_trc:]]></desc>
  </metadata>
  <trk>
    <name><![CDATA[Tardevant]]></name>
    <cmt><![CDATA[09:39:11]]></cmt>
    <desc><![CDATA[comment ...]]></desc>
    <trkseg>
      <trkpt lat="45.92275" lon="6.48421">
        <ele>1492</ele>
        <time>2023-03-04T08:39:10Z</time>
      </trkpt>
      <trkpt lat="45.92275" lon="6.48421">
        <ele>1491</ele>
        <time>2023-03-04T08:39:11Z</time>
      </trkpt>
      <trkpt lat="45.92275" lon="6.4841">
        <ele>1490</ele>
        <time>2023-03-04T08:39:18Z</time>
      </trkpt>
      <trkpt lat="45.92285" lon="6.48377">
        <ele>1459</ele>
        <time>2023-03-04T08:39:41Z</time>
      </trkpt>
      <trkpt lat="45.92281" lon="6.48381">
        <ele>1456</ele>
        <time>2023-03-04T08:40:46Z</time>
      </trkpt>
      <trkpt lat="45.92282" lon="6.48385">
        <ele>1455</ele>
        <time>2023-03-04T08:41:13Z</time>
      </trkpt>
      <trkpt lat="45.92285" lon="6.48386">
        <ele>1455</ele>
        <time>2023-03-04T08:41:19Z</time>
      </trkpt>
      <trkpt lat="45.92286" lon="6.4839">
        <ele>1452</ele>
        <time>2023-03-04T08:43:11Z</time>
      </trkpt>
      <trkpt lat="45.92283" lon="6.48389">
        <ele>1451</ele>
        <time>2023-03-04T08:43:46Z</time>
      </trkpt>
      <trkpt lat="45.92286" lon="6.48385">
        <ele>1449</ele>
        <time>2023-03-04T08:45:12Z</time>
      </trkpt>
      <trkpt lat="45.9229" lon="6.48383">
        <ele>1449</ele>
        <time>2023-03-04T08:45:14Z</time>
      </trkpt>
      <trkpt lat="45.92306" lon="6.48377">
        <ele>1446</ele>
        <time>2023-03-04T08:45:35Z</time>
      </trkpt>
      <trkpt lat="45.92315" lon="6.48373">
        <ele>1445</ele>
        <time>2023-03-04T08:45:42Z</time>
      </trkpt>
      <trkpt lat="45.92322" lon="6.48363">
        <ele>1445</ele>
        <time>2023-03-04T08:45:50Z</time>
      </trkpt>
      <trkpt lat="45.92322" lon="6.48367">
        <ele>1445</ele>
        <time>2023-03-04T08:53:04Z</time>
      </trkpt>
      <trkpt lat="45.92318" lon="6.48369">
        <ele>1445</ele>
        <time>2023-03-04T08:55:47Z</time>
      </trkpt>
      <trkpt lat="45.92315" lon="6.48371">
        <ele>1444</ele>
        <time>2023-03-04T08:55:50Z</time>
      </trkpt>
      <trkpt lat="45.92312" lon="6.48373">
        <ele>1443</ele>
        <time>2023-03-04T08:55:56Z</time>
      </trkpt>
      <trkpt lat="45.92309" lon="6.48375">
        <ele>1443</ele>
        <time>2023-03-04T08:55:58Z</time>
      </trkpt>
      <trkpt lat="45.92307" lon="6.48377">
        <ele>1443</ele>
        <time>2023-03-04T08:56:00Z</time>
      </trkpt>
      <trkpt lat="45.92304" lon="6.48379">
        <ele>1442</ele>
        <time>2023-03-04T08:56:02Z</time>
      </trkpt>
      <trkpt lat="45.92297" lon="6.48381">
        <ele>1442</ele>
        <time>2023-03-04T08:56:08Z</time>
      </trkpt>
      <trkpt lat="45.92294" lon="6.48383">
        <ele>1442</ele>
        <time>2023-03-04T08:56:11Z</time>
      </trkpt>
      <trkpt lat="45.92289" lon="6.48389">
        <ele>1442</ele>
        <time>2023-03-04T08:56:16Z</time>
      </trkpt>
      <trkpt lat="45.92286" lon="6.48391">
        <ele>1442</ele>
        <time>2023-03-04T08:56:21Z</time>
      </trkpt>
      <trkpt lat="45.92283" lon="6.48392">
        <ele>1442</ele>
        <time>2023-03-04T08:56:30Z</time>
      </trkpt>
      <trkpt lat="45.92282" lon="6.48388">
        <ele>1442</ele>
        <time>2023-03-04T08:57:23Z</time>
      </trkpt>
      <trkpt lat="45.9228" lon="6.48385">
        <ele>1442</ele>
        <time>2023-03-04T08:58:15Z</time>
      </trkpt>
      <trkpt lat="45.92278" lon="6.48389">
        <ele>1442</ele>
        <time>2023-03-04T08:59:31Z</time>
      </trkpt>
      <trkpt lat="45.92274" lon="6.48392">
        <ele>1442</ele>
        <time>2023-03-04T08:59:34Z</time>
      </trkpt>
      <trkpt lat="45.92267" lon="6.48393">
        <ele>1443</ele>
        <time>2023-03-04T08:59:40Z</time>
      </trkpt>
      <trkpt lat="45.92238" lon="6.48409">
        <ele>1443</ele>
        <time>2023-03-04T09:00:10Z</time>
      </trkpt>
      <trkpt lat="45.92235" lon="6.48411">
        <ele>1443</ele>
        <time>2023-03-04T09:00:13Z</time>
      </trkpt>
      <trkpt lat="45.92229" lon="6.48416">
        <ele>1443</ele>
        <time>2023-03-04T09:00:19Z</time>
      </trkpt>
      <trkpt lat="45.92224" lon="6.4842">
        <ele>1443</ele>
        <time>2023-03-04T09:00:25Z</time>
      </trkpt>
      <trkpt lat="45.92219" lon="6.48427">
        <ele>1443</ele>
        <time>2023-03-04T09:00:31Z</time>
      </trkpt>
      <trkpt lat="45.92214" lon="6.48432">
        <ele>1444</ele>
        <time>2023-03-04T09:00:38Z</time>
      </trkpt>
      <trkpt lat="45.92211" lon="6.48434">
        <ele>1444</ele>
        <time>2023-03-04T09:00:41Z</time>
      </trkpt>
      <trkpt lat="45.92209" lon="6.48436">
        <ele>1444</ele>
        <time>2023-03-04T09:00:44Z</time>
      </trkpt>
      <trkpt lat="45.922" lon="6.48449">
        <ele>1444</ele>
        <time>2023-03-04T09:00:58Z</time>
      </trkpt>
      <trkpt lat="45.92197" lon="6.48452">
        <ele>1445</ele>
        <time>2023-03-04T09:01:02Z</time>
      </trkpt>
      <trkpt lat="45.92194" lon="6.48453">
        <ele>1445</ele>
        <time>2023-03-04T09:01:05Z</time>
      </trkpt>
      <trkpt lat="45.9219" lon="6.48455">
        <ele>1445</ele>
        <time>2023-03-04T09:01:10Z</time>
      </trkpt>
      <trkpt lat="45.92188" lon="6.48459">
        <ele>1445</ele>
        <time>2023-03-04T09:01:14Z</time>
      </trkpt>
      <trkpt lat="45.92186" lon="6.48462">
        <ele>1445</ele>
        <time>2023-03-04T09:01:17Z</time>
      </trkpt>
      <trkpt lat="45.92178" lon="6.4847">
        <ele>1446</ele>
        <time>2023-03-04T09:01:27Z</time>
      </trkpt>
      <trkpt lat="45.92175" lon="6.48474">
        <ele>1446</ele>
        <time>2023-03-04T09:01:30Z</time>
      </trkpt>
      <trkpt lat="45.92173" lon="6.48477">
        <ele>1446</ele>
        <time>2023-03-04T09:01:34Z</time>
      </trkpt>
      <trkpt lat="45.9217" lon="6.4848">
        <ele>1447</ele>
        <time>2023-03-04T09:01:38Z</time>
      </trkpt>
      <trkpt lat="45.92167" lon="6.48485">
        <ele>1447</ele>
        <time>2023-03-04T09:01:43Z</time>
      </trkpt>
      <trkpt lat="45.92162" lon="6.48493">
        <ele>1448</ele>
        <time>2023-03-04T09:01:57Z</time>
      </trkpt>
      <trkpt lat="45.92159" lon="6.48498">
        <ele>1449</ele>
        <time>2023-03-04T09:02:01Z</time>
      </trkpt>
      <trkpt lat="45.92154" lon="6.48506">
        <ele>1449</ele>
        <time>2023-03-04T09:02:07Z</time>
      </trkpt>
      <trkpt lat="45.92151" lon="6.4851">
        <ele>1450</ele>
        <time>2023-03-04T09:02:11Z</time>
      </trkpt>
      <trkpt lat="45.92148" lon="6.48521">
        <ele>1450</ele>
        <time>2023-03-04T09:02:19Z</time>
      </trkpt>
      <trkpt lat="45.92147" lon="6.48526">
        <ele>1451</ele>
        <time>2023-03-04T09:02:23Z</time>
      </trkpt>
      <trkpt lat="45.92146" lon="6.48532">
        <ele>1451</ele>
        <time>2023-03-04T09:02:27Z</time>
      </trkpt>
      <trkpt lat="45.92145" lon="6.48543">
        <ele>1452</ele>
        <time>2023-03-04T09:02:36Z</time>
      </trkpt>
      <trkpt lat="45.92146" lon="6.48554">
        <ele>1452</ele>
        <time>2023-03-04T09:02:45Z</time>
      </trkpt>
      <trkpt lat="45.92145" lon="6.48559">
        <ele>1453</ele>
        <time>2023-03-04T09:03:05Z</time>
      </trkpt>
      <trkpt lat="45.92143" lon="6.48562">
        <ele>1456</ele>
        <time>2023-03-04T09:05:44Z</time>
      </trkpt>
      <trkpt lat="45.92142" lon="6.48567">
        <ele>1456</ele>
        <time>2023-03-04T09:06:17Z</time>
      </trkpt>
      <trkpt lat="45.92137" lon="6.48577">
        <ele>1459</ele>
        <time>2023-03-04T09:06:26Z</time>
      </trkpt>
      <trkpt lat="45.92136" lon="6.48583">
        <ele>1459</ele>
        <time>2023-03-04T09:06:30Z</time>
      </trkpt>
      <trkpt lat="45.92132" lon="6.48593">
        <ele>1460</ele>
        <time>2023-03-04T09:06:38Z</time>
      </trkpt>
      <trkpt lat="45.92126" lon="6.48608">
        <ele>1461</ele>
        <time>2023-03-04T09:06:52Z</time>
      </trkpt>
      <trkpt lat="45.92122" lon="6.48619">
        <ele>1461</ele>
        <time>2023-03-04T09:06:59Z</time>
      </trkpt>
      <trkpt lat="45.92118" lon="6.48643">
        <ele>1462</ele>
        <time>2023-03-04T09:07:13Z</time>
      </trkpt>
      <trkpt lat="45.92118" lon="6.48649">
        <ele>1462</ele>
        <time>2023-03-04T09:07:16Z</time>
      </trkpt>
      <trkpt lat="45.92137" lon="6.48686">
        <ele>1462</ele>
        <time>2023-03-04T09:07:41Z</time>
      </trkpt>
      <trkpt lat="45.92143" lon="6.48692">
        <ele>1462</ele>
        <time>2023-03-04T09:07:47Z</time>
      </trkpt>
      <trkpt lat="45.92148" lon="6.48698">
        <ele>1462</ele>
        <time>2023-03-04T09:07:54Z</time>
      </trkpt>
      <trkpt lat="45.92151" lon="6.48701">
        <ele>1462</ele>
        <time>2023-03-04T09:07:57Z</time>
      </trkpt>
      <trkpt lat="45.92153" lon="6.48705">
        <ele>1462</ele>
        <time>2023-03-04T09:08:00Z</time>
      </trkpt>
      <trkpt lat="45.92156" lon="6.48707">
        <ele>1462</ele>
        <time>2023-03-04T09:08:02Z</time>
      </trkpt>
      <trkpt lat="45.92158" lon="6.48712">
        <ele>1462</ele>
        <time>2023-03-04T09:08:05Z</time>
      </trkpt>
      <trkpt lat="45.92161" lon="6.48721">
        <ele>1462</ele>
        <time>2023-03-04T09:08:10Z</time>
      </trkpt>
      <trkpt lat="45.92163" lon="6.48727">
        <ele>1462</ele>
        <time>2023-03-04T09:08:13Z</time>
      </trkpt>
      <trkpt lat="45.92169" lon="6.48748">
        <ele>1462</ele>
        <time>2023-03-04T09:08:26Z</time>
      </trkpt>
      <trkpt lat="45.92174" lon="6.48772">
        <ele>1462</ele>
        <time>2023-03-04T09:08:35Z</time>
      </trkpt>
      <trkpt lat="45.92179" lon="6.48792">
        <ele>1462</ele>
        <time>2023-03-04T09:08:47Z</time>
      </trkpt>
      <trkpt lat="45.9218" lon="6.48819">
        <ele>1461</ele>
        <time>2023-03-04T09:08:57Z</time>
      </trkpt>
      <trkpt lat="45.92166" lon="6.48862">
        <ele>1461</ele>
        <time>2023-03-04T09:09:09Z</time>
      </trkpt>
      <trkpt lat="45.92166" lon="6.48868">
        <ele>1460</ele>
        <time>2023-03-04T09:09:12Z</time>
      </trkpt>
      <trkpt lat="45.92167" lon="6.4888">
        <ele>1460</ele>
        <time>2023-03-04T09:09:19Z</time>
      </trkpt>
      <trkpt lat="45.92168" lon="6.48886">
        <ele>1460</ele>
        <time>2023-03-04T09:09:22Z</time>
      </trkpt>
      <trkpt lat="45.92174" lon="6.48894">
        <ele>1460</ele>
        <time>2023-03-04T09:09:28Z</time>
      </trkpt>
      <trkpt lat="45.92178" lon="6.48896">
        <ele>1460</ele>
        <time>2023-03-04T09:09:32Z</time>
      </trkpt>
      <trkpt lat="45.92198" lon="6.48914">
        <ele>1459</ele>
        <time>2023-03-04T09:09:54Z</time>
      </trkpt>
      <trkpt lat="45.92201" lon="6.48918">
        <ele>1459</ele>
        <time>2023-03-04T09:09:58Z</time>
      </trkpt>
      <trkpt lat="45.92203" lon="6.48923">
        <ele>1459</ele>
        <time>2023-03-04T09:10:02Z</time>
      </trkpt>
      <trkpt lat="45.92212" lon="6.48933">
        <ele>1459</ele>
        <time>2023-03-04T09:10:17Z</time>
      </trkpt>
      <trkpt lat="45.92221" lon="6.48946">
        <ele>1458</ele>
        <time>2023-03-04T09:10:34Z</time>
      </trkpt>
      <trkpt lat="45.92223" lon="6.4895">
        <ele>1458</ele>
        <time>2023-03-04T09:10:38Z</time>
      </trkpt>
      <trkpt lat="45.92227" lon="6.48954">
        <ele>1458</ele>
        <time>2023-03-04T09:10:43Z</time>
      </trkpt>
      <trkpt lat="45.92231" lon="6.48961">
        <ele>1458</ele>
        <time>2023-03-04T09:10:49Z</time>
      </trkpt>
      <trkpt lat="45.92235" lon="6.48972">
        <ele>1458</ele>
        <time>2023-03-04T09:10:59Z</time>
      </trkpt>
      <trkpt lat="45.92237" lon="6.48976">
        <ele>1458</ele>
        <time>2023-03-04T09:11:03Z</time>
      </trkpt>
      <trkpt lat="45.92242" lon="6.48987">
        <ele>1458</ele>
        <time>2023-03-04T09:11:15Z</time>
      </trkpt>
      <trkpt lat="45.92252" lon="6.49001">
        <ele>1459</ele>
        <time>2023-03-04T09:11:33Z</time>
      </trkpt>
      <trkpt lat="45.92256" lon="6.4901">
        <ele>1459</ele>
        <time>2023-03-04T09:11:43Z</time>
      </trkpt>
      <trkpt lat="45.9226" lon="6.49017">
        <ele>1459</ele>
        <time>2023-03-04T09:11:50Z</time>
      </trkpt>
      <trkpt lat="45.92263" lon="6.4902">
        <ele>1459</ele>
        <time>2023-03-04T09:11:54Z</time>
      </trkpt>
      <trkpt lat="45.92266" lon="6.49023">
        <ele>1459</ele>
        <time>2023-03-04T09:11:58Z</time>
      </trkpt>
      <trkpt lat="45.92269" lon="6.49025">
        <ele>1459</ele>
        <time>2023-03-04T09:12:02Z</time>
      </trkpt>
      <trkpt lat="45.92272" lon="6.49028">
        <ele>1459</ele>
        <time>2023-03-04T09:12:07Z</time>
      </trkpt>
      <trkpt lat="45.92274" lon="6.49038">
        <ele>1459</ele>
        <time>2023-03-04T09:12:19Z</time>
      </trkpt>
      <trkpt lat="45.92277" lon="6.49041">
        <ele>1460</ele>
        <time>2023-03-04T09:12:23Z</time>
      </trkpt>
      <trkpt lat="45.92279" lon="6.49044">
        <ele>1460</ele>
        <time>2023-03-04T09:12:26Z</time>
      </trkpt>
      <trkpt lat="45.92281" lon="6.49048">
        <ele>1460</ele>
        <time>2023-03-04T09:12:28Z</time>
      </trkpt>
      <trkpt lat="45.92284" lon="6.49051">
        <ele>1460</ele>
        <time>2023-03-04T09:12:34Z</time>
      </trkpt>
      <trkpt lat="45.92288" lon="6.49061">
        <ele>1461</ele>
        <time>2023-03-04T09:12:43Z</time>
      </trkpt>
      <trkpt lat="45.9229" lon="6.49065">
        <ele>1461</ele>
        <time>2023-03-04T09:12:47Z</time>
      </trkpt>
      <trkpt lat="45.92294" lon="6.49067">
        <ele>1461</ele>
        <time>2023-03-04T09:12:53Z</time>
      </trkpt>
      <trkpt lat="45.92302" lon="6.49071">
        <ele>1462</ele>
        <time>2023-03-04T09:13:03Z</time>
      </trkpt>
      <trkpt lat="45.92306" lon="6.49069">
        <ele>1462</ele>
        <time>2023-03-04T09:13:14Z</time>
      </trkpt>
      <trkpt lat="45.92314" lon="6.49067">
        <ele>1463</ele>
        <time>2023-03-04T09:13:41Z</time>
      </trkpt>
      <trkpt lat="45.92317" lon="6.49067">
        <ele>1463</ele>
        <time>2023-03-04T09:13:45Z</time>
      </trkpt>
      <trkpt lat="45.92329" lon="6.49071">
        <ele>1464</ele>
        <time>2023-03-04T09:13:59Z</time>
      </trkpt>
      <trkpt lat="45.92341" lon="6.49074">
        <ele>1466</ele>
        <time>2023-03-04T09:14:14Z</time>
      </trkpt>
      <trkpt lat="45.9235" lon="6.49084">
        <ele>1468</ele>
        <time>2023-03-04T09:14:29Z</time>
      </trkpt>
      <trkpt lat="45.92357" lon="6.49091">
        <ele>1469</ele>
        <time>2023-03-04T09:14:40Z</time>
      </trkpt>
      <trkpt lat="45.9237" lon="6.49106">
        <ele>1472</ele>
        <time>2023-03-04T09:15:03Z</time>
      </trkpt>
      <trkpt lat="45.92373" lon="6.49112">
        <ele>1472</ele>
        <time>2023-03-04T09:15:08Z</time>
      </trkpt>
      <trkpt lat="45.92379" lon="6.49118">
        <ele>1473</ele>
        <time>2023-03-04T09:15:21Z</time>
      </trkpt>
      <trkpt lat="45.92386" lon="6.4912">
        <ele>1474</ele>
        <time>2023-03-04T09:15:27Z</time>
      </trkpt>
      <trkpt lat="45.9239" lon="6.49121">
        <ele>1474</ele>
        <time>2023-03-04T09:15:32Z</time>
      </trkpt>
      <trkpt lat="45.92396" lon="6.49114">
        <ele>1476</ele>
        <time>2023-03-04T09:15:45Z</time>
      </trkpt>
      <trkpt lat="45.924" lon="6.49117">
        <ele>1476</ele>
        <time>2023-03-04T09:15:56Z</time>
      </trkpt>
      <trkpt lat="45.92404" lon="6.49116">
        <ele>1477</ele>
        <time>2023-03-04T09:16:04Z</time>
      </trkpt>
      <trkpt lat="45.92413" lon="6.49115">
        <ele>1478</ele>
        <time>2023-03-04T09:16:14Z</time>
      </trkpt>
      <trkpt lat="45.92416" lon="6.49114">
        <ele>1478</ele>
        <time>2023-03-04T09:16:18Z</time>
      </trkpt>
      <trkpt lat="45.92427" lon="6.4911">
        <ele>1480</ele>
        <time>2023-03-04T09:16:33Z</time>
      </trkpt>
      <trkpt lat="45.92432" lon="6.49109">
        <ele>1480</ele>
        <time>2023-03-04T09:16:40Z</time>
      </trkpt>
      <trkpt lat="45.92444" lon="6.49117">
        <ele>1482</ele>
        <time>2023-03-04T09:17:00Z</time>
      </trkpt>
      <trkpt lat="45.92447" lon="6.49121">
        <ele>1483</ele>
        <time>2023-03-04T09:17:06Z</time>
      </trkpt>
      <trkpt lat="45.92455" lon="6.49129">
        <ele>1484</ele>
        <time>2023-03-04T09:17:23Z</time>
      </trkpt>
      <trkpt lat="45.92459" lon="6.49141">
        <ele>1486</ele>
        <time>2023-03-04T09:17:34Z</time>
      </trkpt>
      <trkpt lat="45.92463" lon="6.49145">
        <ele>1486</ele>
        <time>2023-03-04T09:17:39Z</time>
      </trkpt>
      <trkpt lat="45.92469" lon="6.49154">
        <ele>1487</ele>
        <time>2023-03-04T09:17:47Z</time>
      </trkpt>
      <trkpt lat="45.92474" lon="6.49162">
        <ele>1487</ele>
        <time>2023-03-04T09:17:55Z</time>
      </trkpt>
      <trkpt lat="45.92474" lon="6.49167">
        <ele>1489</ele>
        <time>2023-03-04T09:18:55Z</time>
      </trkpt>
      <trkpt lat="45.92479" lon="6.49173">
        <ele>1489</ele>
        <time>2023-03-04T09:19:10Z</time>
      </trkpt>
      <trkpt lat="45.92484" lon="6.49179">
        <ele>1489</ele>
        <time>2023-03-04T09:19:13Z</time>
      </trkpt>
      <trkpt lat="45.92491" lon="6.49189">
        <ele>1490</ele>
        <time>2023-03-04T09:19:18Z</time>
      </trkpt>
      <trkpt lat="45.92499" lon="6.49196">
        <ele>1490</ele>
        <time>2023-03-04T09:19:22Z</time>
      </trkpt>
      <trkpt lat="45.92507" lon="6.49198">
        <ele>1490</ele>
        <time>2023-03-04T09:19:56Z</time>
      </trkpt>
      <trkpt lat="45.92512" lon="6.49198">
        <ele>1490</ele>
        <time>2023-03-04T09:19:59Z</time>
      </trkpt>
      <trkpt lat="45.92516" lon="6.49198">
        <ele>1490</ele>
        <time>2023-03-04T09:20:03Z</time>
      </trkpt>
      <trkpt lat="45.92524" lon="6.49204">
        <ele>1490</ele>
        <time>2023-03-04T09:20:09Z</time>
      </trkpt>
      <trkpt lat="45.92533" lon="6.49214">
        <ele>1490</ele>
        <time>2023-03-04T09:20:22Z</time>
      </trkpt>
      <trkpt lat="45.92563" lon="6.4922">
        <ele>1490</ele>
        <time>2023-03-04T09:20:39Z</time>
      </trkpt>
      <trkpt lat="45.92572" lon="6.49221">
        <ele>1490</ele>
        <time>2023-03-04T09:20:47Z</time>
      </trkpt>
      <trkpt lat="45.92576" lon="6.49221">
        <ele>1490</ele>
        <time>2023-03-04T09:20:49Z</time>
      </trkpt>
      <trkpt lat="45.92593" lon="6.49225">
        <ele>1489</ele>
        <time>2023-03-04T09:20:58Z</time>
      </trkpt>
      <trkpt lat="45.926" lon="6.49226">
        <ele>1489</ele>
        <time>2023-03-04T09:21:02Z</time>
      </trkpt>
      <trkpt lat="45.92623" lon="6.49236">
        <ele>1489</ele>
        <time>2023-03-04T09:21:16Z</time>
      </trkpt>
      <trkpt lat="45.92631" lon="6.49245">
        <ele>1488</ele>
        <time>2023-03-04T09:21:25Z</time>
      </trkpt>
      <trkpt lat="45.9264" lon="6.49258">
        <ele>1488</ele>
        <time>2023-03-04T09:21:34Z</time>
      </trkpt>
      <trkpt lat="45.92646" lon="6.49264">
        <ele>1488</ele>
        <time>2023-03-04T09:21:40Z</time>
      </trkpt>
      <trkpt lat="45.92664" lon="6.49273">
        <ele>1487</ele>
        <time>2023-03-04T09:21:53Z</time>
      </trkpt>
      <trkpt lat="45.92671" lon="6.49276">
        <ele>1487</ele>
        <time>2023-03-04T09:21:59Z</time>
      </trkpt>
      <trkpt lat="45.92689" lon="6.4929">
        <ele>1486</ele>
        <time>2023-03-04T09:22:16Z</time>
      </trkpt>
      <trkpt lat="45.92693" lon="6.49294">
        <ele>1486</ele>
        <time>2023-03-04T09:22:20Z</time>
      </trkpt>
      <trkpt lat="45.92696" lon="6.49299">
        <ele>1486</ele>
        <time>2023-03-04T09:22:27Z</time>
      </trkpt>
      <trkpt lat="45.92699" lon="6.49302">
        <ele>1486</ele>
        <time>2023-03-04T09:22:31Z</time>
      </trkpt>
      <trkpt lat="45.92703" lon="6.49312">
        <ele>1486</ele>
        <time>2023-03-04T09:22:38Z</time>
      </trkpt>
      <trkpt lat="45.92705" lon="6.49316">
        <ele>1486</ele>
        <time>2023-03-04T09:22:42Z</time>
      </trkpt>
      <trkpt lat="45.92706" lon="6.4932">
        <ele>1486</ele>
        <time>2023-03-04T09:22:46Z</time>
      </trkpt>
      <trkpt lat="45.92707" lon="6.49325">
        <ele>1486</ele>
        <time>2023-03-04T09:22:50Z</time>
      </trkpt>
      <trkpt lat="45.92709" lon="6.49334">
        <ele>1486</ele>
        <time>2023-03-04T09:22:57Z</time>
      </trkpt>
      <trkpt lat="45.9271" lon="6.49348">
        <ele>1486</ele>
        <time>2023-03-04T09:23:07Z</time>
      </trkpt>
      <trkpt lat="45.92718" lon="6.49371">
        <ele>1487</ele>
        <time>2023-03-04T09:23:25Z</time>
      </trkpt>
      <trkpt lat="45.92723" lon="6.49379">
        <ele>1487</ele>
        <time>2023-03-04T09:23:36Z</time>
      </trkpt>
      <trkpt lat="45.92724" lon="6.49382">
        <ele>1487</ele>
        <time>2023-03-04T09:23:39Z</time>
      </trkpt>
      <trkpt lat="45.92725" lon="6.49399">
        <ele>1487</ele>
        <time>2023-03-04T09:23:50Z</time>
      </trkpt>
      <trkpt lat="45.92725" lon="6.49405">
        <ele>1488</ele>
        <time>2023-03-04T09:23:59Z</time>
      </trkpt>
      <trkpt lat="45.92725" lon="6.49411">
        <ele>1488</ele>
        <time>2023-03-04T09:24:37Z</time>
      </trkpt>
      <trkpt lat="45.92724" lon="6.49416">
        <ele>1489</ele>
        <time>2023-03-04T09:24:42Z</time>
      </trkpt>
      <trkpt lat="45.92723" lon="6.49428">
        <ele>1490</ele>
        <time>2023-03-04T09:24:51Z</time>
      </trkpt>
      <trkpt lat="45.92725" lon="6.49433">
        <ele>1490</ele>
        <time>2023-03-04T09:25:05Z</time>
      </trkpt>
      <trkpt lat="45.92725" lon="6.49445">
        <ele>1491</ele>
        <time>2023-03-04T09:25:17Z</time>
      </trkpt>
      <trkpt lat="45.92725" lon="6.49451">
        <ele>1491</ele>
        <time>2023-03-04T09:25:21Z</time>
      </trkpt>
      <trkpt lat="45.92721" lon="6.49447">
        <ele>1491</ele>
        <time>2023-03-04T09:25:53Z</time>
      </trkpt>
      <trkpt lat="45.92719" lon="6.49449">
        <ele>1492</ele>
        <time>2023-03-04T09:30:32Z</time>
      </trkpt>
      <trkpt lat="45.92715" lon="6.49453">
        <ele>1492</ele>
        <time>2023-03-04T09:30:59Z</time>
      </trkpt>
      <trkpt lat="45.92712" lon="6.49449">
        <ele>1492</ele>
        <time>2023-03-04T09:31:32Z</time>
      </trkpt>
      <trkpt lat="45.92708" lon="6.49448">
        <ele>1493</ele>
        <time>2023-03-04T09:31:38Z</time>
      </trkpt>
      <trkpt lat="45.92702" lon="6.49447">
        <ele>1493</ele>
        <time>2023-03-04T09:31:54Z</time>
      </trkpt>
      <trkpt lat="45.92686" lon="6.4945">
        <ele>1493</ele>
        <time>2023-03-04T09:32:15Z</time>
      </trkpt>
      <trkpt lat="45.92663" lon="6.4947">
        <ele>1493</ele>
        <time>2023-03-04T09:32:51Z</time>
      </trkpt>
      <trkpt lat="45.92659" lon="6.49475">
        <ele>1493</ele>
        <time>2023-03-04T09:33:03Z</time>
      </trkpt>
      <trkpt lat="45.92646" lon="6.49481">
        <ele>1493</ele>
        <time>2023-03-04T09:33:20Z</time>
      </trkpt>
      <trkpt lat="45.92641" lon="6.49488">
        <ele>1493</ele>
        <time>2023-03-04T09:33:36Z</time>
      </trkpt>
      <trkpt lat="45.92638" lon="6.49498">
        <ele>1492</ele>
        <time>2023-03-04T09:33:46Z</time>
      </trkpt>
      <trkpt lat="45.92634" lon="6.49503">
        <ele>1492</ele>
        <time>2023-03-04T09:33:54Z</time>
      </trkpt>
      <trkpt lat="45.92632" lon="6.49511">
        <ele>1492</ele>
        <time>2023-03-04T09:34:00Z</time>
      </trkpt>
      <trkpt lat="45.9263" lon="6.49528">
        <ele>1492</ele>
        <time>2023-03-04T09:34:29Z</time>
      </trkpt>
      <trkpt lat="45.92629" lon="6.49536">
        <ele>1492</ele>
        <time>2023-03-04T09:34:39Z</time>
      </trkpt>
      <trkpt lat="45.92631" lon="6.49552">
        <ele>1491</ele>
        <time>2023-03-04T09:34:53Z</time>
      </trkpt>
      <trkpt lat="45.92632" lon="6.49562">
        <ele>1491</ele>
        <time>2023-03-04T09:34:59Z</time>
      </trkpt>
      <trkpt lat="45.92631" lon="6.4957">
        <ele>1491</ele>
        <time>2023-03-04T09:35:04Z</time>
      </trkpt>
      <trkpt lat="45.92629" lon="6.49578">
        <ele>1491</ele>
        <time>2023-03-04T09:35:12Z</time>
      </trkpt>
      <trkpt lat="45.92631" lon="6.49586">
        <ele>1491</ele>
        <time>2023-03-04T09:35:28Z</time>
      </trkpt>
      <trkpt lat="45.9263" lon="6.49602">
        <ele>1492</ele>
        <time>2023-03-04T09:35:48Z</time>
      </trkpt>
      <trkpt lat="45.92634" lon="6.4961">
        <ele>1492</ele>
        <time>2023-03-04T09:35:55Z</time>
      </trkpt>
      <trkpt lat="45.92634" lon="6.49618">
        <ele>1492</ele>
        <time>2023-03-04T09:36:05Z</time>
      </trkpt>
      <trkpt lat="45.92631" lon="6.49625">
        <ele>1493</ele>
        <time>2023-03-04T09:36:14Z</time>
      </trkpt>
      <trkpt lat="45.92628" lon="6.49632">
        <ele>1493</ele>
        <time>2023-03-04T09:36:25Z</time>
      </trkpt>
      <trkpt lat="45.92625" lon="6.49638">
        <ele>1494</ele>
        <time>2023-03-04T09:36:32Z</time>
      </trkpt>
      <trkpt lat="45.92625" lon="6.49647">
        <ele>1494</ele>
        <time>2023-03-04T09:36:39Z</time>
      </trkpt>
      <trkpt lat="45.92622" lon="6.49655">
        <ele>1495</ele>
        <time>2023-03-04T09:36:46Z</time>
      </trkpt>
      <trkpt lat="45.92619" lon="6.49661">
        <ele>1495</ele>
        <time>2023-03-04T09:36:51Z</time>
      </trkpt>
      <trkpt lat="45.92618" lon="6.49677">
        <ele>1497</ele>
        <time>2023-03-04T09:37:05Z</time>
      </trkpt>
      <trkpt lat="45.92621" lon="6.49685">
        <ele>1498</ele>
        <time>2023-03-04T09:37:17Z</time>
      </trkpt>
      <trkpt lat="45.9263" lon="6.49705">
        <ele>1500</ele>
        <time>2023-03-04T09:37:35Z</time>
      </trkpt>
      <trkpt lat="45.92634" lon="6.49711">
        <ele>1501</ele>
        <time>2023-03-04T09:37:42Z</time>
      </trkpt>
      <trkpt lat="45.92637" lon="6.49718">
        <ele>1501</ele>
        <time>2023-03-04T09:37:49Z</time>
      </trkpt>
      <trkpt lat="45.92639" lon="6.49726">
        <ele>1502</ele>
        <time>2023-03-04T09:37:55Z</time>
      </trkpt>
      <trkpt lat="45.9264" lon="6.49734">
        <ele>1502</ele>
        <time>2023-03-04T09:38:01Z</time>
      </trkpt>
      <trkpt lat="45.92648" lon="6.49746">
        <ele>1503</ele>
        <time>2023-03-04T09:38:15Z</time>
      </trkpt>
      <trkpt lat="45.92653" lon="6.49751">
        <ele>1505</ele>
        <time>2023-03-04T09:38:28Z</time>
      </trkpt>
      <trkpt lat="45.92652" lon="6.49768">
        <ele>1508</ele>
        <time>2023-03-04T09:38:53Z</time>
      </trkpt>
      <trkpt lat="45.92651" lon="6.49777">
        <ele>1509</ele>
        <time>2023-03-04T09:39:06Z</time>
      </trkpt>
      <trkpt lat="45.92655" lon="6.49783">
        <ele>1510</ele>
        <time>2023-03-04T09:39:13Z</time>
      </trkpt>
      <trkpt lat="45.92659" lon="6.4979">
        <ele>1511</ele>
        <time>2023-03-04T09:39:21Z</time>
      </trkpt>
      <trkpt lat="45.92661" lon="6.49797">
        <ele>1512</ele>
        <time>2023-03-04T09:39:33Z</time>
      </trkpt>
      <trkpt lat="45.9266" lon="6.49805">
        <ele>1512</ele>
        <time>2023-03-04T09:39:39Z</time>
      </trkpt>
      <trkpt lat="45.9266" lon="6.4981">
        <ele>1513</ele>
        <time>2023-03-04T09:39:45Z</time>
      </trkpt>
      <trkpt lat="45.92661" lon="6.49816">
        <ele>1513</ele>
        <time>2023-03-04T09:39:50Z</time>
      </trkpt>
      <trkpt lat="45.92661" lon="6.49821">
        <ele>1514</ele>
        <time>2023-03-04T09:39:55Z</time>
      </trkpt>
      <trkpt lat="45.92664" lon="6.49825">
        <ele>1514</ele>
        <time>2023-03-04T09:40:01Z</time>
      </trkpt>
      <trkpt lat="45.92666" lon="6.49833">
        <ele>1514</ele>
        <time>2023-03-04T09:40:07Z</time>
      </trkpt>
      <trkpt lat="45.92668" lon="6.49841">
        <ele>1514</ele>
        <time>2023-03-04T09:40:15Z</time>
      </trkpt>
      <trkpt lat="45.92669" lon="6.49846">
        <ele>1515</ele>
        <time>2023-03-04T09:40:22Z</time>
      </trkpt>
      <trkpt lat="45.92667" lon="6.4986">
        <ele>1516</ele>
        <time>2023-03-04T09:40:43Z</time>
      </trkpt>
      <trkpt lat="45.92669" lon="6.49865">
        <ele>1516</ele>
        <time>2023-03-04T09:40:49Z</time>
      </trkpt>
      <trkpt lat="45.92667" lon="6.49872">
        <ele>1516</ele>
        <time>2023-03-04T09:40:58Z</time>
      </trkpt>
      <trkpt lat="45.92668" lon="6.49881">
        <ele>1517</ele>
        <time>2023-03-04T09:41:06Z</time>
      </trkpt>
      <trkpt lat="45.9267" lon="6.4989">
        <ele>1518</ele>
        <time>2023-03-04T09:41:17Z</time>
      </trkpt>
      <trkpt lat="45.9267" lon="6.49899">
        <ele>1518</ele>
        <time>2023-03-04T09:41:23Z</time>
      </trkpt>
      <trkpt lat="45.92672" lon="6.49913">
        <ele>1519</ele>
        <time>2023-03-04T09:41:40Z</time>
      </trkpt>
      <trkpt lat="45.9267" lon="6.49928">
        <ele>1521</ele>
        <time>2023-03-04T09:41:59Z</time>
      </trkpt>
      <trkpt lat="45.92672" lon="6.49936">
        <ele>1521</ele>
        <time>2023-03-04T09:42:06Z</time>
      </trkpt>
      <trkpt lat="45.92672" lon="6.49942">
        <ele>1522</ele>
        <time>2023-03-04T09:42:11Z</time>
      </trkpt>
      <trkpt lat="45.92672" lon="6.49948">
        <ele>1522</ele>
        <time>2023-03-04T09:42:17Z</time>
      </trkpt>
      <trkpt lat="45.92672" lon="6.49956">
        <ele>1522</ele>
        <time>2023-03-04T09:42:24Z</time>
      </trkpt>
      <trkpt lat="45.92675" lon="6.4996">
        <ele>1523</ele>
        <time>2023-03-04T09:42:55Z</time>
      </trkpt>
      <trkpt lat="45.92679" lon="6.49965">
        <ele>1523</ele>
        <time>2023-03-04T09:43:15Z</time>
      </trkpt>
      <trkpt lat="45.9268" lon="6.49973">
        <ele>1523</ele>
        <time>2023-03-04T09:43:32Z</time>
      </trkpt>
      <trkpt lat="45.9268" lon="6.49982">
        <ele>1524</ele>
        <time>2023-03-04T09:43:38Z</time>
      </trkpt>
      <trkpt lat="45.92681" lon="6.4999">
        <ele>1524</ele>
        <time>2023-03-04T09:43:44Z</time>
      </trkpt>
      <trkpt lat="45.92681" lon="6.49998">
        <ele>1525</ele>
        <time>2023-03-04T09:43:49Z</time>
      </trkpt>
      <trkpt lat="45.92679" lon="6.50015">
        <ele>1526</ele>
        <time>2023-03-04T09:44:21Z</time>
      </trkpt>
      <trkpt lat="45.92681" lon="6.50022">
        <ele>1527</ele>
        <time>2023-03-04T09:44:28Z</time>
      </trkpt>
      <trkpt lat="45.92683" lon="6.50027">
        <ele>1528</ele>
        <time>2023-03-04T09:44:36Z</time>
      </trkpt>
      <trkpt lat="45.92685" lon="6.50032">
        <ele>1529</ele>
        <time>2023-03-04T09:44:41Z</time>
      </trkpt>
      <trkpt lat="45.92686" lon="6.50041">
        <ele>1530</ele>
        <time>2023-03-04T09:44:50Z</time>
      </trkpt>
      <trkpt lat="45.92688" lon="6.50045">
        <ele>1531</ele>
        <time>2023-03-04T09:45:06Z</time>
      </trkpt>
      <trkpt lat="45.92685" lon="6.50052">
        <ele>1532</ele>
        <time>2023-03-04T09:45:19Z</time>
      </trkpt>
      <trkpt lat="45.92684" lon="6.50061">
        <ele>1535</ele>
        <time>2023-03-04T09:45:44Z</time>
      </trkpt>
      <trkpt lat="45.92687" lon="6.50067">
        <ele>1536</ele>
        <time>2023-03-04T09:45:54Z</time>
      </trkpt>
      <trkpt lat="45.9269" lon="6.50074">
        <ele>1538</ele>
        <time>2023-03-04T09:46:14Z</time>
      </trkpt>
      <trkpt lat="45.92689" lon="6.50083">
        <ele>1540</ele>
        <time>2023-03-04T09:46:41Z</time>
      </trkpt>
      <trkpt lat="45.92689" lon="6.50091">
        <ele>1543</ele>
        <time>2023-03-04T09:46:47Z</time>
      </trkpt>
      <trkpt lat="45.92692" lon="6.50097">
        <ele>1545</ele>
        <time>2023-03-04T09:47:08Z</time>
      </trkpt>
      <trkpt lat="45.92695" lon="6.50105">
        <ele>1548</ele>
        <time>2023-03-04T09:47:15Z</time>
      </trkpt>
      <trkpt lat="45.92701" lon="6.50107">
        <ele>1548</ele>
        <time>2023-03-04T09:47:25Z</time>
      </trkpt>
      <trkpt lat="45.92712" lon="6.501">
        <ele>1552</ele>
        <time>2023-03-04T09:48:41Z</time>
      </trkpt>
      <trkpt lat="45.92718" lon="6.50103">
        <ele>1554</ele>
        <time>2023-03-04T09:48:52Z</time>
      </trkpt>
      <trkpt lat="45.92728" lon="6.5011">
        <ele>1555</ele>
        <time>2023-03-04T09:49:04Z</time>
      </trkpt>
      <trkpt lat="45.92732" lon="6.50117">
        <ele>1556</ele>
        <time>2023-03-04T09:49:13Z</time>
      </trkpt>
      <trkpt lat="45.92736" lon="6.50124">
        <ele>1556</ele>
        <time>2023-03-04T09:49:22Z</time>
      </trkpt>
      <trkpt lat="45.92738" lon="6.50132">
        <ele>1557</ele>
        <time>2023-03-04T09:49:30Z</time>
      </trkpt>
      <trkpt lat="45.92749" lon="6.50156">
        <ele>1559</ele>
        <time>2023-03-04T09:49:57Z</time>
      </trkpt>
      <trkpt lat="45.92751" lon="6.50163">
        <ele>1561</ele>
        <time>2023-03-04T09:50:06Z</time>
      </trkpt>
      <trkpt lat="45.92756" lon="6.50169">
        <ele>1561</ele>
        <time>2023-03-04T09:50:20Z</time>
      </trkpt>
      <trkpt lat="45.92763" lon="6.50178">
        <ele>1564</ele>
        <time>2023-03-04T09:50:36Z</time>
      </trkpt>
      <trkpt lat="45.92762" lon="6.50184">
        <ele>1564</ele>
        <time>2023-03-04T09:50:44Z</time>
      </trkpt>
      <trkpt lat="45.92762" lon="6.50192">
        <ele>1565</ele>
        <time>2023-03-04T09:50:50Z</time>
      </trkpt>
      <trkpt lat="45.92766" lon="6.502">
        <ele>1566</ele>
        <time>2023-03-04T09:51:05Z</time>
      </trkpt>
      <trkpt lat="45.92778" lon="6.50205">
        <ele>1568</ele>
        <time>2023-03-04T09:51:25Z</time>
      </trkpt>
      <trkpt lat="45.92783" lon="6.5021">
        <ele>1569</ele>
        <time>2023-03-04T09:51:35Z</time>
      </trkpt>
      <trkpt lat="45.92787" lon="6.50215">
        <ele>1570</ele>
        <time>2023-03-04T09:51:42Z</time>
      </trkpt>
      <trkpt lat="45.92793" lon="6.50219">
        <ele>1571</ele>
        <time>2023-03-04T09:51:49Z</time>
      </trkpt>
      <trkpt lat="45.92794" lon="6.50227">
        <ele>1572</ele>
        <time>2023-03-04T09:52:02Z</time>
      </trkpt>
      <trkpt lat="45.92794" lon="6.50232">
        <ele>1573</ele>
        <time>2023-03-04T09:52:09Z</time>
      </trkpt>
      <trkpt lat="45.92803" lon="6.50242">
        <ele>1576</ele>
        <time>2023-03-04T09:52:44Z</time>
      </trkpt>
      <trkpt lat="45.92807" lon="6.50249">
        <ele>1577</ele>
        <time>2023-03-04T09:52:51Z</time>
      </trkpt>
      <trkpt lat="45.92809" lon="6.50265">
        <ele>1579</ele>
        <time>2023-03-04T09:53:09Z</time>
      </trkpt>
      <trkpt lat="45.92812" lon="6.50272">
        <ele>1580</ele>
        <time>2023-03-04T09:53:21Z</time>
      </trkpt>
      <trkpt lat="45.92821" lon="6.50283">
        <ele>1582</ele>
        <time>2023-03-04T09:53:36Z</time>
      </trkpt>
      <trkpt lat="45.92819" lon="6.5029">
        <ele>1586</ele>
        <time>2023-03-04T09:54:02Z</time>
      </trkpt>
      <trkpt lat="45.92824" lon="6.50295">
        <ele>1588</ele>
        <time>2023-03-04T09:54:12Z</time>
      </trkpt>
      <trkpt lat="45.92828" lon="6.50298">
        <ele>1591</ele>
        <time>2023-03-04T09:54:50Z</time>
      </trkpt>
      <trkpt lat="45.92833" lon="6.50294">
        <ele>1591</ele>
        <time>2023-03-04T09:56:21Z</time>
      </trkpt>
      <trkpt lat="45.92839" lon="6.50294">
        <ele>1592</ele>
        <time>2023-03-04T09:56:28Z</time>
      </trkpt>
      <trkpt lat="45.92843" lon="6.50299">
        <ele>1592</ele>
        <time>2023-03-04T09:56:36Z</time>
      </trkpt>
      <trkpt lat="45.92843" lon="6.50308">
        <ele>1593</ele>
        <time>2023-03-04T09:57:04Z</time>
      </trkpt>
      <trkpt lat="45.92849" lon="6.50321">
        <ele>1595</ele>
        <time>2023-03-04T09:57:22Z</time>
      </trkpt>
      <trkpt lat="45.92849" lon="6.50329">
        <ele>1595</ele>
        <time>2023-03-04T09:57:31Z</time>
      </trkpt>
      <trkpt lat="45.92858" lon="6.50342">
        <ele>1598</ele>
        <time>2023-03-04T09:57:56Z</time>
      </trkpt>
      <trkpt lat="45.92862" lon="6.50347">
        <ele>1599</ele>
        <time>2023-03-04T09:58:12Z</time>
      </trkpt>
      <trkpt lat="45.92867" lon="6.5036">
        <ele>1602</ele>
        <time>2023-03-04T09:59:05Z</time>
      </trkpt>
      <trkpt lat="45.92884" lon="6.50388">
        <ele>1606</ele>
        <time>2023-03-04T09:59:41Z</time>
      </trkpt>
      <trkpt lat="45.92887" lon="6.50395">
        <ele>1608</ele>
        <time>2023-03-04T09:59:51Z</time>
      </trkpt>
      <trkpt lat="45.92889" lon="6.50403">
        <ele>1609</ele>
        <time>2023-03-04T10:00:04Z</time>
      </trkpt>
      <trkpt lat="45.92884" lon="6.50402">
        <ele>1610</ele>
        <time>2023-03-04T10:00:25Z</time>
      </trkpt>
      <trkpt lat="45.92873" lon="6.50404">
        <ele>1618</ele>
        <time>2023-03-04T10:01:02Z</time>
      </trkpt>
      <trkpt lat="45.92867" lon="6.50407">
        <ele>1621</ele>
        <time>2023-03-04T10:01:17Z</time>
      </trkpt>
      <trkpt lat="45.92863" lon="6.50413">
        <ele>1623</ele>
        <time>2023-03-04T10:01:25Z</time>
      </trkpt>
      <trkpt lat="45.92859" lon="6.50419">
        <ele>1625</ele>
        <time>2023-03-04T10:01:35Z</time>
      </trkpt>
      <trkpt lat="45.92857" lon="6.50427">
        <ele>1626</ele>
        <time>2023-03-04T10:01:43Z</time>
      </trkpt>
      <trkpt lat="45.92853" lon="6.50432">
        <ele>1628</ele>
        <time>2023-03-04T10:01:55Z</time>
      </trkpt>
      <trkpt lat="45.92848" lon="6.50435">
        <ele>1629</ele>
        <time>2023-03-04T10:02:07Z</time>
      </trkpt>
      <trkpt lat="45.92839" lon="6.50444">
        <ele>1632</ele>
        <time>2023-03-04T10:02:25Z</time>
      </trkpt>
      <trkpt lat="45.92834" lon="6.50446">
        <ele>1634</ele>
        <time>2023-03-04T10:02:35Z</time>
      </trkpt>
      <trkpt lat="45.92832" lon="6.50454">
        <ele>1635</ele>
        <time>2023-03-04T10:02:47Z</time>
      </trkpt>
      <trkpt lat="45.92833" lon="6.50461">
        <ele>1637</ele>
        <time>2023-03-04T10:02:57Z</time>
      </trkpt>
      <trkpt lat="45.92836" lon="6.50468">
        <ele>1638</ele>
        <time>2023-03-04T10:03:04Z</time>
      </trkpt>
      <trkpt lat="45.92839" lon="6.50472">
        <ele>1640</ele>
        <time>2023-03-04T10:03:11Z</time>
      </trkpt>
      <trkpt lat="45.92842" lon="6.50478">
        <ele>1641</ele>
        <time>2023-03-04T10:03:25Z</time>
      </trkpt>
      <trkpt lat="45.92847" lon="6.50483">
        <ele>1644</ele>
        <time>2023-03-04T10:03:36Z</time>
      </trkpt>
      <trkpt lat="45.92852" lon="6.50487">
        <ele>1645</ele>
        <time>2023-03-04T10:03:45Z</time>
      </trkpt>
      <trkpt lat="45.92856" lon="6.50485">
        <ele>1647</ele>
        <time>2023-03-04T10:03:49Z</time>
      </trkpt>
      <trkpt lat="45.92859" lon="6.5049">
        <ele>1648</ele>
        <time>2023-03-04T10:04:00Z</time>
      </trkpt>
      <trkpt lat="45.92864" lon="6.50493">
        <ele>1649</ele>
        <time>2023-03-04T10:04:11Z</time>
      </trkpt>
      <trkpt lat="45.9287" lon="6.50491">
        <ele>1651</ele>
        <time>2023-03-04T10:04:22Z</time>
      </trkpt>
      <trkpt lat="45.92875" lon="6.50488">
        <ele>1653</ele>
        <time>2023-03-04T10:04:39Z</time>
      </trkpt>
      <trkpt lat="45.9288" lon="6.50483">
        <ele>1654</ele>
        <time>2023-03-04T10:04:44Z</time>
      </trkpt>
      <trkpt lat="45.92886" lon="6.50484">
        <ele>1655</ele>
        <time>2023-03-04T10:04:58Z</time>
      </trkpt>
      <trkpt lat="45.92891" lon="6.50487">
        <ele>1656</ele>
        <time>2023-03-04T10:05:09Z</time>
      </trkpt>
      <trkpt lat="45.92895" lon="6.50495">
        <ele>1658</ele>
        <time>2023-03-04T10:12:20Z</time>
      </trkpt>
      <trkpt lat="45.929" lon="6.50501">
        <ele>1658</ele>
        <time>2023-03-04T10:12:29Z</time>
      </trkpt>
      <trkpt lat="45.92905" lon="6.50511">
        <ele>1661</ele>
        <time>2023-03-04T10:12:50Z</time>
      </trkpt>
      <trkpt lat="45.92909" lon="6.50514">
        <ele>1661</ele>
        <time>2023-03-04T10:12:56Z</time>
      </trkpt>
      <trkpt lat="45.92912" lon="6.5052">
        <ele>1662</ele>
        <time>2023-03-04T10:13:05Z</time>
      </trkpt>
      <trkpt lat="45.92912" lon="6.50525">
        <ele>1662</ele>
        <time>2023-03-04T10:13:13Z</time>
      </trkpt>
      <trkpt lat="45.92915" lon="6.50529">
        <ele>1662</ele>
        <time>2023-03-04T10:13:20Z</time>
      </trkpt>
      <trkpt lat="45.92921" lon="6.50536">
        <ele>1664</ele>
        <time>2023-03-04T10:13:39Z</time>
      </trkpt>
      <trkpt lat="45.92924" lon="6.50541">
        <ele>1664</ele>
        <time>2023-03-04T10:13:46Z</time>
      </trkpt>
      <trkpt lat="45.92924" lon="6.50547">
        <ele>1665</ele>
        <time>2023-03-04T10:13:53Z</time>
      </trkpt>
      <trkpt lat="45.92927" lon="6.5056">
        <ele>1665</ele>
        <time>2023-03-04T10:14:12Z</time>
      </trkpt>
      <trkpt lat="45.92929" lon="6.50568">
        <ele>1666</ele>
        <time>2023-03-04T10:14:21Z</time>
      </trkpt>
      <trkpt lat="45.92935" lon="6.50588">
        <ele>1666</ele>
        <time>2023-03-04T10:14:37Z</time>
      </trkpt>
      <trkpt lat="45.92936" lon="6.50594">
        <ele>1666</ele>
        <time>2023-03-04T10:14:40Z</time>
      </trkpt>
      <trkpt lat="45.9294" lon="6.50601">
        <ele>1667</ele>
        <time>2023-03-04T10:14:48Z</time>
      </trkpt>
      <trkpt lat="45.92943" lon="6.50603">
        <ele>1667</ele>
        <time>2023-03-04T10:14:53Z</time>
      </trkpt>
      <trkpt lat="45.92947" lon="6.50606">
        <ele>1667</ele>
        <time>2023-03-04T10:14:58Z</time>
      </trkpt>
      <trkpt lat="45.92954" lon="6.5061">
        <ele>1667</ele>
        <time>2023-03-04T10:15:07Z</time>
      </trkpt>
      <trkpt lat="45.92959" lon="6.50625">
        <ele>1667</ele>
        <time>2023-03-04T10:15:24Z</time>
      </trkpt>
      <trkpt lat="45.92962" lon="6.5063">
        <ele>1667</ele>
        <time>2023-03-04T10:15:30Z</time>
      </trkpt>
      <trkpt lat="45.92965" lon="6.50632">
        <ele>1667</ele>
        <time>2023-03-04T10:15:36Z</time>
      </trkpt>
      <trkpt lat="45.92975" lon="6.50641">
        <ele>1666</ele>
        <time>2023-03-04T10:15:57Z</time>
      </trkpt>
      <trkpt lat="45.9298" lon="6.50644">
        <ele>1666</ele>
        <time>2023-03-04T10:16:08Z</time>
      </trkpt>
      <trkpt lat="45.92991" lon="6.50656">
        <ele>1666</ele>
        <time>2023-03-04T10:16:37Z</time>
      </trkpt>
      <trkpt lat="45.92998" lon="6.50662">
        <ele>1666</ele>
        <time>2023-03-04T10:16:51Z</time>
      </trkpt>
      <trkpt lat="45.93012" lon="6.50681">
        <ele>1666</ele>
        <time>2023-03-04T10:17:23Z</time>
      </trkpt>
      <trkpt lat="45.93016" lon="6.50687">
        <ele>1667</ele>
        <time>2023-03-04T10:17:35Z</time>
      </trkpt>
      <trkpt lat="45.93023" lon="6.50705">
        <ele>1668</ele>
        <time>2023-03-04T10:18:11Z</time>
      </trkpt>
      <trkpt lat="45.93021" lon="6.50712">
        <ele>1668</ele>
        <time>2023-03-04T10:18:46Z</time>
      </trkpt>
      <trkpt lat="45.93023" lon="6.50719">
        <ele>1669</ele>
        <time>2023-03-04T10:18:53Z</time>
      </trkpt>
      <trkpt lat="45.93026" lon="6.50726">
        <ele>1670</ele>
        <time>2023-03-04T10:19:01Z</time>
      </trkpt>
      <trkpt lat="45.93028" lon="6.50735">
        <ele>1670</ele>
        <time>2023-03-04T10:19:07Z</time>
      </trkpt>
      <trkpt lat="45.93036" lon="6.50751">
        <ele>1672</ele>
        <time>2023-03-04T10:19:29Z</time>
      </trkpt>
      <trkpt lat="45.93041" lon="6.50754">
        <ele>1672</ele>
        <time>2023-03-04T10:19:46Z</time>
      </trkpt>
      <trkpt lat="45.93045" lon="6.50755">
        <ele>1673</ele>
        <time>2023-03-04T10:19:49Z</time>
      </trkpt>
      <trkpt lat="45.93049" lon="6.50757">
        <ele>1673</ele>
        <time>2023-03-04T10:19:52Z</time>
      </trkpt>
      <trkpt lat="45.93055" lon="6.5076">
        <ele>1673</ele>
        <time>2023-03-04T10:20:02Z</time>
      </trkpt>
      <trkpt lat="45.93058" lon="6.50766">
        <ele>1674</ele>
        <time>2023-03-04T10:20:07Z</time>
      </trkpt>
      <trkpt lat="45.93062" lon="6.5077">
        <ele>1674</ele>
        <time>2023-03-04T10:20:11Z</time>
      </trkpt>
      <trkpt lat="45.93074" lon="6.50781">
        <ele>1674</ele>
        <time>2023-03-04T10:20:25Z</time>
      </trkpt>
      <trkpt lat="45.9308" lon="6.50791">
        <ele>1675</ele>
        <time>2023-03-04T10:20:37Z</time>
      </trkpt>
      <trkpt lat="45.93083" lon="6.50802">
        <ele>1675</ele>
        <time>2023-03-04T10:20:49Z</time>
      </trkpt>
      <trkpt lat="45.93084" lon="6.50808">
        <ele>1676</ele>
        <time>2023-03-04T10:20:59Z</time>
      </trkpt>
      <trkpt lat="45.93086" lon="6.50812">
        <ele>1676</ele>
        <time>2023-03-04T10:21:02Z</time>
      </trkpt>
      <trkpt lat="45.93089" lon="6.50817">
        <ele>1676</ele>
        <time>2023-03-04T10:21:21Z</time>
      </trkpt>
      <trkpt lat="45.93089" lon="6.50822">
        <ele>1676</ele>
        <time>2023-03-04T10:21:37Z</time>
      </trkpt>
      <trkpt lat="45.93096" lon="6.50831">
        <ele>1677</ele>
        <time>2023-03-04T10:21:54Z</time>
      </trkpt>
      <trkpt lat="45.93098" lon="6.50837">
        <ele>1677</ele>
        <time>2023-03-04T10:21:59Z</time>
      </trkpt>
      <trkpt lat="45.93101" lon="6.50844">
        <ele>1677</ele>
        <time>2023-03-04T10:22:07Z</time>
      </trkpt>
      <trkpt lat="45.93107" lon="6.50858">
        <ele>1678</ele>
        <time>2023-03-04T10:22:43Z</time>
      </trkpt>
      <trkpt lat="45.93116" lon="6.50868">
        <ele>1680</ele>
        <time>2023-03-04T10:23:06Z</time>
      </trkpt>
      <trkpt lat="45.9312" lon="6.5087">
        <ele>1680</ele>
        <time>2023-03-04T10:23:11Z</time>
      </trkpt>
      <trkpt lat="45.93128" lon="6.50882">
        <ele>1682</ele>
        <time>2023-03-04T10:25:18Z</time>
      </trkpt>
      <trkpt lat="45.93129" lon="6.5089">
        <ele>1683</ele>
        <time>2023-03-04T10:25:25Z</time>
      </trkpt>
      <trkpt lat="45.93131" lon="6.50898">
        <ele>1683</ele>
        <time>2023-03-04T10:25:34Z</time>
      </trkpt>
      <trkpt lat="45.93133" lon="6.50903">
        <ele>1684</ele>
        <time>2023-03-04T10:25:40Z</time>
      </trkpt>
      <trkpt lat="45.93135" lon="6.50908">
        <ele>1684</ele>
        <time>2023-03-04T10:25:45Z</time>
      </trkpt>
      <trkpt lat="45.93136" lon="6.50914">
        <ele>1684</ele>
        <time>2023-03-04T10:25:51Z</time>
      </trkpt>
      <trkpt lat="45.93136" lon="6.50919">
        <ele>1685</ele>
        <time>2023-03-04T10:25:57Z</time>
      </trkpt>
      <trkpt lat="45.93137" lon="6.50924">
        <ele>1685</ele>
        <time>2023-03-04T10:26:06Z</time>
      </trkpt>
      <trkpt lat="45.93138" lon="6.50929">
        <ele>1686</ele>
        <time>2023-03-04T10:26:14Z</time>
      </trkpt>
      <trkpt lat="45.9314" lon="6.50934">
        <ele>1687</ele>
        <time>2023-03-04T10:26:20Z</time>
      </trkpt>
      <trkpt lat="45.93142" lon="6.50939">
        <ele>1687</ele>
        <time>2023-03-04T10:26:26Z</time>
      </trkpt>
      <trkpt lat="45.93143" lon="6.50944">
        <ele>1688</ele>
        <time>2023-03-04T10:26:32Z</time>
      </trkpt>
      <trkpt lat="45.93145" lon="6.50948">
        <ele>1688</ele>
        <time>2023-03-04T10:26:39Z</time>
      </trkpt>
      <trkpt lat="45.93148" lon="6.50953">
        <ele>1689</ele>
        <time>2023-03-04T10:26:44Z</time>
      </trkpt>
      <trkpt lat="45.93154" lon="6.50963">
        <ele>1690</ele>
        <time>2023-03-04T10:26:57Z</time>
      </trkpt>
      <trkpt lat="45.93156" lon="6.50976">
        <ele>1691</ele>
        <time>2023-03-04T10:27:13Z</time>
      </trkpt>
      <trkpt lat="45.93158" lon="6.50982">
        <ele>1692</ele>
        <time>2023-03-04T10:27:21Z</time>
      </trkpt>
      <trkpt lat="45.93158" lon="6.50989">
        <ele>1693</ele>
        <time>2023-03-04T10:27:31Z</time>
      </trkpt>
      <trkpt lat="45.93161" lon="6.50996">
        <ele>1694</ele>
        <time>2023-03-04T10:27:40Z</time>
      </trkpt>
      <trkpt lat="45.93169" lon="6.5101">
        <ele>1696</ele>
        <time>2023-03-04T10:27:56Z</time>
      </trkpt>
      <trkpt lat="45.93166" lon="6.51016">
        <ele>1697</ele>
        <time>2023-03-04T10:28:17Z</time>
      </trkpt>
      <trkpt lat="45.93162" lon="6.51011">
        <ele>1698</ele>
        <time>2023-03-04T10:28:27Z</time>
      </trkpt>
      <trkpt lat="45.93151" lon="6.51006">
        <ele>1702</ele>
        <time>2023-03-04T10:28:47Z</time>
      </trkpt>
      <trkpt lat="45.93145" lon="6.51006">
        <ele>1705</ele>
        <time>2023-03-04T10:29:05Z</time>
      </trkpt>
      <trkpt lat="45.93139" lon="6.51008">
        <ele>1706</ele>
        <time>2023-03-04T10:29:16Z</time>
      </trkpt>
      <trkpt lat="45.93133" lon="6.5101">
        <ele>1709</ele>
        <time>2023-03-04T10:29:27Z</time>
      </trkpt>
      <trkpt lat="45.93127" lon="6.5101">
        <ele>1710</ele>
        <time>2023-03-04T10:29:38Z</time>
      </trkpt>
      <trkpt lat="45.93117" lon="6.51003">
        <ele>1713</ele>
        <time>2023-03-04T10:29:54Z</time>
      </trkpt>
      <trkpt lat="45.93113" lon="6.50999">
        <ele>1715</ele>
        <time>2023-03-04T10:30:03Z</time>
      </trkpt>
      <trkpt lat="45.93107" lon="6.51001">
        <ele>1716</ele>
        <time>2023-03-04T10:30:17Z</time>
      </trkpt>
      <trkpt lat="45.93108" lon="6.51006">
        <ele>1718</ele>
        <time>2023-03-04T10:30:22Z</time>
      </trkpt>
      <trkpt lat="45.9311" lon="6.51013">
        <ele>1720</ele>
        <time>2023-03-04T10:30:33Z</time>
      </trkpt>
      <trkpt lat="45.93111" lon="6.51021">
        <ele>1722</ele>
        <time>2023-03-04T10:30:45Z</time>
      </trkpt>
      <trkpt lat="45.93115" lon="6.51036">
        <ele>1725</ele>
        <time>2023-03-04T10:31:05Z</time>
      </trkpt>
      <trkpt lat="45.93117" lon="6.51043">
        <ele>1727</ele>
        <time>2023-03-04T10:31:13Z</time>
      </trkpt>
      <trkpt lat="45.93121" lon="6.51061">
        <ele>1730</ele>
        <time>2023-03-04T10:31:34Z</time>
      </trkpt>
      <trkpt lat="45.93132" lon="6.51085">
        <ele>1734</ele>
        <time>2023-03-04T10:32:11Z</time>
      </trkpt>
      <trkpt lat="45.93135" lon="6.51092">
        <ele>1735</ele>
        <time>2023-03-04T10:32:19Z</time>
      </trkpt>
      <trkpt lat="45.93138" lon="6.51099">
        <ele>1737</ele>
        <time>2023-03-04T10:32:29Z</time>
      </trkpt>
      <trkpt lat="45.93137" lon="6.51108">
        <ele>1738</ele>
        <time>2023-03-04T10:32:38Z</time>
      </trkpt>
      <trkpt lat="45.93135" lon="6.51115">
        <ele>1741</ele>
        <time>2023-03-04T10:32:49Z</time>
      </trkpt>
      <trkpt lat="45.93133" lon="6.51124">
        <ele>1743</ele>
        <time>2023-03-04T10:33:01Z</time>
      </trkpt>
      <trkpt lat="45.93133" lon="6.51129">
        <ele>1744</ele>
        <time>2023-03-04T10:33:08Z</time>
      </trkpt>
      <trkpt lat="45.93126" lon="6.51129">
        <ele>1745</ele>
        <time>2023-03-04T10:33:26Z</time>
      </trkpt>
      <trkpt lat="45.93121" lon="6.51126">
        <ele>1748</ele>
        <time>2023-03-04T10:33:36Z</time>
      </trkpt>
      <trkpt lat="45.93115" lon="6.51122">
        <ele>1749</ele>
        <time>2023-03-04T10:33:47Z</time>
      </trkpt>
      <trkpt lat="45.93108" lon="6.51123">
        <ele>1752</ele>
        <time>2023-03-04T10:34:00Z</time>
      </trkpt>
      <trkpt lat="45.93099" lon="6.51132">
        <ele>1756</ele>
        <time>2023-03-04T10:34:19Z</time>
      </trkpt>
      <trkpt lat="45.93101" lon="6.51151">
        <ele>1759</ele>
        <time>2023-03-04T10:34:46Z</time>
      </trkpt>
      <trkpt lat="45.931" lon="6.51158">
        <ele>1761</ele>
        <time>2023-03-04T10:34:59Z</time>
      </trkpt>
      <trkpt lat="45.93092" lon="6.51159">
        <ele>1762</ele>
        <time>2023-03-04T10:35:19Z</time>
      </trkpt>
      <trkpt lat="45.93087" lon="6.51156">
        <ele>1764</ele>
        <time>2023-03-04T10:35:32Z</time>
      </trkpt>
      <trkpt lat="45.93081" lon="6.5116">
        <ele>1765</ele>
        <time>2023-03-04T10:35:46Z</time>
      </trkpt>
      <trkpt lat="45.93072" lon="6.51168">
        <ele>1769</ele>
        <time>2023-03-04T10:36:14Z</time>
      </trkpt>
      <trkpt lat="45.93066" lon="6.51167">
        <ele>1772</ele>
        <time>2023-03-04T10:36:23Z</time>
      </trkpt>
      <trkpt lat="45.9306" lon="6.51168">
        <ele>1773</ele>
        <time>2023-03-04T10:36:33Z</time>
      </trkpt>
      <trkpt lat="45.93055" lon="6.51167">
        <ele>1775</ele>
        <time>2023-03-04T10:36:42Z</time>
      </trkpt>
      <trkpt lat="45.93049" lon="6.51165">
        <ele>1776</ele>
        <time>2023-03-04T10:36:51Z</time>
      </trkpt>
      <trkpt lat="45.9304" lon="6.51176">
        <ele>1779</ele>
        <time>2023-03-04T10:37:07Z</time>
      </trkpt>
      <trkpt lat="45.93035" lon="6.51179">
        <ele>1781</ele>
        <time>2023-03-04T10:37:16Z</time>
      </trkpt>
      <trkpt lat="45.93024" lon="6.51186">
        <ele>1784</ele>
        <time>2023-03-04T10:37:40Z</time>
      </trkpt>
      <trkpt lat="45.93012" lon="6.51187">
        <ele>1786</ele>
        <time>2023-03-04T10:38:16Z</time>
      </trkpt>
      <trkpt lat="45.93008" lon="6.51193">
        <ele>1785</ele>
        <time>2023-03-04T10:38:54Z</time>
      </trkpt>
      <trkpt lat="45.93003" lon="6.51196">
        <ele>1785</ele>
        <time>2023-03-04T10:39:05Z</time>
      </trkpt>
      <trkpt lat="45.92999" lon="6.51202">
        <ele>1787</ele>
        <time>2023-03-04T10:39:15Z</time>
      </trkpt>
      <trkpt lat="45.92993" lon="6.51209">
        <ele>1787</ele>
        <time>2023-03-04T10:39:24Z</time>
      </trkpt>
      <trkpt lat="45.92979" lon="6.51218">
        <ele>1791</ele>
        <time>2023-03-04T10:39:50Z</time>
      </trkpt>
      <trkpt lat="45.92973" lon="6.5122">
        <ele>1794</ele>
        <time>2023-03-04T10:40:00Z</time>
      </trkpt>
      <trkpt lat="45.9297" lon="6.51228">
        <ele>1795</ele>
        <time>2023-03-04T10:40:09Z</time>
      </trkpt>
      <trkpt lat="45.92966" lon="6.51234">
        <ele>1797</ele>
        <time>2023-03-04T10:40:16Z</time>
      </trkpt>
      <trkpt lat="45.92957" lon="6.51243">
        <ele>1799</ele>
        <time>2023-03-04T10:40:31Z</time>
      </trkpt>
      <trkpt lat="45.9295" lon="6.51247">
        <ele>1800</ele>
        <time>2023-03-04T10:40:47Z</time>
      </trkpt>
      <trkpt lat="45.92941" lon="6.51259">
        <ele>1808</ele>
        <time>2023-03-04T10:41:11Z</time>
      </trkpt>
      <trkpt lat="45.92939" lon="6.51267">
        <ele>1809</ele>
        <time>2023-03-04T10:41:16Z</time>
      </trkpt>
      <trkpt lat="45.92937" lon="6.51274">
        <ele>1811</ele>
        <time>2023-03-04T10:41:27Z</time>
      </trkpt>
      <trkpt lat="45.92931" lon="6.51281">
        <ele>1813</ele>
        <time>2023-03-04T10:41:44Z</time>
      </trkpt>
      <trkpt lat="45.92926" lon="6.51289">
        <ele>1817</ele>
        <time>2023-03-04T10:41:57Z</time>
      </trkpt>
      <trkpt lat="45.92922" lon="6.51298">
        <ele>1818</ele>
        <time>2023-03-04T10:42:19Z</time>
      </trkpt>
      <trkpt lat="45.92916" lon="6.51305">
        <ele>1822</ele>
        <time>2023-03-04T10:42:32Z</time>
      </trkpt>
      <trkpt lat="45.92913" lon="6.51315">
        <ele>1825</ele>
        <time>2023-03-04T10:42:43Z</time>
      </trkpt>
      <trkpt lat="45.92911" lon="6.51322">
        <ele>1827</ele>
        <time>2023-03-04T10:42:51Z</time>
      </trkpt>
      <trkpt lat="45.92912" lon="6.5133">
        <ele>1828</ele>
        <time>2023-03-04T10:42:59Z</time>
      </trkpt>
      <trkpt lat="45.92913" lon="6.51338">
        <ele>1830</ele>
        <time>2023-03-04T10:43:09Z</time>
      </trkpt>
      <trkpt lat="45.92914" lon="6.51343">
        <ele>1831</ele>
        <time>2023-03-04T10:43:16Z</time>
      </trkpt>
      <trkpt lat="45.92909" lon="6.51347">
        <ele>1833</ele>
        <time>2023-03-04T10:43:32Z</time>
      </trkpt>
      <trkpt lat="45.92903" lon="6.5135">
        <ele>1837</ele>
        <time>2023-03-04T10:43:44Z</time>
      </trkpt>
      <trkpt lat="45.92898" lon="6.51352">
        <ele>1839</ele>
        <time>2023-03-04T10:44:06Z</time>
      </trkpt>
      <trkpt lat="45.92893" lon="6.51348">
        <ele>1843</ele>
        <time>2023-03-04T10:44:27Z</time>
      </trkpt>
      <trkpt lat="45.92887" lon="6.51347">
        <ele>1843</ele>
        <time>2023-03-04T10:44:35Z</time>
      </trkpt>
      <trkpt lat="45.92884" lon="6.51354">
        <ele>1847</ele>
        <time>2023-03-04T10:45:15Z</time>
      </trkpt>
      <trkpt lat="45.92885" lon="6.5136">
        <ele>1852</ele>
        <time>2023-03-04T10:47:21Z</time>
      </trkpt>
      <trkpt lat="45.92882" lon="6.51368">
        <ele>1855</ele>
        <time>2023-03-04T10:51:45Z</time>
      </trkpt>
      <trkpt lat="45.92881" lon="6.51376">
        <ele>1856</ele>
        <time>2023-03-04T10:51:54Z</time>
      </trkpt>
      <trkpt lat="45.9288" lon="6.51381">
        <ele>1857</ele>
        <time>2023-03-04T10:52:00Z</time>
      </trkpt>
      <trkpt lat="45.9288" lon="6.51387">
        <ele>1857</ele>
        <time>2023-03-04T10:52:05Z</time>
      </trkpt>
      <trkpt lat="45.92879" lon="6.51392">
        <ele>1857</ele>
        <time>2023-03-04T10:52:12Z</time>
      </trkpt>
      <trkpt lat="45.9288" lon="6.514">
        <ele>1858</ele>
        <time>2023-03-04T10:52:19Z</time>
      </trkpt>
      <trkpt lat="45.9288" lon="6.51408">
        <ele>1858</ele>
        <time>2023-03-04T10:52:29Z</time>
      </trkpt>
      <trkpt lat="45.92878" lon="6.51415">
        <ele>1859</ele>
        <time>2023-03-04T10:52:41Z</time>
      </trkpt>
      <trkpt lat="45.92867" lon="6.5142">
        <ele>1860</ele>
        <time>2023-03-04T10:53:00Z</time>
      </trkpt>
      <trkpt lat="45.92862" lon="6.51422">
        <ele>1860</ele>
        <time>2023-03-04T10:53:12Z</time>
      </trkpt>
      <trkpt lat="45.9285" lon="6.51428">
        <ele>1862</ele>
        <time>2023-03-04T10:53:37Z</time>
      </trkpt>
      <trkpt lat="45.92846" lon="6.51433">
        <ele>1864</ele>
        <time>2023-03-04T10:53:46Z</time>
      </trkpt>
      <trkpt lat="45.92841" lon="6.51436">
        <ele>1864</ele>
        <time>2023-03-04T10:53:53Z</time>
      </trkpt>
      <trkpt lat="45.92836" lon="6.51439">
        <ele>1866</ele>
        <time>2023-03-04T10:54:09Z</time>
      </trkpt>
      <trkpt lat="45.92831" lon="6.51441">
        <ele>1867</ele>
        <time>2023-03-04T10:54:25Z</time>
      </trkpt>
      <trkpt lat="45.92825" lon="6.51444">
        <ele>1869</ele>
        <time>2023-03-04T10:54:39Z</time>
      </trkpt>
      <trkpt lat="45.92821" lon="6.51449">
        <ele>1870</ele>
        <time>2023-03-04T10:54:58Z</time>
      </trkpt>
      <trkpt lat="45.92824" lon="6.51459">
        <ele>1871</ele>
        <time>2023-03-04T10:55:10Z</time>
      </trkpt>
      <trkpt lat="45.92827" lon="6.51467">
        <ele>1875</ele>
        <time>2023-03-04T10:55:20Z</time>
      </trkpt>
      <trkpt lat="45.92832" lon="6.51471">
        <ele>1877</ele>
        <time>2023-03-04T10:55:33Z</time>
      </trkpt>
      <trkpt lat="45.92838" lon="6.51479">
        <ele>1881</ele>
        <time>2023-03-04T10:55:45Z</time>
      </trkpt>
      <trkpt lat="45.92843" lon="6.51483">
        <ele>1884</ele>
        <time>2023-03-04T10:55:57Z</time>
      </trkpt>
      <trkpt lat="45.92848" lon="6.51488">
        <ele>1886</ele>
        <time>2023-03-04T10:56:05Z</time>
      </trkpt>
      <trkpt lat="45.92852" lon="6.51494">
        <ele>1889</ele>
        <time>2023-03-04T10:56:18Z</time>
      </trkpt>
      <trkpt lat="45.92856" lon="6.515">
        <ele>1890</ele>
        <time>2023-03-04T10:56:24Z</time>
      </trkpt>
      <trkpt lat="45.9286" lon="6.51506">
        <ele>1891</ele>
        <time>2023-03-04T10:56:31Z</time>
      </trkpt>
      <trkpt lat="45.92863" lon="6.51512">
        <ele>1892</ele>
        <time>2023-03-04T10:56:40Z</time>
      </trkpt>
      <trkpt lat="45.92871" lon="6.51524">
        <ele>1896</ele>
        <time>2023-03-04T10:56:57Z</time>
      </trkpt>
      <trkpt lat="45.92876" lon="6.51538">
        <ele>1900</ele>
        <time>2023-03-04T10:57:20Z</time>
      </trkpt>
      <trkpt lat="45.92876" lon="6.51544">
        <ele>1902</ele>
        <time>2023-03-04T10:57:27Z</time>
      </trkpt>
      <trkpt lat="45.92875" lon="6.51549">
        <ele>1903</ele>
        <time>2023-03-04T10:57:38Z</time>
      </trkpt>
      <trkpt lat="45.92875" lon="6.51557">
        <ele>1904</ele>
        <time>2023-03-04T10:57:50Z</time>
      </trkpt>
      <trkpt lat="45.92879" lon="6.51573">
        <ele>1907</ele>
        <time>2023-03-04T10:58:09Z</time>
      </trkpt>
      <trkpt lat="45.92873" lon="6.51574">
        <ele>1909</ele>
        <time>2023-03-04T10:58:27Z</time>
      </trkpt>
      <trkpt lat="45.92873" lon="6.51582">
        <ele>1910</ele>
        <time>2023-03-04T10:58:40Z</time>
      </trkpt>
      <trkpt lat="45.92878" lon="6.5159">
        <ele>1911</ele>
        <time>2023-03-04T10:58:50Z</time>
      </trkpt>
      <trkpt lat="45.92883" lon="6.51599">
        <ele>1914</ele>
        <time>2023-03-04T10:59:01Z</time>
      </trkpt>
      <trkpt lat="45.92891" lon="6.51619">
        <ele>1918</ele>
        <time>2023-03-04T10:59:33Z</time>
      </trkpt>
      <trkpt lat="45.92898" lon="6.51642">
        <ele>1924</ele>
        <time>2023-03-04T11:00:04Z</time>
      </trkpt>
      <trkpt lat="45.929" lon="6.5165">
        <ele>1925</ele>
        <time>2023-03-04T11:00:18Z</time>
      </trkpt>
      <trkpt lat="45.92911" lon="6.51669">
        <ele>1929</ele>
        <time>2023-03-04T11:00:46Z</time>
      </trkpt>
      <trkpt lat="45.92916" lon="6.51685">
        <ele>1932</ele>
        <time>2023-03-04T11:01:08Z</time>
      </trkpt>
      <trkpt lat="45.92911" lon="6.5168">
        <ele>1933</ele>
        <time>2023-03-04T11:01:22Z</time>
      </trkpt>
      <trkpt lat="45.92905" lon="6.51678">
        <ele>1933</ele>
        <time>2023-03-04T11:01:30Z</time>
      </trkpt>
      <trkpt lat="45.92899" lon="6.51676">
        <ele>1936</ele>
        <time>2023-03-04T11:01:41Z</time>
      </trkpt>
      <trkpt lat="45.92892" lon="6.51674">
        <ele>1938</ele>
        <time>2023-03-04T11:01:58Z</time>
      </trkpt>
      <trkpt lat="45.92887" lon="6.51673">
        <ele>1939</ele>
        <time>2023-03-04T11:02:07Z</time>
      </trkpt>
      <trkpt lat="45.92882" lon="6.5167">
        <ele>1940</ele>
        <time>2023-03-04T11:02:17Z</time>
      </trkpt>
      <trkpt lat="45.92876" lon="6.51669">
        <ele>1941</ele>
        <time>2023-03-04T11:02:34Z</time>
      </trkpt>
      <trkpt lat="45.92869" lon="6.51672">
        <ele>1942</ele>
        <time>2023-03-04T11:02:49Z</time>
      </trkpt>
      <trkpt lat="45.92862" lon="6.51671">
        <ele>1945</ele>
        <time>2023-03-04T11:03:12Z</time>
      </trkpt>
      <trkpt lat="45.92856" lon="6.51671">
        <ele>1946</ele>
        <time>2023-03-04T11:03:42Z</time>
      </trkpt>
      <trkpt lat="45.92855" lon="6.5168">
        <ele>1947</ele>
        <time>2023-03-04T11:03:54Z</time>
      </trkpt>
      <trkpt lat="45.92859" lon="6.51695">
        <ele>1949</ele>
        <time>2023-03-04T11:04:19Z</time>
      </trkpt>
      <trkpt lat="45.92863" lon="6.51704">
        <ele>1952</ele>
        <time>2023-03-04T11:04:42Z</time>
      </trkpt>
      <trkpt lat="45.92866" lon="6.5171">
        <ele>1953</ele>
        <time>2023-03-04T11:04:50Z</time>
      </trkpt>
      <trkpt lat="45.92868" lon="6.51717">
        <ele>1955</ele>
        <time>2023-03-04T11:05:08Z</time>
      </trkpt>
      <trkpt lat="45.92876" lon="6.51729">
        <ele>1959</ele>
        <time>2023-03-04T11:05:31Z</time>
      </trkpt>
      <trkpt lat="45.92871" lon="6.51734">
        <ele>1961</ele>
        <time>2023-03-04T11:06:13Z</time>
      </trkpt>
      <trkpt lat="45.92866" lon="6.51735">
        <ele>1961</ele>
        <time>2023-03-04T11:06:26Z</time>
      </trkpt>
      <trkpt lat="45.92846" lon="6.51731">
        <ele>1966</ele>
        <time>2023-03-04T11:07:02Z</time>
      </trkpt>
      <trkpt lat="45.9284" lon="6.5173">
        <ele>1967</ele>
        <time>2023-03-04T11:07:12Z</time>
      </trkpt>
      <trkpt lat="45.92835" lon="6.51731">
        <ele>1968</ele>
        <time>2023-03-04T11:07:22Z</time>
      </trkpt>
      <trkpt lat="45.92829" lon="6.51731">
        <ele>1970</ele>
        <time>2023-03-04T11:07:37Z</time>
      </trkpt>
      <trkpt lat="45.92821" lon="6.5173">
        <ele>1971</ele>
        <time>2023-03-04T11:07:48Z</time>
      </trkpt>
      <trkpt lat="45.9281" lon="6.51729">
        <ele>1973</ele>
        <time>2023-03-04T11:08:05Z</time>
      </trkpt>
      <trkpt lat="45.928" lon="6.51735">
        <ele>1976</ele>
        <time>2023-03-04T11:08:29Z</time>
      </trkpt>
      <trkpt lat="45.92794" lon="6.51736">
        <ele>1978</ele>
        <time>2023-03-04T11:08:41Z</time>
      </trkpt>
      <trkpt lat="45.92789" lon="6.51737">
        <ele>1980</ele>
        <time>2023-03-04T11:09:44Z</time>
      </trkpt>
      <trkpt lat="45.92791" lon="6.51743">
        <ele>1982</ele>
        <time>2023-03-04T11:15:17Z</time>
      </trkpt>
      <trkpt lat="45.92785" lon="6.51744">
        <ele>1982</ele>
        <time>2023-03-04T11:16:37Z</time>
      </trkpt>
      <trkpt lat="45.92781" lon="6.51745">
        <ele>1985</ele>
        <time>2023-03-04T11:16:43Z</time>
      </trkpt>
      <trkpt lat="45.92776" lon="6.51745">
        <ele>1986</ele>
        <time>2023-03-04T11:16:52Z</time>
      </trkpt>
      <trkpt lat="45.9276" lon="6.51751">
        <ele>1989</ele>
        <time>2023-03-04T11:17:17Z</time>
      </trkpt>
      <trkpt lat="45.92756" lon="6.51755">
        <ele>1989</ele>
        <time>2023-03-04T11:17:28Z</time>
      </trkpt>
      <trkpt lat="45.92756" lon="6.51763">
        <ele>1991</ele>
        <time>2023-03-04T11:17:46Z</time>
      </trkpt>
      <trkpt lat="45.92761" lon="6.51767">
        <ele>1992</ele>
        <time>2023-03-04T11:17:54Z</time>
      </trkpt>
      <trkpt lat="45.92781" lon="6.51785">
        <ele>1996</ele>
        <time>2023-03-04T11:18:34Z</time>
      </trkpt>
      <trkpt lat="45.92785" lon="6.51791">
        <ele>1997</ele>
        <time>2023-03-04T11:18:44Z</time>
      </trkpt>
      <trkpt lat="45.9279" lon="6.51797">
        <ele>1999</ele>
        <time>2023-03-04T11:18:57Z</time>
      </trkpt>
      <trkpt lat="45.92795" lon="6.51802">
        <ele>2000</ele>
        <time>2023-03-04T11:19:08Z</time>
      </trkpt>
      <trkpt lat="45.928" lon="6.51806">
        <ele>2002</ele>
        <time>2023-03-04T11:19:19Z</time>
      </trkpt>
      <trkpt lat="45.92805" lon="6.51809">
        <ele>2003</ele>
        <time>2023-03-04T11:19:29Z</time>
      </trkpt>
      <trkpt lat="45.9281" lon="6.51814">
        <ele>2005</ele>
        <time>2023-03-04T11:19:37Z</time>
      </trkpt>
      <trkpt lat="45.92815" lon="6.51817">
        <ele>2006</ele>
        <time>2023-03-04T11:19:52Z</time>
      </trkpt>
      <trkpt lat="45.92819" lon="6.51824">
        <ele>2009</ele>
        <time>2023-03-04T11:20:04Z</time>
      </trkpt>
      <trkpt lat="45.92823" lon="6.51829">
        <ele>2010</ele>
        <time>2023-03-04T11:20:13Z</time>
      </trkpt>
      <trkpt lat="45.92827" lon="6.51836">
        <ele>2014</ele>
        <time>2023-03-04T11:20:34Z</time>
      </trkpt>
      <trkpt lat="45.9283" lon="6.51842">
        <ele>2015</ele>
        <time>2023-03-04T11:20:42Z</time>
      </trkpt>
      <trkpt lat="45.9283" lon="6.51843">
        <ele>2020</ele>
        <time>2023-03-04T11:21:17Z</time>
      </trkpt>
      <trkpt lat="45.92824" lon="6.51842">
        <ele>2021</ele>
        <time>2023-03-04T11:21:28Z</time>
      </trkpt>
      <trkpt lat="45.92813" lon="6.51844">
        <ele>2027</ele>
        <time>2023-03-04T11:21:47Z</time>
      </trkpt>
      <trkpt lat="45.92803" lon="6.51845">
        <ele>2030</ele>
        <time>2023-03-04T11:22:04Z</time>
      </trkpt>
      <trkpt lat="45.92798" lon="6.51842">
        <ele>2032</ele>
        <time>2023-03-04T11:22:13Z</time>
      </trkpt>
      <trkpt lat="45.92793" lon="6.51842">
        <ele>2032</ele>
        <time>2023-03-04T11:22:21Z</time>
      </trkpt>
      <trkpt lat="45.92781" lon="6.51843">
        <ele>2035</ele>
        <time>2023-03-04T11:22:42Z</time>
      </trkpt>
      <trkpt lat="45.92776" lon="6.51845">
        <ele>2037</ele>
        <time>2023-03-04T11:22:51Z</time>
      </trkpt>
      <trkpt lat="45.92771" lon="6.51848">
        <ele>2038</ele>
        <time>2023-03-04T11:23:00Z</time>
      </trkpt>
      <trkpt lat="45.92767" lon="6.51852">
        <ele>2039</ele>
        <time>2023-03-04T11:23:06Z</time>
      </trkpt>
      <trkpt lat="45.92762" lon="6.51854">
        <ele>2040</ele>
        <time>2023-03-04T11:23:20Z</time>
      </trkpt>
      <trkpt lat="45.92757" lon="6.51854">
        <ele>2042</ele>
        <time>2023-03-04T11:23:31Z</time>
      </trkpt>
      <trkpt lat="45.92746" lon="6.51853">
        <ele>2044</ele>
        <time>2023-03-04T11:23:49Z</time>
      </trkpt>
      <trkpt lat="45.92731" lon="6.51842">
        <ele>2047</ele>
        <time>2023-03-04T11:24:15Z</time>
      </trkpt>
      <trkpt lat="45.9272" lon="6.51839">
        <ele>2049</ele>
        <time>2023-03-04T11:24:37Z</time>
      </trkpt>
      <trkpt lat="45.92716" lon="6.51835">
        <ele>2051</ele>
        <time>2023-03-04T11:24:46Z</time>
      </trkpt>
      <trkpt lat="45.92711" lon="6.5183">
        <ele>2052</ele>
        <time>2023-03-04T11:24:55Z</time>
      </trkpt>
      <trkpt lat="45.92706" lon="6.51826">
        <ele>2053</ele>
        <time>2023-03-04T11:25:04Z</time>
      </trkpt>
      <trkpt lat="45.92701" lon="6.51822">
        <ele>2054</ele>
        <time>2023-03-04T11:25:12Z</time>
      </trkpt>
      <trkpt lat="45.92691" lon="6.51817">
        <ele>2056</ele>
        <time>2023-03-04T11:25:29Z</time>
      </trkpt>
      <trkpt lat="45.92688" lon="6.51818">
        <ele>2058</ele>
        <time>2023-03-04T11:25:37Z</time>
      </trkpt>
      <trkpt lat="45.9269" lon="6.51824">
        <ele>2060</ele>
        <time>2023-03-04T11:27:09Z</time>
      </trkpt>
      <trkpt lat="45.92693" lon="6.51828">
        <ele>2058</ele>
        <time>2023-03-04T11:30:41Z</time>
      </trkpt>
      <trkpt lat="45.92689" lon="6.5183">
        <ele>2060</ele>
        <time>2023-03-04T11:36:16Z</time>
      </trkpt>
      <trkpt lat="45.92688" lon="6.51835">
        <ele>2068</ele>
        <time>2023-03-04T11:43:31Z</time>
      </trkpt>
      <trkpt lat="45.92681" lon="6.51839">
        <ele>2068</ele>
        <time>2023-03-04T11:43:41Z</time>
      </trkpt>
      <trkpt lat="45.92674" lon="6.51836">
        <ele>2068</ele>
        <time>2023-03-04T11:43:50Z</time>
      </trkpt>
      <trkpt lat="45.92668" lon="6.51833">
        <ele>2068</ele>
        <time>2023-03-04T11:43:56Z</time>
      </trkpt>
      <trkpt lat="45.92662" lon="6.51834">
        <ele>2068</ele>
        <time>2023-03-04T11:44:04Z</time>
      </trkpt>
      <trkpt lat="45.92646" lon="6.51831">
        <ele>2069</ele>
        <time>2023-03-04T11:44:40Z</time>
      </trkpt>
      <trkpt lat="45.92623" lon="6.51837">
        <ele>2070</ele>
        <time>2023-03-04T11:45:18Z</time>
      </trkpt>
      <trkpt lat="45.92619" lon="6.51842">
        <ele>2071</ele>
        <time>2023-03-04T11:45:31Z</time>
      </trkpt>
      <trkpt lat="45.92614" lon="6.51843">
        <ele>2072</ele>
        <time>2023-03-04T11:45:43Z</time>
      </trkpt>
      <trkpt lat="45.9261" lon="6.51842">
        <ele>2072</ele>
        <time>2023-03-04T11:45:49Z</time>
      </trkpt>
      <trkpt lat="45.92606" lon="6.51843">
        <ele>2073</ele>
        <time>2023-03-04T11:46:02Z</time>
      </trkpt>
      <trkpt lat="45.92604" lon="6.51848">
        <ele>2074</ele>
        <time>2023-03-04T11:46:10Z</time>
      </trkpt>
      <trkpt lat="45.926" lon="6.5185">
        <ele>2075</ele>
        <time>2023-03-04T11:46:19Z</time>
      </trkpt>
      <trkpt lat="45.92597" lon="6.51847">
        <ele>2076</ele>
        <time>2023-03-04T11:46:26Z</time>
      </trkpt>
      <trkpt lat="45.92596" lon="6.51836">
        <ele>2077</ele>
        <time>2023-03-04T11:46:40Z</time>
      </trkpt>
      <trkpt lat="45.92595" lon="6.51828">
        <ele>2078</ele>
        <time>2023-03-04T11:46:47Z</time>
      </trkpt>
      <trkpt lat="45.92596" lon="6.51823">
        <ele>2079</ele>
        <time>2023-03-04T11:46:52Z</time>
      </trkpt>
      <trkpt lat="45.92595" lon="6.51797">
        <ele>2083</ele>
        <time>2023-03-04T11:47:19Z</time>
      </trkpt>
      <trkpt lat="45.92593" lon="6.51789">
        <ele>2084</ele>
        <time>2023-03-04T11:47:27Z</time>
      </trkpt>
      <trkpt lat="45.92589" lon="6.51783">
        <ele>2085</ele>
        <time>2023-03-04T11:47:34Z</time>
      </trkpt>
      <trkpt lat="45.92585" lon="6.51783">
        <ele>2087</ele>
        <time>2023-03-04T11:47:42Z</time>
      </trkpt>
      <trkpt lat="45.92582" lon="6.51781">
        <ele>2087</ele>
        <time>2023-03-04T11:47:48Z</time>
      </trkpt>
      <trkpt lat="45.92578" lon="6.5178">
        <ele>2089</ele>
        <time>2023-03-04T11:47:57Z</time>
      </trkpt>
      <trkpt lat="45.92575" lon="6.51778">
        <ele>2090</ele>
        <time>2023-03-04T11:48:03Z</time>
      </trkpt>
      <trkpt lat="45.92558" lon="6.51774">
        <ele>2096</ele>
        <time>2023-03-04T11:48:32Z</time>
      </trkpt>
      <trkpt lat="45.92552" lon="6.51773">
        <ele>2098</ele>
        <time>2023-03-04T11:48:45Z</time>
      </trkpt>
      <trkpt lat="45.92548" lon="6.51771">
        <ele>2099</ele>
        <time>2023-03-04T11:48:50Z</time>
      </trkpt>
      <trkpt lat="45.92544" lon="6.51771">
        <ele>2100</ele>
        <time>2023-03-04T11:48:58Z</time>
      </trkpt>
      <trkpt lat="45.92537" lon="6.5177">
        <ele>2101</ele>
        <time>2023-03-04T11:49:10Z</time>
      </trkpt>
      <trkpt lat="45.92531" lon="6.51768">
        <ele>2102</ele>
        <time>2023-03-04T11:49:18Z</time>
      </trkpt>
      <trkpt lat="45.92525" lon="6.51768">
        <ele>2103</ele>
        <time>2023-03-04T11:49:27Z</time>
      </trkpt>
      <trkpt lat="45.92519" lon="6.51768">
        <ele>2103</ele>
        <time>2023-03-04T11:49:34Z</time>
      </trkpt>
      <trkpt lat="45.92508" lon="6.51765">
        <ele>2104</ele>
        <time>2023-03-04T11:49:50Z</time>
      </trkpt>
      <trkpt lat="45.92504" lon="6.51764">
        <ele>2104</ele>
        <time>2023-03-04T11:49:57Z</time>
      </trkpt>
      <trkpt lat="45.92499" lon="6.51767">
        <ele>2105</ele>
        <time>2023-03-04T11:50:08Z</time>
      </trkpt>
      <trkpt lat="45.92495" lon="6.51768">
        <ele>2105</ele>
        <time>2023-03-04T11:50:18Z</time>
      </trkpt>
      <trkpt lat="45.92492" lon="6.51772">
        <ele>2105</ele>
        <time>2023-03-04T11:50:24Z</time>
      </trkpt>
      <trkpt lat="45.9249" lon="6.51778">
        <ele>2106</ele>
        <time>2023-03-04T11:50:29Z</time>
      </trkpt>
      <trkpt lat="45.92488" lon="6.51783">
        <ele>2106</ele>
        <time>2023-03-04T11:50:33Z</time>
      </trkpt>
      <trkpt lat="45.92486" lon="6.51787">
        <ele>2106</ele>
        <time>2023-03-04T11:50:39Z</time>
      </trkpt>
      <trkpt lat="45.92485" lon="6.51793">
        <ele>2106</ele>
        <time>2023-03-04T11:50:45Z</time>
      </trkpt>
      <trkpt lat="45.92482" lon="6.51797">
        <ele>2106</ele>
        <time>2023-03-04T11:50:50Z</time>
      </trkpt>
      <trkpt lat="45.92477" lon="6.51805">
        <ele>2107</ele>
        <time>2023-03-04T11:51:02Z</time>
      </trkpt>
      <trkpt lat="45.92476" lon="6.51811">
        <ele>2107</ele>
        <time>2023-03-04T11:51:07Z</time>
      </trkpt>
      <trkpt lat="45.92475" lon="6.51819">
        <ele>2108</ele>
        <time>2023-03-04T11:51:13Z</time>
      </trkpt>
      <trkpt lat="45.92473" lon="6.51827">
        <ele>2108</ele>
        <time>2023-03-04T11:51:20Z</time>
      </trkpt>
      <trkpt lat="45.92473" lon="6.51835">
        <ele>2109</ele>
        <time>2023-03-04T11:51:28Z</time>
      </trkpt>
      <trkpt lat="45.92472" lon="6.51841">
        <ele>2109</ele>
        <time>2023-03-04T11:51:34Z</time>
      </trkpt>
      <trkpt lat="45.9247" lon="6.51846">
        <ele>2109</ele>
        <time>2023-03-04T11:51:40Z</time>
      </trkpt>
      <trkpt lat="45.92468" lon="6.51851">
        <ele>2109</ele>
        <time>2023-03-04T11:51:55Z</time>
      </trkpt>
      <trkpt lat="45.92469" lon="6.51857">
        <ele>2110</ele>
        <time>2023-03-04T11:52:01Z</time>
      </trkpt>
      <trkpt lat="45.92485" lon="6.51861">
        <ele>2111</ele>
        <time>2023-03-04T11:52:20Z</time>
      </trkpt>
      <trkpt lat="45.92484" lon="6.51869">
        <ele>2114</ele>
        <time>2023-03-04T11:52:41Z</time>
      </trkpt>
      <trkpt lat="45.92479" lon="6.51874">
        <ele>2117</ele>
        <time>2023-03-04T11:52:50Z</time>
      </trkpt>
      <trkpt lat="45.92478" lon="6.51879">
        <ele>2118</ele>
        <time>2023-03-04T11:52:55Z</time>
      </trkpt>
      <trkpt lat="45.92476" lon="6.51884">
        <ele>2120</ele>
        <time>2023-03-04T11:53:04Z</time>
      </trkpt>
      <trkpt lat="45.92474" lon="6.51895">
        <ele>2122</ele>
        <time>2023-03-04T11:53:17Z</time>
      </trkpt>
      <trkpt lat="45.92471" lon="6.51906">
        <ele>2124</ele>
        <time>2023-03-04T11:53:33Z</time>
      </trkpt>
      <trkpt lat="45.92466" lon="6.51914">
        <ele>2125</ele>
        <time>2023-03-04T11:53:46Z</time>
      </trkpt>
      <trkpt lat="45.92469" lon="6.51919">
        <ele>2126</ele>
        <time>2023-03-04T11:54:06Z</time>
      </trkpt>
      <trkpt lat="45.92473" lon="6.51921">
        <ele>2127</ele>
        <time>2023-03-04T11:54:16Z</time>
      </trkpt>
      <trkpt lat="45.92477" lon="6.51925">
        <ele>2129</ele>
        <time>2023-03-04T11:54:26Z</time>
      </trkpt>
      <trkpt lat="45.92475" lon="6.5193">
        <ele>2129</ele>
        <time>2023-03-04T11:54:32Z</time>
      </trkpt>
      <trkpt lat="45.92472" lon="6.51933">
        <ele>2131</ele>
        <time>2023-03-04T11:54:45Z</time>
      </trkpt>
      <trkpt lat="45.92466" lon="6.51933">
        <ele>2132</ele>
        <time>2023-03-04T11:54:56Z</time>
      </trkpt>
      <trkpt lat="45.92467" lon="6.51939">
        <ele>2133</ele>
        <time>2023-03-04T11:55:11Z</time>
      </trkpt>
      <trkpt lat="45.92475" lon="6.51951">
        <ele>2136</ele>
        <time>2023-03-04T11:55:32Z</time>
      </trkpt>
      <trkpt lat="45.92475" lon="6.51952">
        <ele>2138</ele>
        <time>2023-03-04T11:55:52Z</time>
      </trkpt>
      <trkpt lat="45.9247" lon="6.51953">
        <ele>2139</ele>
        <time>2023-03-04T11:56:13Z</time>
      </trkpt>
      <trkpt lat="45.92473" lon="6.51958">
        <ele>2140</ele>
        <time>2023-03-04T11:56:22Z</time>
      </trkpt>
      <trkpt lat="45.92478" lon="6.51967">
        <ele>2144</ele>
        <time>2023-03-04T11:56:38Z</time>
      </trkpt>
      <trkpt lat="45.92481" lon="6.5197">
        <ele>2146</ele>
        <time>2023-03-04T11:56:48Z</time>
      </trkpt>
      <trkpt lat="45.92483" lon="6.51977">
        <ele>2148</ele>
        <time>2023-03-04T11:57:00Z</time>
      </trkpt>
      <trkpt lat="45.92483" lon="6.51982">
        <ele>2151</ele>
        <time>2023-03-04T11:57:11Z</time>
      </trkpt>
      <trkpt lat="45.92488" lon="6.51986">
        <ele>2152</ele>
        <time>2023-03-04T11:58:19Z</time>
      </trkpt>
      <trkpt lat="45.92493" lon="6.52">
        <ele>2154</ele>
        <time>2023-03-04T11:58:35Z</time>
      </trkpt>
      <trkpt lat="45.92495" lon="6.52009">
        <ele>2155</ele>
        <time>2023-03-04T11:58:44Z</time>
      </trkpt>
      <trkpt lat="45.92496" lon="6.52015">
        <ele>2156</ele>
        <time>2023-03-04T11:58:53Z</time>
      </trkpt>
      <trkpt lat="45.92495" lon="6.52024">
        <ele>2158</ele>
        <time>2023-03-04T11:59:05Z</time>
      </trkpt>
      <trkpt lat="45.92495" lon="6.52032">
        <ele>2159</ele>
        <time>2023-03-04T11:59:15Z</time>
      </trkpt>
      <trkpt lat="45.92496" lon="6.5204">
        <ele>2161</ele>
        <time>2023-03-04T11:59:27Z</time>
      </trkpt>
      <trkpt lat="45.92497" lon="6.52048">
        <ele>2162</ele>
        <time>2023-03-04T11:59:37Z</time>
      </trkpt>
      <trkpt lat="45.92496" lon="6.52055">
        <ele>2164</ele>
        <time>2023-03-04T11:59:48Z</time>
      </trkpt>
      <trkpt lat="45.92494" lon="6.52063">
        <ele>2165</ele>
        <time>2023-03-04T12:00:02Z</time>
      </trkpt>
      <trkpt lat="45.92493" lon="6.52086">
        <ele>2172</ele>
        <time>2023-03-04T12:00:39Z</time>
      </trkpt>
      <trkpt lat="45.92488" lon="6.52099">
        <ele>2174</ele>
        <time>2023-03-04T12:00:53Z</time>
      </trkpt>
      <trkpt lat="45.92484" lon="6.52105">
        <ele>2176</ele>
        <time>2023-03-04T12:01:09Z</time>
      </trkpt>
      <trkpt lat="45.92486" lon="6.52113">
        <ele>2178</ele>
        <time>2023-03-04T12:01:51Z</time>
      </trkpt>
      <trkpt lat="45.9249" lon="6.52119">
        <ele>2179</ele>
        <time>2023-03-04T12:02:02Z</time>
      </trkpt>
      <trkpt lat="45.92492" lon="6.52123">
        <ele>2179</ele>
        <time>2023-03-04T12:02:17Z</time>
      </trkpt>
      <trkpt lat="45.92491" lon="6.52128">
        <ele>2180</ele>
        <time>2023-03-04T12:02:28Z</time>
      </trkpt>
      <trkpt lat="45.92494" lon="6.52153">
        <ele>2186</ele>
        <time>2023-03-04T12:03:02Z</time>
      </trkpt>
      <trkpt lat="45.92495" lon="6.52159">
        <ele>2187</ele>
        <time>2023-03-04T12:03:15Z</time>
      </trkpt>
      <trkpt lat="45.92492" lon="6.52173">
        <ele>2191</ele>
        <time>2023-03-04T12:03:35Z</time>
      </trkpt>
      <trkpt lat="45.92491" lon="6.52179">
        <ele>2193</ele>
        <time>2023-03-04T12:03:47Z</time>
      </trkpt>
      <trkpt lat="45.9249" lon="6.52184">
        <ele>2194</ele>
        <time>2023-03-04T12:03:55Z</time>
      </trkpt>
      <trkpt lat="45.92486" lon="6.52195">
        <ele>2197</ele>
        <time>2023-03-04T12:04:08Z</time>
      </trkpt>
      <trkpt lat="45.92486" lon="6.522">
        <ele>2198</ele>
        <time>2023-03-04T12:04:15Z</time>
      </trkpt>
      <trkpt lat="45.92486" lon="6.52206">
        <ele>2199</ele>
        <time>2023-03-04T12:04:23Z</time>
      </trkpt>
      <trkpt lat="45.92483" lon="6.52213">
        <ele>2201</ele>
        <time>2023-03-04T12:04:38Z</time>
      </trkpt>
      <trkpt lat="45.92483" lon="6.52221">
        <ele>2202</ele>
        <time>2023-03-04T12:09:32Z</time>
      </trkpt>
      <trkpt lat="45.9248" lon="6.52237">
        <ele>2205</ele>
        <time>2023-03-04T12:09:43Z</time>
      </trkpt>
      <trkpt lat="45.92479" lon="6.52245">
        <ele>2205</ele>
        <time>2023-03-04T12:09:51Z</time>
      </trkpt>
      <trkpt lat="45.92477" lon="6.52253">
        <ele>2206</ele>
        <time>2023-03-04T12:09:58Z</time>
      </trkpt>
      <trkpt lat="45.92476" lon="6.52261">
        <ele>2207</ele>
        <time>2023-03-04T12:10:06Z</time>
      </trkpt>
      <trkpt lat="45.92474" lon="6.5227">
        <ele>2207</ele>
        <time>2023-03-04T12:10:16Z</time>
      </trkpt>
      <trkpt lat="45.92474" lon="6.52278">
        <ele>2208</ele>
        <time>2023-03-04T12:10:29Z</time>
      </trkpt>
      <trkpt lat="45.92472" lon="6.52286">
        <ele>2208</ele>
        <time>2023-03-04T12:10:36Z</time>
      </trkpt>
      <trkpt lat="45.92459" lon="6.52302">
        <ele>2209</ele>
        <time>2023-03-04T12:10:55Z</time>
      </trkpt>
      <trkpt lat="45.92455" lon="6.52309">
        <ele>2209</ele>
        <time>2023-03-04T12:11:02Z</time>
      </trkpt>
      <trkpt lat="45.92453" lon="6.52317">
        <ele>2209</ele>
        <time>2023-03-04T12:11:18Z</time>
      </trkpt>
      <trkpt lat="45.92451" lon="6.52324">
        <ele>2209</ele>
        <time>2023-03-04T12:11:27Z</time>
      </trkpt>
      <trkpt lat="45.92452" lon="6.52341">
        <ele>2208</ele>
        <time>2023-03-04T12:11:46Z</time>
      </trkpt>
      <trkpt lat="45.92453" lon="6.52349">
        <ele>2208</ele>
        <time>2023-03-04T12:11:52Z</time>
      </trkpt>
      <trkpt lat="45.92452" lon="6.52357">
        <ele>2208</ele>
        <time>2023-03-04T12:12:00Z</time>
      </trkpt>
      <trkpt lat="45.92454" lon="6.52365">
        <ele>2209</ele>
        <time>2023-03-04T12:12:11Z</time>
      </trkpt>
      <trkpt lat="45.92454" lon="6.52373">
        <ele>2209</ele>
        <time>2023-03-04T12:12:20Z</time>
      </trkpt>
      <trkpt lat="45.92454" lon="6.52382">
        <ele>2210</ele>
        <time>2023-03-04T12:12:30Z</time>
      </trkpt>
      <trkpt lat="45.92457" lon="6.5239">
        <ele>2211</ele>
        <time>2023-03-04T12:12:43Z</time>
      </trkpt>
      <trkpt lat="45.92452" lon="6.52406">
        <ele>2212</ele>
        <time>2023-03-04T12:12:56Z</time>
      </trkpt>
      <trkpt lat="45.92448" lon="6.52431">
        <ele>2216</ele>
        <time>2023-03-04T12:13:26Z</time>
      </trkpt>
      <trkpt lat="45.92446" lon="6.52439">
        <ele>2216</ele>
        <time>2023-03-04T12:13:33Z</time>
      </trkpt>
      <trkpt lat="45.92447" lon="6.52447">
        <ele>2217</ele>
        <time>2023-03-04T12:13:43Z</time>
      </trkpt>
      <trkpt lat="45.92445" lon="6.52455">
        <ele>2218</ele>
        <time>2023-03-04T12:13:51Z</time>
      </trkpt>
      <trkpt lat="45.92446" lon="6.52463">
        <ele>2219</ele>
        <time>2023-03-04T12:13:58Z</time>
      </trkpt>
      <trkpt lat="45.92445" lon="6.52471">
        <ele>2219</ele>
        <time>2023-03-04T12:14:07Z</time>
      </trkpt>
      <trkpt lat="45.9244" lon="6.52485">
        <ele>2221</ele>
        <time>2023-03-04T12:14:28Z</time>
      </trkpt>
      <trkpt lat="45.92439" lon="6.52493">
        <ele>2223</ele>
        <time>2023-03-04T12:14:36Z</time>
      </trkpt>
      <trkpt lat="45.92439" lon="6.52501">
        <ele>2224</ele>
        <time>2023-03-04T12:14:46Z</time>
      </trkpt>
      <trkpt lat="45.92437" lon="6.52509">
        <ele>2226</ele>
        <time>2023-03-04T12:15:03Z</time>
      </trkpt>
      <trkpt lat="45.9244" lon="6.52512">
        <ele>2227</ele>
        <time>2023-03-04T12:15:21Z</time>
      </trkpt>
      <trkpt lat="45.92438" lon="6.52519">
        <ele>2229</ele>
        <time>2023-03-04T12:15:31Z</time>
      </trkpt>
      <trkpt lat="45.92439" lon="6.52525">
        <ele>2234</ele>
        <time>2023-03-04T12:15:41Z</time>
      </trkpt>
      <trkpt lat="45.92437" lon="6.5253">
        <ele>2235</ele>
        <time>2023-03-04T12:15:50Z</time>
      </trkpt>
      <trkpt lat="45.92423" lon="6.52542">
        <ele>2243</ele>
        <time>2023-03-04T12:16:26Z</time>
      </trkpt>
      <trkpt lat="45.92421" lon="6.52549">
        <ele>2244</ele>
        <time>2023-03-04T12:16:36Z</time>
      </trkpt>
      <trkpt lat="45.92412" lon="6.5257">
        <ele>2251</ele>
        <time>2023-03-04T12:17:51Z</time>
      </trkpt>
      <trkpt lat="45.92408" lon="6.52576">
        <ele>2251</ele>
        <time>2023-03-04T12:17:58Z</time>
      </trkpt>
      <trkpt lat="45.92407" lon="6.52584">
        <ele>2253</ele>
        <time>2023-03-04T12:18:05Z</time>
      </trkpt>
      <trkpt lat="45.92408" lon="6.52593">
        <ele>2254</ele>
        <time>2023-03-04T12:18:12Z</time>
      </trkpt>
      <trkpt lat="45.92407" lon="6.52601">
        <ele>2256</ele>
        <time>2023-03-04T12:18:23Z</time>
      </trkpt>
      <trkpt lat="45.9241" lon="6.52608">
        <ele>2257</ele>
        <time>2023-03-04T12:18:38Z</time>
      </trkpt>
      <trkpt lat="45.92412" lon="6.52615">
        <ele>2260</ele>
        <time>2023-03-04T12:18:48Z</time>
      </trkpt>
      <trkpt lat="45.9241" lon="6.52622">
        <ele>2261</ele>
        <time>2023-03-04T12:19:02Z</time>
      </trkpt>
      <trkpt lat="45.92405" lon="6.52636">
        <ele>2265</ele>
        <time>2023-03-04T12:19:30Z</time>
      </trkpt>
      <trkpt lat="45.92417" lon="6.52637">
        <ele>2269</ele>
        <time>2023-03-04T12:19:57Z</time>
      </trkpt>
      <trkpt lat="45.92428" lon="6.52632">
        <ele>2270</ele>
        <time>2023-03-04T12:20:10Z</time>
      </trkpt>
      <trkpt lat="45.92432" lon="6.52631">
        <ele>2271</ele>
        <time>2023-03-04T12:20:17Z</time>
      </trkpt>
      <trkpt lat="45.92436" lon="6.52631">
        <ele>2272</ele>
        <time>2023-03-04T12:20:25Z</time>
      </trkpt>
      <trkpt lat="45.9244" lon="6.52629">
        <ele>2272</ele>
        <time>2023-03-04T12:20:31Z</time>
      </trkpt>
      <trkpt lat="45.92443" lon="6.52626">
        <ele>2273</ele>
        <time>2023-03-04T12:20:39Z</time>
      </trkpt>
      <trkpt lat="45.92446" lon="6.52624">
        <ele>2273</ele>
        <time>2023-03-04T12:20:45Z</time>
      </trkpt>
      <trkpt lat="45.92442" lon="6.52639">
        <ele>2274</ele>
        <time>2023-03-04T12:21:16Z</time>
      </trkpt>
      <trkpt lat="45.92437" lon="6.52648">
        <ele>2274</ele>
        <time>2023-03-04T12:21:28Z</time>
      </trkpt>
      <trkpt lat="45.92447" lon="6.52639">
        <ele>2276</ele>
        <time>2023-03-04T12:21:55Z</time>
      </trkpt>
      <trkpt lat="45.92448" lon="6.52639">
        <ele>2277</ele>
        <time>2023-03-04T12:22:23Z</time>
      </trkpt>
      <trkpt lat="45.92446" lon="6.52644">
        <ele>2277</ele>
        <time>2023-03-04T12:22:28Z</time>
      </trkpt>
      <trkpt lat="45.92441" lon="6.52655">
        <ele>2280</ele>
        <time>2023-03-04T12:22:40Z</time>
      </trkpt>
      <trkpt lat="45.92434" lon="6.5266">
        <ele>2281</ele>
        <time>2023-03-04T12:22:54Z</time>
      </trkpt>
      <trkpt lat="45.92431" lon="6.52664">
        <ele>2282</ele>
        <time>2023-03-04T12:23:05Z</time>
      </trkpt>
      <trkpt lat="45.92426" lon="6.52667">
        <ele>2283</ele>
        <time>2023-03-04T12:23:16Z</time>
      </trkpt>
      <trkpt lat="45.92423" lon="6.52671">
        <ele>2285</ele>
        <time>2023-03-04T12:23:24Z</time>
      </trkpt>
      <trkpt lat="45.92418" lon="6.52675">
        <ele>2285</ele>
        <time>2023-03-04T12:23:35Z</time>
      </trkpt>
      <trkpt lat="45.92423" lon="6.5268">
        <ele>2286</ele>
        <time>2023-03-04T12:23:57Z</time>
      </trkpt>
      <trkpt lat="45.92427" lon="6.52681">
        <ele>2288</ele>
        <time>2023-03-04T12:24:03Z</time>
      </trkpt>
      <trkpt lat="45.9243" lon="6.52679">
        <ele>2289</ele>
        <time>2023-03-04T12:24:10Z</time>
      </trkpt>
      <trkpt lat="45.92432" lon="6.52683">
        <ele>2292</ele>
        <time>2023-03-04T12:24:50Z</time>
      </trkpt>
      <trkpt lat="45.92429" lon="6.52685">
        <ele>2292</ele>
        <time>2023-03-04T12:24:54Z</time>
      </trkpt>
      <trkpt lat="45.92425" lon="6.52688">
        <ele>2295</ele>
        <time>2023-03-04T12:25:01Z</time>
      </trkpt>
      <trkpt lat="45.92421" lon="6.5269">
        <ele>2296</ele>
        <time>2023-03-04T12:25:10Z</time>
      </trkpt>
      <trkpt lat="45.92417" lon="6.52694">
        <ele>2297</ele>
        <time>2023-03-04T12:25:25Z</time>
      </trkpt>
      <trkpt lat="45.92413" lon="6.527">
        <ele>2299</ele>
        <time>2023-03-04T12:25:36Z</time>
      </trkpt>
      <trkpt lat="45.92408" lon="6.52703">
        <ele>2299</ele>
        <time>2023-03-04T12:25:55Z</time>
      </trkpt>
      <trkpt lat="45.92408" lon="6.5271">
        <ele>2301</ele>
        <time>2023-03-04T12:26:07Z</time>
      </trkpt>
      <trkpt lat="45.92412" lon="6.52713">
        <ele>2303</ele>
        <time>2023-03-04T12:26:32Z</time>
      </trkpt>
      <trkpt lat="45.92415" lon="6.52715">
        <ele>2303</ele>
        <time>2023-03-04T12:26:37Z</time>
      </trkpt>
      <trkpt lat="45.92419" lon="6.52717">
        <ele>2304</ele>
        <time>2023-03-04T12:26:45Z</time>
      </trkpt>
      <trkpt lat="45.92422" lon="6.52717">
        <ele>2305</ele>
        <time>2023-03-04T12:26:55Z</time>
      </trkpt>
      <trkpt lat="45.92425" lon="6.52721">
        <ele>2305</ele>
        <time>2023-03-04T12:27:03Z</time>
      </trkpt>
      <trkpt lat="45.92423" lon="6.52727">
        <ele>2307</ele>
        <time>2023-03-04T12:27:11Z</time>
      </trkpt>
      <trkpt lat="45.9242" lon="6.52731">
        <ele>2308</ele>
        <time>2023-03-04T12:27:17Z</time>
      </trkpt>
      <trkpt lat="45.92417" lon="6.52734">
        <ele>2308</ele>
        <time>2023-03-04T12:27:20Z</time>
      </trkpt>
      <trkpt lat="45.92412" lon="6.52737">
        <ele>2310</ele>
        <time>2023-03-04T12:27:32Z</time>
      </trkpt>
      <trkpt lat="45.92413" lon="6.52742">
        <ele>2311</ele>
        <time>2023-03-04T12:27:46Z</time>
      </trkpt>
      <trkpt lat="45.92414" lon="6.52746">
        <ele>2313</ele>
        <time>2023-03-04T12:27:54Z</time>
      </trkpt>
      <trkpt lat="45.92415" lon="6.52751">
        <ele>2315</ele>
        <time>2023-03-04T12:28:00Z</time>
      </trkpt>
      <trkpt lat="45.92414" lon="6.52755">
        <ele>2318</ele>
        <time>2023-03-04T12:29:20Z</time>
      </trkpt>
      <trkpt lat="45.92415" lon="6.52759">
        <ele>2318</ele>
        <time>2023-03-04T12:29:44Z</time>
      </trkpt>
      <trkpt lat="45.92416" lon="6.52774">
        <ele>2323</ele>
        <time>2023-03-04T12:30:04Z</time>
      </trkpt>
      <trkpt lat="45.92416" lon="6.52778">
        <ele>2324</ele>
        <time>2023-03-04T12:30:11Z</time>
      </trkpt>
      <trkpt lat="45.92413" lon="6.52787">
        <ele>2326</ele>
        <time>2023-03-04T12:30:20Z</time>
      </trkpt>
      <trkpt lat="45.92412" lon="6.52807">
        <ele>2331</ele>
        <time>2023-03-04T12:30:53Z</time>
      </trkpt>
      <trkpt lat="45.92411" lon="6.52812">
        <ele>2333</ele>
        <time>2023-03-04T12:31:04Z</time>
      </trkpt>
      <trkpt lat="45.9241" lon="6.52824">
        <ele>2336</ele>
        <time>2023-03-04T12:31:27Z</time>
      </trkpt>
      <trkpt lat="45.92411" lon="6.52828">
        <ele>2338</ele>
        <time>2023-03-04T12:31:36Z</time>
      </trkpt>
      <trkpt lat="45.92414" lon="6.52834">
        <ele>2340</ele>
        <time>2023-03-04T12:31:52Z</time>
      </trkpt>
      <trkpt lat="45.92416" lon="6.52837">
        <ele>2341</ele>
        <time>2023-03-04T12:31:58Z</time>
      </trkpt>
      <trkpt lat="45.92419" lon="6.52839">
        <ele>2342</ele>
        <time>2023-03-04T12:32:04Z</time>
      </trkpt>
      <trkpt lat="45.92429" lon="6.52842">
        <ele>2345</ele>
        <time>2023-03-04T12:32:28Z</time>
      </trkpt>
      <trkpt lat="45.92443" lon="6.52847">
        <ele>2348</ele>
        <time>2023-03-04T12:33:05Z</time>
      </trkpt>
      <trkpt lat="45.92449" lon="6.52845">
        <ele>2349</ele>
        <time>2023-03-04T12:33:16Z</time>
      </trkpt>
      <trkpt lat="45.92457" lon="6.52842">
        <ele>2350</ele>
        <time>2023-03-04T12:33:39Z</time>
      </trkpt>
      <trkpt lat="45.92453" lon="6.52845">
        <ele>2351</ele>
        <time>2023-03-04T12:34:19Z</time>
      </trkpt>
      <trkpt lat="45.92444" lon="6.52863">
        <ele>2351</ele>
        <time>2023-03-04T12:34:37Z</time>
      </trkpt>
      <trkpt lat="45.92443" lon="6.52868">
        <ele>2351</ele>
        <time>2023-03-04T12:34:50Z</time>
      </trkpt>
      <trkpt lat="45.92442" lon="6.52874">
        <ele>2352</ele>
        <time>2023-03-04T12:34:58Z</time>
      </trkpt>
      <trkpt lat="45.92437" lon="6.52882">
        <ele>2353</ele>
        <time>2023-03-04T12:35:16Z</time>
      </trkpt>
      <trkpt lat="45.92434" lon="6.52886">
        <ele>2354</ele>
        <time>2023-03-04T12:35:21Z</time>
      </trkpt>
      <trkpt lat="45.9243" lon="6.52889">
        <ele>2355</ele>
        <time>2023-03-04T12:35:29Z</time>
      </trkpt>
      <trkpt lat="45.92428" lon="6.52893">
        <ele>2358</ele>
        <time>2023-03-04T12:37:24Z</time>
      </trkpt>
      <trkpt lat="45.92425" lon="6.529">
        <ele>2359</ele>
        <time>2023-03-04T12:38:13Z</time>
      </trkpt>
      <trkpt lat="45.92423" lon="6.52906">
        <ele>2363</ele>
        <time>2023-03-04T12:38:31Z</time>
      </trkpt>
      <trkpt lat="45.92423" lon="6.52912">
        <ele>2363</ele>
        <time>2023-03-04T12:38:37Z</time>
      </trkpt>
      <trkpt lat="45.92425" lon="6.52917">
        <ele>2365</ele>
        <time>2023-03-04T12:38:49Z</time>
      </trkpt>
      <trkpt lat="45.92428" lon="6.5292">
        <ele>2365</ele>
        <time>2023-03-04T12:38:56Z</time>
      </trkpt>
      <trkpt lat="45.92434" lon="6.52929">
        <ele>2368</ele>
        <time>2023-03-04T12:39:16Z</time>
      </trkpt>
      <trkpt lat="45.92438" lon="6.52931">
        <ele>2369</ele>
        <time>2023-03-04T12:39:24Z</time>
      </trkpt>
      <trkpt lat="45.92441" lon="6.52933">
        <ele>2370</ele>
        <time>2023-03-04T12:39:34Z</time>
      </trkpt>
      <trkpt lat="45.92442" lon="6.52939">
        <ele>2371</ele>
        <time>2023-03-04T12:39:45Z</time>
      </trkpt>
      <trkpt lat="45.92443" lon="6.52949">
        <ele>2373</ele>
        <time>2023-03-04T12:40:04Z</time>
      </trkpt>
      <trkpt lat="45.92444" lon="6.52955">
        <ele>2374</ele>
        <time>2023-03-04T12:40:11Z</time>
      </trkpt>
      <trkpt lat="45.92445" lon="6.5296">
        <ele>2375</ele>
        <time>2023-03-04T12:40:26Z</time>
      </trkpt>
      <trkpt lat="45.9244" lon="6.52964">
        <ele>2376</ele>
        <time>2023-03-04T12:40:41Z</time>
      </trkpt>
      <trkpt lat="45.9244" lon="6.5297">
        <ele>2379</ele>
        <time>2023-03-04T12:40:51Z</time>
      </trkpt>
      <trkpt lat="45.92442" lon="6.52974">
        <ele>2380</ele>
        <time>2023-03-04T12:41:02Z</time>
      </trkpt>
      <trkpt lat="45.92446" lon="6.52978">
        <ele>2382</ele>
        <time>2023-03-04T12:41:10Z</time>
      </trkpt>
      <trkpt lat="45.92449" lon="6.52977">
        <ele>2382</ele>
        <time>2023-03-04T12:41:17Z</time>
      </trkpt>
      <trkpt lat="45.92453" lon="6.5298">
        <ele>2384</ele>
        <time>2023-03-04T12:41:29Z</time>
      </trkpt>
      <trkpt lat="45.92452" lon="6.52987">
        <ele>2386</ele>
        <time>2023-03-04T12:41:55Z</time>
      </trkpt>
      <trkpt lat="45.92447" lon="6.52992">
        <ele>2389</ele>
        <time>2023-03-04T12:42:09Z</time>
      </trkpt>
      <trkpt lat="45.92442" lon="6.52996">
        <ele>2390</ele>
        <time>2023-03-04T12:42:21Z</time>
      </trkpt>
      <trkpt lat="45.92437" lon="6.52996">
        <ele>2392</ele>
        <time>2023-03-04T12:42:33Z</time>
      </trkpt>
      <trkpt lat="45.92437" lon="6.53002">
        <ele>2392</ele>
        <time>2023-03-04T12:42:42Z</time>
      </trkpt>
      <trkpt lat="45.9244" lon="6.53006">
        <ele>2393</ele>
        <time>2023-03-04T12:42:48Z</time>
      </trkpt>
      <trkpt lat="45.92443" lon="6.53009">
        <ele>2395</ele>
        <time>2023-03-04T12:42:56Z</time>
      </trkpt>
      <trkpt lat="45.92449" lon="6.53011">
        <ele>2397</ele>
        <time>2023-03-04T12:43:14Z</time>
      </trkpt>
      <trkpt lat="45.92447" lon="6.53015">
        <ele>2400</ele>
        <time>2023-03-04T12:43:25Z</time>
      </trkpt>
      <trkpt lat="45.92443" lon="6.53021">
        <ele>2401</ele>
        <time>2023-03-04T12:43:38Z</time>
      </trkpt>
      <trkpt lat="45.92439" lon="6.53027">
        <ele>2403</ele>
        <time>2023-03-04T12:43:52Z</time>
      </trkpt>
      <trkpt lat="45.92433" lon="6.53028">
        <ele>2403</ele>
        <time>2023-03-04T12:44:01Z</time>
      </trkpt>
      <trkpt lat="45.92428" lon="6.53031">
        <ele>2405</ele>
        <time>2023-03-04T12:44:13Z</time>
      </trkpt>
      <trkpt lat="45.92431" lon="6.53038">
        <ele>2406</ele>
        <time>2023-03-04T12:44:29Z</time>
      </trkpt>
      <trkpt lat="45.92435" lon="6.53048">
        <ele>2409</ele>
        <time>2023-03-04T12:44:50Z</time>
      </trkpt>
      <trkpt lat="45.92431" lon="6.53052">
        <ele>2412</ele>
        <time>2023-03-04T12:45:15Z</time>
      </trkpt>
      <trkpt lat="45.92426" lon="6.53057">
        <ele>2414</ele>
        <time>2023-03-04T12:45:28Z</time>
      </trkpt>
      <trkpt lat="45.92422" lon="6.5306">
        <ele>2416</ele>
        <time>2023-03-04T12:46:19Z</time>
      </trkpt>
      <trkpt lat="45.92425" lon="6.53063">
        <ele>2417</ele>
        <time>2023-03-04T12:48:11Z</time>
      </trkpt>
      <trkpt lat="45.92434" lon="6.53061">
        <ele>2418</ele>
        <time>2023-03-04T12:48:21Z</time>
      </trkpt>
      <trkpt lat="45.9244" lon="6.53063">
        <ele>2419</ele>
        <time>2023-03-04T12:48:29Z</time>
      </trkpt>
      <trkpt lat="45.92446" lon="6.53066">
        <ele>2419</ele>
        <time>2023-03-04T12:48:38Z</time>
      </trkpt>
      <trkpt lat="45.92451" lon="6.53066">
        <ele>2420</ele>
        <time>2023-03-04T12:48:47Z</time>
      </trkpt>
      <trkpt lat="45.92457" lon="6.53066">
        <ele>2421</ele>
        <time>2023-03-04T12:49:00Z</time>
      </trkpt>
      <trkpt lat="45.92474" lon="6.53063">
        <ele>2424</ele>
        <time>2023-03-04T12:49:37Z</time>
      </trkpt>
      <trkpt lat="45.92478" lon="6.53061">
        <ele>2425</ele>
        <time>2023-03-04T12:49:50Z</time>
      </trkpt>
      <trkpt lat="45.92483" lon="6.5306">
        <ele>2426</ele>
        <time>2023-03-04T12:49:58Z</time>
      </trkpt>
      <trkpt lat="45.92486" lon="6.53059">
        <ele>2428</ele>
        <time>2023-03-04T12:50:11Z</time>
      </trkpt>
      <trkpt lat="45.9249" lon="6.5306">
        <ele>2430</ele>
        <time>2023-03-04T12:50:21Z</time>
      </trkpt>
      <trkpt lat="45.9249" lon="6.53062">
        <ele>2434</ele>
        <time>2023-03-04T12:51:25Z</time>
      </trkpt>
      <trkpt lat="45.92478" lon="6.53076">
        <ele>2440</ele>
        <time>2023-03-04T12:51:53Z</time>
      </trkpt>
      <trkpt lat="45.92474" lon="6.53082">
        <ele>2442</ele>
        <time>2023-03-04T12:52:09Z</time>
      </trkpt>
      <trkpt lat="45.92467" lon="6.53094">
        <ele>2445</ele>
        <time>2023-03-04T12:52:32Z</time>
      </trkpt>
      <trkpt lat="45.92467" lon="6.53099">
        <ele>2452</ele>
        <time>2023-03-04T13:07:43Z</time>
      </trkpt>
      <trkpt lat="45.92464" lon="6.531">
        <ele>2453</ele>
        <time>2023-03-04T13:09:26Z</time>
      </trkpt>
      <trkpt lat="45.92464" lon="6.53096">
        <ele>2454</ele>
        <time>2023-03-04T13:12:01Z</time>
      </trkpt>
      <trkpt lat="45.92468" lon="6.5309">
        <ele>2462</ele>
        <time>2023-03-04T13:12:21Z</time>
      </trkpt>
      <trkpt lat="45.92474" lon="6.53085">
        <ele>2463</ele>
        <time>2023-03-04T13:12:30Z</time>
      </trkpt>
      <trkpt lat="45.92477" lon="6.53085">
        <ele>2463</ele>
        <time>2023-03-04T13:12:35Z</time>
      </trkpt>
      <trkpt lat="45.92479" lon="6.53084">
        <ele>2464</ele>
        <time>2023-03-04T13:12:42Z</time>
      </trkpt>
      <trkpt lat="45.92485" lon="6.53073">
        <ele>2464</ele>
        <time>2023-03-04T13:12:57Z</time>
      </trkpt>
      <trkpt lat="45.92489" lon="6.53067">
        <ele>2464</ele>
        <time>2023-03-04T13:13:09Z</time>
      </trkpt>
      <trkpt lat="45.92491" lon="6.53063">
        <ele>2464</ele>
        <time>2023-03-04T13:14:23Z</time>
      </trkpt>
      <trkpt lat="45.92492" lon="6.53059">
        <ele>2462</ele>
        <time>2023-03-04T13:15:33Z</time>
      </trkpt>
      <trkpt lat="45.92492" lon="6.53059">
        <ele>2461</ele>
        <time>2023-03-04T13:18:50Z</time>
      </trkpt>
      <trkpt lat="45.92489" lon="6.53061">
        <ele>2461</ele>
        <time>2023-03-04T13:22:16Z</time>
      </trkpt>
      <trkpt lat="45.92489" lon="6.53057">
        <ele>2460</ele>
        <time>2023-03-04T13:34:16Z</time>
      </trkpt>
      <trkpt lat="45.92489" lon="6.5306">
        <ele>2459</ele>
        <time>2023-03-04T13:48:46Z</time>
      </trkpt>
      <trkpt lat="45.9249" lon="6.53054">
        <ele>2458</ele>
        <time>2023-03-04T13:54:24Z</time>
      </trkpt>
      <trkpt lat="45.92492" lon="6.53045">
        <ele>2458</ele>
        <time>2023-03-04T13:55:55Z</time>
      </trkpt>
      <trkpt lat="45.92498" lon="6.53021">
        <ele>2457</ele>
        <time>2023-03-04T13:56:00Z</time>
      </trkpt>
      <trkpt lat="45.92501" lon="6.53005">
        <ele>2457</ele>
        <time>2023-03-04T13:56:03Z</time>
      </trkpt>
      <trkpt lat="45.92502" lon="6.52999">
        <ele>2457</ele>
        <time>2023-03-04T13:56:04Z</time>
      </trkpt>
      <trkpt lat="45.92504" lon="6.52995">
        <ele>2457</ele>
        <time>2023-03-04T13:56:05Z</time>
      </trkpt>
      <trkpt lat="45.92498" lon="6.52992">
        <ele>2457</ele>
        <time>2023-03-04T13:56:08Z</time>
      </trkpt>
      <trkpt lat="45.92495" lon="6.52982">
        <ele>2456</ele>
        <time>2023-03-04T13:56:14Z</time>
      </trkpt>
      <trkpt lat="45.92495" lon="6.5297">
        <ele>2456</ele>
        <time>2023-03-04T13:56:16Z</time>
      </trkpt>
      <trkpt lat="45.92487" lon="6.52968">
        <ele>2455</ele>
        <time>2023-03-04T13:56:19Z</time>
      </trkpt>
      <trkpt lat="45.92477" lon="6.52967">
        <ele>2454</ele>
        <time>2023-03-04T13:56:21Z</time>
      </trkpt>
      <trkpt lat="45.92476" lon="6.52945">
        <ele>2451</ele>
        <time>2023-03-04T13:56:25Z</time>
      </trkpt>
      <trkpt lat="45.92476" lon="6.52934">
        <ele>2450</ele>
        <time>2023-03-04T13:56:27Z</time>
      </trkpt>
      <trkpt lat="45.92463" lon="6.52951">
        <ele>2450</ele>
        <time>2023-03-04T13:57:44Z</time>
      </trkpt>
      <trkpt lat="45.92454" lon="6.52975">
        <ele>2450</ele>
        <time>2023-03-04T13:57:50Z</time>
      </trkpt>
      <trkpt lat="45.92443" lon="6.52975">
        <ele>2449</ele>
        <time>2023-03-04T13:58:20Z</time>
      </trkpt>
      <trkpt lat="45.92447" lon="6.5295">
        <ele>2448</ele>
        <time>2023-03-04T13:58:23Z</time>
      </trkpt>
      <trkpt lat="45.92446" lon="6.52934">
        <ele>2442</ele>
        <time>2023-03-04T13:58:26Z</time>
      </trkpt>
      <trkpt lat="45.92447" lon="6.52919">
        <ele>2439</ele>
        <time>2023-03-04T13:58:28Z</time>
      </trkpt>
      <trkpt lat="45.9245" lon="6.52907">
        <ele>2437</ele>
        <time>2023-03-04T13:58:30Z</time>
      </trkpt>
      <trkpt lat="45.92447" lon="6.52896">
        <ele>2435</ele>
        <time>2023-03-04T13:58:32Z</time>
      </trkpt>
      <trkpt lat="45.92452" lon="6.52882">
        <ele>2434</ele>
        <time>2023-03-04T13:58:35Z</time>
      </trkpt>
      <trkpt lat="45.92455" lon="6.5287">
        <ele>2431</ele>
        <time>2023-03-04T13:58:37Z</time>
      </trkpt>
      <trkpt lat="45.9246" lon="6.5286">
        <ele>2430</ele>
        <time>2023-03-04T13:58:39Z</time>
      </trkpt>
      <trkpt lat="45.92456" lon="6.52853">
        <ele>2428</ele>
        <time>2023-03-04T13:59:14Z</time>
      </trkpt>
      <trkpt lat="45.92459" lon="6.52841">
        <ele>2423</ele>
        <time>2023-03-04T13:59:21Z</time>
      </trkpt>
      <trkpt lat="45.92455" lon="6.52823">
        <ele>2418</ele>
        <time>2023-03-04T13:59:25Z</time>
      </trkpt>
      <trkpt lat="45.92449" lon="6.5281">
        <ele>2412</ele>
        <time>2023-03-04T13:59:28Z</time>
      </trkpt>
      <trkpt lat="45.92449" lon="6.52799">
        <ele>2410</ele>
        <time>2023-03-04T13:59:30Z</time>
      </trkpt>
      <trkpt lat="45.92449" lon="6.52791">
        <ele>2408</ele>
        <time>2023-03-04T13:59:31Z</time>
      </trkpt>
      <trkpt lat="45.92446" lon="6.52778">
        <ele>2406</ele>
        <time>2023-03-04T13:59:33Z</time>
      </trkpt>
      <trkpt lat="45.92443" lon="6.52768">
        <ele>2403</ele>
        <time>2023-03-04T13:59:34Z</time>
      </trkpt>
      <trkpt lat="45.92444" lon="6.52752">
        <ele>2401</ele>
        <time>2023-03-04T13:59:36Z</time>
      </trkpt>
      <trkpt lat="45.9244" lon="6.52741">
        <ele>2397</ele>
        <time>2023-03-04T13:59:38Z</time>
      </trkpt>
      <trkpt lat="45.92434" lon="6.52713">
        <ele>2393</ele>
        <time>2023-03-04T13:59:43Z</time>
      </trkpt>
      <trkpt lat="45.92428" lon="6.52698">
        <ele>2391</ele>
        <time>2023-03-04T13:59:48Z</time>
      </trkpt>
      <trkpt lat="45.92424" lon="6.52687">
        <ele>2388</ele>
        <time>2023-03-04T14:00:17Z</time>
      </trkpt>
      <trkpt lat="45.92423" lon="6.52677">
        <ele>2384</ele>
        <time>2023-03-04T14:00:20Z</time>
      </trkpt>
      <trkpt lat="45.92422" lon="6.52663">
        <ele>2376</ele>
        <time>2023-03-04T14:00:23Z</time>
      </trkpt>
      <trkpt lat="45.92426" lon="6.52652">
        <ele>2365</ele>
        <time>2023-03-04T14:00:26Z</time>
      </trkpt>
      <trkpt lat="45.92441" lon="6.5262">
        <ele>2346</ele>
        <time>2023-03-04T14:00:32Z</time>
      </trkpt>
      <trkpt lat="45.92444" lon="6.52609">
        <ele>2344</ele>
        <time>2023-03-04T14:00:35Z</time>
      </trkpt>
      <trkpt lat="45.92439" lon="6.52601">
        <ele>2343</ele>
        <time>2023-03-04T14:00:38Z</time>
      </trkpt>
      <trkpt lat="45.92441" lon="6.52594">
        <ele>2338</ele>
        <time>2023-03-04T14:01:08Z</time>
      </trkpt>
      <trkpt lat="45.92445" lon="6.52588">
        <ele>2338</ele>
        <time>2023-03-04T14:01:10Z</time>
      </trkpt>
      <trkpt lat="45.92448" lon="6.5258">
        <ele>2334</ele>
        <time>2023-03-04T14:01:12Z</time>
      </trkpt>
      <trkpt lat="45.92452" lon="6.52571">
        <ele>2332</ele>
        <time>2023-03-04T14:01:15Z</time>
      </trkpt>
      <trkpt lat="45.92444" lon="6.52555">
        <ele>2325</ele>
        <time>2023-03-04T14:01:19Z</time>
      </trkpt>
      <trkpt lat="45.92445" lon="6.52544">
        <ele>2322</ele>
        <time>2023-03-04T14:01:22Z</time>
      </trkpt>
      <trkpt lat="45.92451" lon="6.52524">
        <ele>2317</ele>
        <time>2023-03-04T14:01:26Z</time>
      </trkpt>
      <trkpt lat="45.92457" lon="6.52508">
        <ele>2314</ele>
        <time>2023-03-04T14:01:28Z</time>
      </trkpt>
      <trkpt lat="45.9246" lon="6.52493">
        <ele>2310</ele>
        <time>2023-03-04T14:01:30Z</time>
      </trkpt>
      <trkpt lat="45.92465" lon="6.52477">
        <ele>2308</ele>
        <time>2023-03-04T14:01:32Z</time>
      </trkpt>
      <trkpt lat="45.92469" lon="6.52456">
        <ele>2304</ele>
        <time>2023-03-04T14:01:34Z</time>
      </trkpt>
      <trkpt lat="45.92472" lon="6.52435">
        <ele>2302</ele>
        <time>2023-03-04T14:01:36Z</time>
      </trkpt>
      <trkpt lat="45.92474" lon="6.52416">
        <ele>2296</ele>
        <time>2023-03-04T14:01:38Z</time>
      </trkpt>
      <trkpt lat="45.92476" lon="6.52401">
        <ele>2290</ele>
        <time>2023-03-04T14:01:40Z</time>
      </trkpt>
      <trkpt lat="45.92472" lon="6.52385">
        <ele>2285</ele>
        <time>2023-03-04T14:01:44Z</time>
      </trkpt>
      <trkpt lat="45.92472" lon="6.52368">
        <ele>2282</ele>
        <time>2023-03-04T14:01:46Z</time>
      </trkpt>
      <trkpt lat="45.92473" lon="6.52358">
        <ele>2280</ele>
        <time>2023-03-04T14:01:47Z</time>
      </trkpt>
      <trkpt lat="45.92474" lon="6.5234">
        <ele>2277</ele>
        <time>2023-03-04T14:01:49Z</time>
      </trkpt>
      <trkpt lat="45.92474" lon="6.52331">
        <ele>2275</ele>
        <time>2023-03-04T14:01:53Z</time>
      </trkpt>
      <trkpt lat="45.92469" lon="6.52329">
        <ele>2274</ele>
        <time>2023-03-04T14:02:19Z</time>
      </trkpt>
      <trkpt lat="45.92486" lon="6.52288">
        <ele>2255</ele>
        <time>2023-03-04T14:02:48Z</time>
      </trkpt>
      <trkpt lat="45.92489" lon="6.52278">
        <ele>2254</ele>
        <time>2023-03-04T14:02:50Z</time>
      </trkpt>
      <trkpt lat="45.9248" lon="6.52265">
        <ele>2252</ele>
        <time>2023-03-04T14:02:53Z</time>
      </trkpt>
      <trkpt lat="45.92485" lon="6.52232">
        <ele>2250</ele>
        <time>2023-03-04T14:02:56Z</time>
      </trkpt>
      <trkpt lat="45.92486" lon="6.52219">
        <ele>2249</ele>
        <time>2023-03-04T14:02:57Z</time>
      </trkpt>
      <trkpt lat="45.92495" lon="6.52142">
        <ele>2245</ele>
        <time>2023-03-04T14:03:05Z</time>
      </trkpt>
      <trkpt lat="45.92493" lon="6.52132">
        <ele>2245</ele>
        <time>2023-03-04T14:03:07Z</time>
      </trkpt>
      <trkpt lat="45.92485" lon="6.5213">
        <ele>2244</ele>
        <time>2023-03-04T14:03:09Z</time>
      </trkpt>
      <trkpt lat="45.92489" lon="6.52112">
        <ele>2242</ele>
        <time>2023-03-04T14:03:42Z</time>
      </trkpt>
      <trkpt lat="45.92495" lon="6.52098">
        <ele>2241</ele>
        <time>2023-03-04T14:03:44Z</time>
      </trkpt>
      <trkpt lat="45.92502" lon="6.52078">
        <ele>2238</ele>
        <time>2023-03-04T14:03:46Z</time>
      </trkpt>
      <trkpt lat="45.92504" lon="6.52069">
        <ele>2237</ele>
        <time>2023-03-04T14:03:47Z</time>
      </trkpt>
      <trkpt lat="45.92505" lon="6.52058">
        <ele>2235</ele>
        <time>2023-03-04T14:03:48Z</time>
      </trkpt>
      <trkpt lat="45.9251" lon="6.52045">
        <ele>2234</ele>
        <time>2023-03-04T14:03:50Z</time>
      </trkpt>
      <trkpt lat="45.92515" lon="6.52039">
        <ele>2233</ele>
        <time>2023-03-04T14:03:53Z</time>
      </trkpt>
      <trkpt lat="45.92521" lon="6.52039">
        <ele>2232</ele>
        <time>2023-03-04T14:03:55Z</time>
      </trkpt>
      <trkpt lat="45.92529" lon="6.5204">
        <ele>2222</ele>
        <time>2023-03-04T14:04:59Z</time>
      </trkpt>
      <trkpt lat="45.92535" lon="6.52037">
        <ele>2220</ele>
        <time>2023-03-04T14:05:00Z</time>
      </trkpt>
      <trkpt lat="45.92543" lon="6.5203">
        <ele>2214</ele>
        <time>2023-03-04T14:05:02Z</time>
      </trkpt>
      <trkpt lat="45.92551" lon="6.52017">
        <ele>2208</ele>
        <time>2023-03-04T14:05:04Z</time>
      </trkpt>
      <trkpt lat="45.92552" lon="6.52">
        <ele>2205</ele>
        <time>2023-03-04T14:05:06Z</time>
      </trkpt>
      <trkpt lat="45.92554" lon="6.51981">
        <ele>2202</ele>
        <time>2023-03-04T14:05:08Z</time>
      </trkpt>
      <trkpt lat="45.92554" lon="6.51963">
        <ele>2200</ele>
        <time>2023-03-04T14:05:10Z</time>
      </trkpt>
      <trkpt lat="45.92559" lon="6.51947">
        <ele>2197</ele>
        <time>2023-03-04T14:05:13Z</time>
      </trkpt>
      <trkpt lat="45.92558" lon="6.51936">
        <ele>2196</ele>
        <time>2023-03-04T14:05:16Z</time>
      </trkpt>
      <trkpt lat="45.92551" lon="6.51927">
        <ele>2193</ele>
        <time>2023-03-04T14:05:40Z</time>
      </trkpt>
      <trkpt lat="45.92546" lon="6.5192">
        <ele>2191</ele>
        <time>2023-03-04T14:05:57Z</time>
      </trkpt>
      <trkpt lat="45.92538" lon="6.51912">
        <ele>2186</ele>
        <time>2023-03-04T14:05:59Z</time>
      </trkpt>
      <trkpt lat="45.92536" lon="6.51896">
        <ele>2180</ele>
        <time>2023-03-04T14:06:01Z</time>
      </trkpt>
      <trkpt lat="45.92538" lon="6.51881">
        <ele>2177</ele>
        <time>2023-03-04T14:06:03Z</time>
      </trkpt>
      <trkpt lat="45.92547" lon="6.51877">
        <ele>2173</ele>
        <time>2023-03-04T14:06:08Z</time>
      </trkpt>
      <trkpt lat="45.92548" lon="6.51858">
        <ele>2171</ele>
        <time>2023-03-04T14:06:13Z</time>
      </trkpt>
      <trkpt lat="45.92554" lon="6.51828">
        <ele>2166</ele>
        <time>2023-03-04T14:06:18Z</time>
      </trkpt>
      <trkpt lat="45.9256" lon="6.51831">
        <ele>2164</ele>
        <time>2023-03-04T14:06:22Z</time>
      </trkpt>
      <trkpt lat="45.92563" lon="6.51838">
        <ele>2163</ele>
        <time>2023-03-04T14:06:24Z</time>
      </trkpt>
      <trkpt lat="45.92568" lon="6.51843">
        <ele>2161</ele>
        <time>2023-03-04T14:06:43Z</time>
      </trkpt>
      <trkpt lat="45.92572" lon="6.51852">
        <ele>2159</ele>
        <time>2023-03-04T14:06:45Z</time>
      </trkpt>
      <trkpt lat="45.92598" lon="6.51874">
        <ele>2147</ele>
        <time>2023-03-04T14:06:49Z</time>
      </trkpt>
      <trkpt lat="45.92606" lon="6.51881">
        <ele>2145</ele>
        <time>2023-03-04T14:06:50Z</time>
      </trkpt>
      <trkpt lat="45.92622" lon="6.51887">
        <ele>2141</ele>
        <time>2023-03-04T14:06:52Z</time>
      </trkpt>
      <trkpt lat="45.92636" lon="6.51882">
        <ele>2138</ele>
        <time>2023-03-04T14:06:55Z</time>
      </trkpt>
      <trkpt lat="45.92649" lon="6.51875">
        <ele>2137</ele>
        <time>2023-03-04T14:06:58Z</time>
      </trkpt>
      <trkpt lat="45.92653" lon="6.51848">
        <ele>2134</ele>
        <time>2023-03-04T14:07:00Z</time>
      </trkpt>
      <trkpt lat="45.92652" lon="6.51826">
        <ele>2132</ele>
        <time>2023-03-04T14:07:02Z</time>
      </trkpt>
      <trkpt lat="45.92667" lon="6.5183">
        <ele>2129</ele>
        <time>2023-03-04T14:07:05Z</time>
      </trkpt>
      <trkpt lat="45.92679" lon="6.51839">
        <ele>2122</ele>
        <time>2023-03-04T14:07:07Z</time>
      </trkpt>
      <trkpt lat="45.92689" lon="6.51842">
        <ele>2118</ele>
        <time>2023-03-04T14:07:09Z</time>
      </trkpt>
      <trkpt lat="45.92704" lon="6.51848">
        <ele>2109</ele>
        <time>2023-03-04T14:08:31Z</time>
      </trkpt>
      <trkpt lat="45.92712" lon="6.51851">
        <ele>2103</ele>
        <time>2023-03-04T14:08:33Z</time>
      </trkpt>
      <trkpt lat="45.92748" lon="6.51862">
        <ele>2090</ele>
        <time>2023-03-04T14:08:39Z</time>
      </trkpt>
      <trkpt lat="45.92758" lon="6.51862">
        <ele>2088</ele>
        <time>2023-03-04T14:08:41Z</time>
      </trkpt>
      <trkpt lat="45.92768" lon="6.51852">
        <ele>2087</ele>
        <time>2023-03-04T14:08:44Z</time>
      </trkpt>
      <trkpt lat="45.92769" lon="6.51835">
        <ele>2085</ele>
        <time>2023-03-04T14:08:46Z</time>
      </trkpt>
      <trkpt lat="45.9278" lon="6.51824">
        <ele>2084</ele>
        <time>2023-03-04T14:08:49Z</time>
      </trkpt>
      <trkpt lat="45.9279" lon="6.51808">
        <ele>2081</ele>
        <time>2023-03-04T14:08:51Z</time>
      </trkpt>
      <trkpt lat="45.92788" lon="6.51789">
        <ele>2079</ele>
        <time>2023-03-04T14:08:54Z</time>
      </trkpt>
      <trkpt lat="45.92794" lon="6.51774">
        <ele>2078</ele>
        <time>2023-03-04T14:08:56Z</time>
      </trkpt>
      <trkpt lat="45.92805" lon="6.51761">
        <ele>2075</ele>
        <time>2023-03-04T14:09:00Z</time>
      </trkpt>
      <trkpt lat="45.92816" lon="6.5175">
        <ele>2072</ele>
        <time>2023-03-04T14:09:03Z</time>
      </trkpt>
      <trkpt lat="45.92824" lon="6.51739">
        <ele>2065</ele>
        <time>2023-03-04T14:09:07Z</time>
      </trkpt>
      <trkpt lat="45.92832" lon="6.51738">
        <ele>2063</ele>
        <time>2023-03-04T14:09:09Z</time>
      </trkpt>
      <trkpt lat="45.92839" lon="6.51742">
        <ele>2059</ele>
        <time>2023-03-04T14:09:14Z</time>
      </trkpt>
      <trkpt lat="45.9285" lon="6.5174">
        <ele>2053</ele>
        <time>2023-03-04T14:10:31Z</time>
      </trkpt>
      <trkpt lat="45.92852" lon="6.51728">
        <ele>2038</ele>
        <time>2023-03-04T14:10:33Z</time>
      </trkpt>
      <trkpt lat="45.92867" lon="6.51696">
        <ele>2021</ele>
        <time>2023-03-04T14:10:38Z</time>
      </trkpt>
      <trkpt lat="45.92874" lon="6.51673">
        <ele>2014</ele>
        <time>2023-03-04T14:10:42Z</time>
      </trkpt>
      <trkpt lat="45.92875" lon="6.51655">
        <ele>2012</ele>
        <time>2023-03-04T14:10:45Z</time>
      </trkpt>
      <trkpt lat="45.92881" lon="6.51641">
        <ele>2009</ele>
        <time>2023-03-04T14:10:48Z</time>
      </trkpt>
      <trkpt lat="45.92878" lon="6.51626">
        <ele>2008</ele>
        <time>2023-03-04T14:10:50Z</time>
      </trkpt>
      <trkpt lat="45.92885" lon="6.51613">
        <ele>2007</ele>
        <time>2023-03-04T14:10:53Z</time>
      </trkpt>
      <trkpt lat="45.92885" lon="6.5159">
        <ele>2004</ele>
        <time>2023-03-04T14:10:56Z</time>
      </trkpt>
      <trkpt lat="45.92894" lon="6.51577">
        <ele>2001</ele>
        <time>2023-03-04T14:10:59Z</time>
      </trkpt>
      <trkpt lat="45.929" lon="6.51552">
        <ele>1997</ele>
        <time>2023-03-04T14:11:02Z</time>
      </trkpt>
      <trkpt lat="45.92895" lon="6.51523">
        <ele>1991</ele>
        <time>2023-03-04T14:11:06Z</time>
      </trkpt>
      <trkpt lat="45.92911" lon="6.51527">
        <ele>1988</ele>
        <time>2023-03-04T14:11:18Z</time>
      </trkpt>
      <trkpt lat="45.92926" lon="6.51517">
        <ele>1983</ele>
        <time>2023-03-04T14:11:21Z</time>
      </trkpt>
      <trkpt lat="45.92929" lon="6.51493">
        <ele>1979</ele>
        <time>2023-03-04T14:11:24Z</time>
      </trkpt>
      <trkpt lat="45.92932" lon="6.51485">
        <ele>1969</ele>
        <time>2023-03-04T14:13:03Z</time>
      </trkpt>
      <trkpt lat="45.9293" lon="6.51471">
        <ele>1965</ele>
        <time>2023-03-04T14:13:49Z</time>
      </trkpt>
      <trkpt lat="45.92929" lon="6.51441">
        <ele>1923</ele>
        <time>2023-03-04T14:13:54Z</time>
      </trkpt>
      <trkpt lat="45.92932" lon="6.51427">
        <ele>1911</ele>
        <time>2023-03-04T14:13:57Z</time>
      </trkpt>
      <trkpt lat="45.92928" lon="6.51418">
        <ele>1908</ele>
        <time>2023-03-04T14:13:59Z</time>
      </trkpt>
      <trkpt lat="45.92937" lon="6.51411">
        <ele>1904</ele>
        <time>2023-03-04T14:14:01Z</time>
      </trkpt>
      <trkpt lat="45.92943" lon="6.51392">
        <ele>1902</ele>
        <time>2023-03-04T14:14:05Z</time>
      </trkpt>
      <trkpt lat="45.92948" lon="6.51364">
        <ele>1900</ele>
        <time>2023-03-04T14:14:07Z</time>
      </trkpt>
      <trkpt lat="45.92948" lon="6.51337">
        <ele>1898</ele>
        <time>2023-03-04T14:14:10Z</time>
      </trkpt>
      <trkpt lat="45.92958" lon="6.51326">
        <ele>1898</ele>
        <time>2023-03-04T14:14:12Z</time>
      </trkpt>
      <trkpt lat="45.92963" lon="6.51309">
        <ele>1897</ele>
        <time>2023-03-04T14:14:14Z</time>
      </trkpt>
      <trkpt lat="45.92966" lon="6.51284">
        <ele>1896</ele>
        <time>2023-03-04T14:14:17Z</time>
      </trkpt>
      <trkpt lat="45.92976" lon="6.51269">
        <ele>1890</ele>
        <time>2023-03-04T14:14:21Z</time>
      </trkpt>
      <trkpt lat="45.92985" lon="6.51242">
        <ele>1882</ele>
        <time>2023-03-04T14:14:25Z</time>
      </trkpt>
      <trkpt lat="45.92987" lon="6.51212">
        <ele>1868</ele>
        <time>2023-03-04T14:14:28Z</time>
      </trkpt>
      <trkpt lat="45.92992" lon="6.51199">
        <ele>1860</ele>
        <time>2023-03-04T14:14:30Z</time>
      </trkpt>
      <trkpt lat="45.92998" lon="6.51195">
        <ele>1856</ele>
        <time>2023-03-04T14:14:32Z</time>
      </trkpt>
      <trkpt lat="45.93002" lon="6.51183">
        <ele>1847</ele>
        <time>2023-03-04T14:14:35Z</time>
      </trkpt>
      <trkpt lat="45.93027" lon="6.51173">
        <ele>1833</ele>
        <time>2023-03-04T14:14:40Z</time>
      </trkpt>
      <trkpt lat="45.93033" lon="6.51171">
        <ele>1830</ele>
        <time>2023-03-04T14:14:41Z</time>
      </trkpt>
      <trkpt lat="45.93037" lon="6.51165">
        <ele>1828</ele>
        <time>2023-03-04T14:14:42Z</time>
      </trkpt>
      <trkpt lat="45.93043" lon="6.5115">
        <ele>1824</ele>
        <time>2023-03-04T14:14:44Z</time>
      </trkpt>
      <trkpt lat="45.9305" lon="6.51135">
        <ele>1822</ele>
        <time>2023-03-04T14:14:46Z</time>
      </trkpt>
      <trkpt lat="45.93057" lon="6.5112">
        <ele>1819</ele>
        <time>2023-03-04T14:14:48Z</time>
      </trkpt>
      <trkpt lat="45.9306" lon="6.51106">
        <ele>1816</ele>
        <time>2023-03-04T14:14:50Z</time>
      </trkpt>
      <trkpt lat="45.93063" lon="6.51092">
        <ele>1814</ele>
        <time>2023-03-04T14:14:52Z</time>
      </trkpt>
      <trkpt lat="45.93068" lon="6.51076">
        <ele>1811</ele>
        <time>2023-03-04T14:14:54Z</time>
      </trkpt>
      <trkpt lat="45.93053" lon="6.51074">
        <ele>1810</ele>
        <time>2023-03-04T14:15:26Z</time>
      </trkpt>
      <trkpt lat="45.93051" lon="6.51067">
        <ele>1808</ele>
        <time>2023-03-04T14:16:46Z</time>
      </trkpt>
      <trkpt lat="45.93049" lon="6.51062">
        <ele>1805</ele>
        <time>2023-03-04T14:17:20Z</time>
      </trkpt>
      <trkpt lat="45.93047" lon="6.51048">
        <ele>1803</ele>
        <time>2023-03-04T14:18:01Z</time>
      </trkpt>
      <trkpt lat="45.93041" lon="6.5103">
        <ele>1795</ele>
        <time>2023-03-04T14:18:03Z</time>
      </trkpt>
      <trkpt lat="45.93039" lon="6.51021">
        <ele>1793</ele>
        <time>2023-03-04T14:18:04Z</time>
      </trkpt>
      <trkpt lat="45.93036" lon="6.50999">
        <ele>1789</ele>
        <time>2023-03-04T14:18:07Z</time>
      </trkpt>
      <trkpt lat="45.9301" lon="6.50932">
        <ele>1784</ele>
        <time>2023-03-04T14:18:16Z</time>
      </trkpt>
      <trkpt lat="45.92983" lon="6.50875">
        <ele>1782</ele>
        <time>2023-03-04T14:18:24Z</time>
      </trkpt>
      <trkpt lat="45.92993" lon="6.5087">
        <ele>1782</ele>
        <time>2023-03-04T14:18:49Z</time>
      </trkpt>
      <trkpt lat="45.93003" lon="6.50866">
        <ele>1780</ele>
        <time>2023-03-04T14:18:52Z</time>
      </trkpt>
      <trkpt lat="45.93005" lon="6.50849">
        <ele>1778</ele>
        <time>2023-03-04T14:18:57Z</time>
      </trkpt>
      <trkpt lat="45.93016" lon="6.50855">
        <ele>1777</ele>
        <time>2023-03-04T14:19:00Z</time>
      </trkpt>
      <trkpt lat="45.93024" lon="6.50857">
        <ele>1776</ele>
        <time>2023-03-04T14:19:02Z</time>
      </trkpt>
      <trkpt lat="45.93026" lon="6.50836">
        <ele>1775</ele>
        <time>2023-03-04T14:19:10Z</time>
      </trkpt>
      <trkpt lat="45.93017" lon="6.50817">
        <ele>1774</ele>
        <time>2023-03-04T14:19:14Z</time>
      </trkpt>
      <trkpt lat="45.9301" lon="6.50802">
        <ele>1771</ele>
        <time>2023-03-04T14:19:17Z</time>
      </trkpt>
      <trkpt lat="45.93003" lon="6.50788">
        <ele>1763</ele>
        <time>2023-03-04T14:19:54Z</time>
      </trkpt>
      <trkpt lat="45.92999" lon="6.50772">
        <ele>1762</ele>
        <time>2023-03-04T14:19:59Z</time>
      </trkpt>
      <trkpt lat="45.93005" lon="6.5076">
        <ele>1758</ele>
        <time>2023-03-04T14:20:09Z</time>
      </trkpt>
      <trkpt lat="45.93011" lon="6.50762">
        <ele>1756</ele>
        <time>2023-03-04T14:20:12Z</time>
      </trkpt>
      <trkpt lat="45.93017" lon="6.50764">
        <ele>1755</ele>
        <time>2023-03-04T14:20:17Z</time>
      </trkpt>
      <trkpt lat="45.93021" lon="6.50742">
        <ele>1750</ele>
        <time>2023-03-04T14:20:34Z</time>
      </trkpt>
      <trkpt lat="45.93016" lon="6.50726">
        <ele>1741</ele>
        <time>2023-03-04T14:21:24Z</time>
      </trkpt>
      <trkpt lat="45.93003" lon="6.50703">
        <ele>1738</ele>
        <time>2023-03-04T14:21:36Z</time>
      </trkpt>
      <trkpt lat="45.92994" lon="6.50688">
        <ele>1730</ele>
        <time>2023-03-04T14:21:39Z</time>
      </trkpt>
      <trkpt lat="45.92986" lon="6.50677">
        <ele>1728</ele>
        <time>2023-03-04T14:21:42Z</time>
      </trkpt>
      <trkpt lat="45.92979" lon="6.50668">
        <ele>1725</ele>
        <time>2023-03-04T14:21:55Z</time>
      </trkpt>
      <trkpt lat="45.92982" lon="6.50652">
        <ele>1723</ele>
        <time>2023-03-04T14:22:42Z</time>
      </trkpt>
      <trkpt lat="45.92984" lon="6.50644">
        <ele>1717</ele>
        <time>2023-03-04T14:23:21Z</time>
      </trkpt>
      <trkpt lat="45.92976" lon="6.50632">
        <ele>1715</ele>
        <time>2023-03-04T14:24:04Z</time>
      </trkpt>
      <trkpt lat="45.92961" lon="6.50608">
        <ele>1711</ele>
        <time>2023-03-04T14:24:16Z</time>
      </trkpt>
      <trkpt lat="45.92951" lon="6.50597">
        <ele>1710</ele>
        <time>2023-03-04T14:24:20Z</time>
      </trkpt>
      <trkpt lat="45.92943" lon="6.50583">
        <ele>1709</ele>
        <time>2023-03-04T14:24:25Z</time>
      </trkpt>
      <trkpt lat="45.92937" lon="6.5056">
        <ele>1706</ele>
        <time>2023-03-04T14:24:49Z</time>
      </trkpt>
      <trkpt lat="45.92935" lon="6.5055">
        <ele>1704</ele>
        <time>2023-03-04T14:24:57Z</time>
      </trkpt>
      <trkpt lat="45.92934" lon="6.50539">
        <ele>1703</ele>
        <time>2023-03-04T14:25:09Z</time>
      </trkpt>
      <trkpt lat="45.92932" lon="6.50532">
        <ele>1700</ele>
        <time>2023-03-04T14:25:22Z</time>
      </trkpt>
      <trkpt lat="45.92927" lon="6.50527">
        <ele>1700</ele>
        <time>2023-03-04T14:25:32Z</time>
      </trkpt>
      <trkpt lat="45.92919" lon="6.50516">
        <ele>1698</ele>
        <time>2023-03-04T14:25:44Z</time>
      </trkpt>
      <trkpt lat="45.92914" lon="6.50512">
        <ele>1698</ele>
        <time>2023-03-04T14:25:47Z</time>
      </trkpt>
      <trkpt lat="45.9291" lon="6.50503">
        <ele>1697</ele>
        <time>2023-03-04T14:25:50Z</time>
      </trkpt>
      <trkpt lat="45.92904" lon="6.50496">
        <ele>1697</ele>
        <time>2023-03-04T14:25:52Z</time>
      </trkpt>
      <trkpt lat="45.92898" lon="6.50492">
        <ele>1697</ele>
        <time>2023-03-04T14:25:57Z</time>
      </trkpt>
      <trkpt lat="45.92897" lon="6.50481">
        <ele>1696</ele>
        <time>2023-03-04T14:26:14Z</time>
      </trkpt>
      <trkpt lat="45.92893" lon="6.50476">
        <ele>1696</ele>
        <time>2023-03-04T14:26:20Z</time>
      </trkpt>
      <trkpt lat="45.92886" lon="6.50472">
        <ele>1695</ele>
        <time>2023-03-04T14:27:14Z</time>
      </trkpt>
      <trkpt lat="45.92881" lon="6.5047">
        <ele>1694</ele>
        <time>2023-03-04T14:27:31Z</time>
      </trkpt>
      <trkpt lat="45.92872" lon="6.50469">
        <ele>1693</ele>
        <time>2023-03-04T14:27:50Z</time>
      </trkpt>
      <trkpt lat="45.92876" lon="6.50459">
        <ele>1693</ele>
        <time>2023-03-04T14:27:53Z</time>
      </trkpt>
      <trkpt lat="45.92875" lon="6.50447">
        <ele>1691</ele>
        <time>2023-03-04T14:28:06Z</time>
      </trkpt>
      <trkpt lat="45.92876" lon="6.50439">
        <ele>1690</ele>
        <time>2023-03-04T14:28:36Z</time>
      </trkpt>
      <trkpt lat="45.92876" lon="6.50428">
        <ele>1689</ele>
        <time>2023-03-04T14:28:41Z</time>
      </trkpt>
      <trkpt lat="45.92868" lon="6.50421">
        <ele>1689</ele>
        <time>2023-03-04T14:28:43Z</time>
      </trkpt>
      <trkpt lat="45.92872" lon="6.50414">
        <ele>1688</ele>
        <time>2023-03-04T14:28:53Z</time>
      </trkpt>
      <trkpt lat="45.92874" lon="6.50389">
        <ele>1687</ele>
        <time>2023-03-04T14:29:47Z</time>
      </trkpt>
      <trkpt lat="45.9288" lon="6.50389">
        <ele>1685</ele>
        <time>2023-03-04T14:30:47Z</time>
      </trkpt>
      <trkpt lat="45.92886" lon="6.50383">
        <ele>1676</ele>
        <time>2023-03-04T14:31:27Z</time>
      </trkpt>
      <trkpt lat="45.92885" lon="6.50371">
        <ele>1672</ele>
        <time>2023-03-04T14:32:43Z</time>
      </trkpt>
      <trkpt lat="45.92878" lon="6.50365">
        <ele>1670</ele>
        <time>2023-03-04T14:32:45Z</time>
      </trkpt>
      <trkpt lat="45.92872" lon="6.50357">
        <ele>1667</ele>
        <time>2023-03-04T14:32:47Z</time>
      </trkpt>
      <trkpt lat="45.9287" lon="6.50345">
        <ele>1666</ele>
        <time>2023-03-04T14:32:49Z</time>
      </trkpt>
      <trkpt lat="45.92862" lon="6.50327">
        <ele>1662</ele>
        <time>2023-03-04T14:33:14Z</time>
      </trkpt>
      <trkpt lat="45.92859" lon="6.50322">
        <ele>1658</ele>
        <time>2023-03-04T14:33:38Z</time>
      </trkpt>
      <trkpt lat="45.92853" lon="6.50314">
        <ele>1655</ele>
        <time>2023-03-04T14:34:01Z</time>
      </trkpt>
      <trkpt lat="45.92849" lon="6.50303">
        <ele>1651</ele>
        <time>2023-03-04T14:34:11Z</time>
      </trkpt>
      <trkpt lat="45.92844" lon="6.50298">
        <ele>1649</ele>
        <time>2023-03-04T14:34:13Z</time>
      </trkpt>
      <trkpt lat="45.92843" lon="6.50286">
        <ele>1647</ele>
        <time>2023-03-04T14:34:29Z</time>
      </trkpt>
      <trkpt lat="45.92838" lon="6.50283">
        <ele>1644</ele>
        <time>2023-03-04T14:34:34Z</time>
      </trkpt>
      <trkpt lat="45.92831" lon="6.50286">
        <ele>1643</ele>
        <time>2023-03-04T14:34:44Z</time>
      </trkpt>
      <trkpt lat="45.92825" lon="6.50282">
        <ele>1640</ele>
        <time>2023-03-04T14:34:52Z</time>
      </trkpt>
      <trkpt lat="45.9282" lon="6.50278">
        <ele>1640</ele>
        <time>2023-03-04T14:34:54Z</time>
      </trkpt>
      <trkpt lat="45.92813" lon="6.50271">
        <ele>1637</ele>
        <time>2023-03-04T14:34:56Z</time>
      </trkpt>
      <trkpt lat="45.92808" lon="6.50267">
        <ele>1636</ele>
        <time>2023-03-04T14:34:58Z</time>
      </trkpt>
      <trkpt lat="45.92807" lon="6.50253">
        <ele>1635</ele>
        <time>2023-03-04T14:35:02Z</time>
      </trkpt>
      <trkpt lat="45.92812" lon="6.50246">
        <ele>1634</ele>
        <time>2023-03-04T14:35:04Z</time>
      </trkpt>
      <trkpt lat="45.92802" lon="6.50226">
        <ele>1631</ele>
        <time>2023-03-04T14:35:08Z</time>
      </trkpt>
      <trkpt lat="45.92796" lon="6.50218">
        <ele>1631</ele>
        <time>2023-03-04T14:35:10Z</time>
      </trkpt>
      <trkpt lat="45.92791" lon="6.50206">
        <ele>1629</ele>
        <time>2023-03-04T14:35:12Z</time>
      </trkpt>
      <trkpt lat="45.92773" lon="6.50182">
        <ele>1625</ele>
        <time>2023-03-04T14:35:36Z</time>
      </trkpt>
      <trkpt lat="45.9277" lon="6.50168">
        <ele>1622</ele>
        <time>2023-03-04T14:36:21Z</time>
      </trkpt>
      <trkpt lat="45.92754" lon="6.50142">
        <ele>1617</ele>
        <time>2023-03-04T14:36:27Z</time>
      </trkpt>
      <trkpt lat="45.92746" lon="6.50134">
        <ele>1615</ele>
        <time>2023-03-04T14:36:29Z</time>
      </trkpt>
      <trkpt lat="45.92735" lon="6.5011">
        <ele>1613</ele>
        <time>2023-03-04T14:36:34Z</time>
      </trkpt>
      <trkpt lat="45.92728" lon="6.50101">
        <ele>1611</ele>
        <time>2023-03-04T14:36:36Z</time>
      </trkpt>
      <trkpt lat="45.92721" lon="6.50093">
        <ele>1611</ele>
        <time>2023-03-04T14:36:40Z</time>
      </trkpt>
      <trkpt lat="45.92712" lon="6.50095">
        <ele>1610</ele>
        <time>2023-03-04T14:36:42Z</time>
      </trkpt>
      <trkpt lat="45.92703" lon="6.50098">
        <ele>1609</ele>
        <time>2023-03-04T14:36:44Z</time>
      </trkpt>
      <trkpt lat="45.92697" lon="6.5009">
        <ele>1608</ele>
        <time>2023-03-04T14:36:46Z</time>
      </trkpt>
      <trkpt lat="45.92697" lon="6.50079">
        <ele>1605</ele>
        <time>2023-03-04T14:37:21Z</time>
      </trkpt>
      <trkpt lat="45.92691" lon="6.50073">
        <ele>1605</ele>
        <time>2023-03-04T14:37:24Z</time>
      </trkpt>
      <trkpt lat="45.9268" lon="6.50054">
        <ele>1602</ele>
        <time>2023-03-04T14:37:28Z</time>
      </trkpt>
      <trkpt lat="45.92663" lon="6.50018">
        <ele>1598</ele>
        <time>2023-03-04T14:37:38Z</time>
      </trkpt>
      <trkpt lat="45.9266" lon="6.50002">
        <ele>1597</ele>
        <time>2023-03-04T14:37:41Z</time>
      </trkpt>
      <trkpt lat="45.92655" lon="6.49986">
        <ele>1595</ele>
        <time>2023-03-04T14:37:44Z</time>
      </trkpt>
      <trkpt lat="45.92659" lon="6.49976">
        <ele>1593</ele>
        <time>2023-03-04T14:38:22Z</time>
      </trkpt>
      <trkpt lat="45.9266" lon="6.49967">
        <ele>1593</ele>
        <time>2023-03-04T14:38:24Z</time>
      </trkpt>
      <trkpt lat="45.92658" lon="6.49952">
        <ele>1587</ele>
        <time>2023-03-04T14:38:26Z</time>
      </trkpt>
      <trkpt lat="45.92656" lon="6.49939">
        <ele>1585</ele>
        <time>2023-03-04T14:38:29Z</time>
      </trkpt>
      <trkpt lat="45.92661" lon="6.49931">
        <ele>1583</ele>
        <time>2023-03-04T14:38:32Z</time>
      </trkpt>
      <trkpt lat="45.92666" lon="6.49942">
        <ele>1583</ele>
        <time>2023-03-04T14:38:35Z</time>
      </trkpt>
      <trkpt lat="45.92673" lon="6.49935">
        <ele>1581</ele>
        <time>2023-03-04T14:38:38Z</time>
      </trkpt>
      <trkpt lat="45.92681" lon="6.49944">
        <ele>1580</ele>
        <time>2023-03-04T14:38:42Z</time>
      </trkpt>
      <trkpt lat="45.92687" lon="6.49951">
        <ele>1579</ele>
        <time>2023-03-04T14:38:44Z</time>
      </trkpt>
      <trkpt lat="45.92689" lon="6.49934">
        <ele>1578</ele>
        <time>2023-03-04T14:38:50Z</time>
      </trkpt>
      <trkpt lat="45.92702" lon="6.4993">
        <ele>1575</ele>
        <time>2023-03-04T14:38:58Z</time>
      </trkpt>
      <trkpt lat="45.92712" lon="6.49923">
        <ele>1575</ele>
        <time>2023-03-04T14:39:01Z</time>
      </trkpt>
      <trkpt lat="45.92713" lon="6.49904">
        <ele>1573</ele>
        <time>2023-03-04T14:39:07Z</time>
      </trkpt>
      <trkpt lat="45.92719" lon="6.49903">
        <ele>1569</ele>
        <time>2023-03-04T14:40:27Z</time>
      </trkpt>
      <trkpt lat="45.92726" lon="6.49909">
        <ele>1564</ele>
        <time>2023-03-04T14:40:29Z</time>
      </trkpt>
      <trkpt lat="45.92733" lon="6.49903">
        <ele>1559</ele>
        <time>2023-03-04T14:40:32Z</time>
      </trkpt>
      <trkpt lat="45.9274" lon="6.49895">
        <ele>1556</ele>
        <time>2023-03-04T14:40:35Z</time>
      </trkpt>
      <trkpt lat="45.92746" lon="6.4989">
        <ele>1554</ele>
        <time>2023-03-04T14:40:40Z</time>
      </trkpt>
      <trkpt lat="45.92754" lon="6.49878">
        <ele>1553</ele>
        <time>2023-03-04T14:40:44Z</time>
      </trkpt>
      <trkpt lat="45.92761" lon="6.49876">
        <ele>1550</ele>
        <time>2023-03-04T14:40:50Z</time>
      </trkpt>
      <trkpt lat="45.92766" lon="6.4986">
        <ele>1547</ele>
        <time>2023-03-04T14:40:54Z</time>
      </trkpt>
      <trkpt lat="45.92774" lon="6.49864">
        <ele>1543</ele>
        <time>2023-03-04T14:40:58Z</time>
      </trkpt>
      <trkpt lat="45.92783" lon="6.49865">
        <ele>1541</ele>
        <time>2023-03-04T14:41:02Z</time>
      </trkpt>
      <trkpt lat="45.92784" lon="6.49855">
        <ele>1540</ele>
        <time>2023-03-04T14:41:05Z</time>
      </trkpt>
      <trkpt lat="45.9279" lon="6.49855">
        <ele>1538</ele>
        <time>2023-03-04T14:41:08Z</time>
      </trkpt>
      <trkpt lat="45.92793" lon="6.49847">
        <ele>1537</ele>
        <time>2023-03-04T14:41:17Z</time>
      </trkpt>
      <trkpt lat="45.92793" lon="6.49834">
        <ele>1533</ele>
        <time>2023-03-04T14:41:31Z</time>
      </trkpt>
      <trkpt lat="45.92794" lon="6.49817">
        <ele>1528</ele>
        <time>2023-03-04T14:41:36Z</time>
      </trkpt>
      <trkpt lat="45.92798" lon="6.49804">
        <ele>1525</ele>
        <time>2023-03-04T14:41:38Z</time>
      </trkpt>
      <trkpt lat="45.92803" lon="6.49783">
        <ele>1521</ele>
        <time>2023-03-04T14:41:41Z</time>
      </trkpt>
      <trkpt lat="45.92808" lon="6.49772">
        <ele>1516</ele>
        <time>2023-03-04T14:41:43Z</time>
      </trkpt>
      <trkpt lat="45.92811" lon="6.49754">
        <ele>1513</ele>
        <time>2023-03-04T14:41:59Z</time>
      </trkpt>
      <trkpt lat="45.92818" lon="6.49741">
        <ele>1509</ele>
        <time>2023-03-04T14:42:01Z</time>
      </trkpt>
      <trkpt lat="45.92825" lon="6.49725">
        <ele>1506</ele>
        <time>2023-03-04T14:42:03Z</time>
      </trkpt>
      <trkpt lat="45.92833" lon="6.49707">
        <ele>1500</ele>
        <time>2023-03-04T14:42:05Z</time>
      </trkpt>
      <trkpt lat="45.92837" lon="6.49695">
        <ele>1498</ele>
        <time>2023-03-04T14:42:06Z</time>
      </trkpt>
      <trkpt lat="45.92841" lon="6.49684">
        <ele>1494</ele>
        <time>2023-03-04T14:42:07Z</time>
      </trkpt>
      <trkpt lat="45.92846" lon="6.49673">
        <ele>1492</ele>
        <time>2023-03-04T14:42:08Z</time>
      </trkpt>
      <trkpt lat="45.9285" lon="6.49664">
        <ele>1488</ele>
        <time>2023-03-04T14:42:09Z</time>
      </trkpt>
      <trkpt lat="45.92855" lon="6.49655">
        <ele>1486</ele>
        <time>2023-03-04T14:42:10Z</time>
      </trkpt>
      <trkpt lat="45.92859" lon="6.49648">
        <ele>1482</ele>
        <time>2023-03-04T14:42:11Z</time>
      </trkpt>
      <trkpt lat="45.92863" lon="6.49641">
        <ele>1481</ele>
        <time>2023-03-04T14:42:12Z</time>
      </trkpt>
      <trkpt lat="45.92859" lon="6.49635">
        <ele>1476</ele>
        <time>2023-03-04T14:42:46Z</time>
      </trkpt>
      <trkpt lat="45.92862" lon="6.49628">
        <ele>1474</ele>
        <time>2023-03-04T14:43:03Z</time>
      </trkpt>
      <trkpt lat="45.92864" lon="6.49619">
        <ele>1472</ele>
        <time>2023-03-04T14:43:12Z</time>
      </trkpt>
      <trkpt lat="45.92865" lon="6.49611">
        <ele>1470</ele>
        <time>2023-03-04T14:43:23Z</time>
      </trkpt>
      <trkpt lat="45.92858" lon="6.49601">
        <ele>1466</ele>
        <time>2023-03-04T14:43:43Z</time>
      </trkpt>
      <trkpt lat="45.92856" lon="6.49593">
        <ele>1464</ele>
        <time>2023-03-04T14:44:01Z</time>
      </trkpt>
      <trkpt lat="45.92859" lon="6.49567">
        <ele>1462</ele>
        <time>2023-03-04T14:44:38Z</time>
      </trkpt>
      <trkpt lat="45.92858" lon="6.49553">
        <ele>1463</ele>
        <time>2023-03-04T14:44:54Z</time>
      </trkpt>
      <trkpt lat="45.92845" lon="6.49531">
        <ele>1465</ele>
        <time>2023-03-04T14:45:21Z</time>
      </trkpt>
      <trkpt lat="45.92843" lon="6.49526">
        <ele>1465</ele>
        <time>2023-03-04T14:45:26Z</time>
      </trkpt>
      <trkpt lat="45.92839" lon="6.49523">
        <ele>1466</ele>
        <time>2023-03-04T14:45:31Z</time>
      </trkpt>
      <trkpt lat="45.92831" lon="6.49514">
        <ele>1467</ele>
        <time>2023-03-04T14:45:48Z</time>
      </trkpt>
      <trkpt lat="45.92825" lon="6.49509">
        <ele>1467</ele>
        <time>2023-03-04T14:45:57Z</time>
      </trkpt>
      <trkpt lat="45.92821" lon="6.49507">
        <ele>1468</ele>
        <time>2023-03-04T14:46:03Z</time>
      </trkpt>
      <trkpt lat="45.92813" lon="6.49506">
        <ele>1469</ele>
        <time>2023-03-04T14:46:12Z</time>
      </trkpt>
      <trkpt lat="45.92802" lon="6.495">
        <ele>1471</ele>
        <time>2023-03-04T14:46:29Z</time>
      </trkpt>
      <trkpt lat="45.92789" lon="6.49494">
        <ele>1473</ele>
        <time>2023-03-04T14:46:46Z</time>
      </trkpt>
      <trkpt lat="45.92785" lon="6.49492">
        <ele>1474</ele>
        <time>2023-03-04T14:46:52Z</time>
      </trkpt>
      <trkpt lat="45.92779" lon="6.49488">
        <ele>1475</ele>
        <time>2023-03-04T14:47:04Z</time>
      </trkpt>
      <trkpt lat="45.92775" lon="6.49485">
        <ele>1477</ele>
        <time>2023-03-04T14:47:13Z</time>
      </trkpt>
      <trkpt lat="45.92773" lon="6.49481">
        <ele>1478</ele>
        <time>2023-03-04T14:47:20Z</time>
      </trkpt>
      <trkpt lat="45.92768" lon="6.49473">
        <ele>1479</ele>
        <time>2023-03-04T14:47:30Z</time>
      </trkpt>
      <trkpt lat="45.92766" lon="6.49469">
        <ele>1480</ele>
        <time>2023-03-04T14:47:35Z</time>
      </trkpt>
      <trkpt lat="45.92762" lon="6.49465">
        <ele>1481</ele>
        <time>2023-03-04T14:47:40Z</time>
      </trkpt>
      <trkpt lat="45.92759" lon="6.49463">
        <ele>1481</ele>
        <time>2023-03-04T14:47:44Z</time>
      </trkpt>
      <trkpt lat="45.92753" lon="6.49454">
        <ele>1483</ele>
        <time>2023-03-04T14:47:57Z</time>
      </trkpt>
      <trkpt lat="45.9275" lon="6.49452">
        <ele>1484</ele>
        <time>2023-03-04T14:51:08Z</time>
      </trkpt>
      <trkpt lat="45.92746" lon="6.49441">
        <ele>1484</ele>
        <time>2023-03-04T14:51:17Z</time>
      </trkpt>
      <trkpt lat="45.92738" lon="6.49416">
        <ele>1484</ele>
        <time>2023-03-04T14:51:37Z</time>
      </trkpt>
      <trkpt lat="45.92736" lon="6.49412">
        <ele>1484</ele>
        <time>2023-03-04T14:51:40Z</time>
      </trkpt>
      <trkpt lat="45.92736" lon="6.49408">
        <ele>1484</ele>
        <time>2023-03-04T14:51:43Z</time>
      </trkpt>
      <trkpt lat="45.92734" lon="6.49404">
        <ele>1484</ele>
        <time>2023-03-04T14:51:46Z</time>
      </trkpt>
      <trkpt lat="45.9273" lon="6.49395">
        <ele>1484</ele>
        <time>2023-03-04T14:51:52Z</time>
      </trkpt>
      <trkpt lat="45.92728" lon="6.49391">
        <ele>1484</ele>
        <time>2023-03-04T14:51:55Z</time>
      </trkpt>
      <trkpt lat="45.92726" lon="6.4938">
        <ele>1484</ele>
        <time>2023-03-04T14:52:04Z</time>
      </trkpt>
      <trkpt lat="45.92724" lon="6.49375">
        <ele>1484</ele>
        <time>2023-03-04T14:52:07Z</time>
      </trkpt>
      <trkpt lat="45.92723" lon="6.49371">
        <ele>1485</ele>
        <time>2023-03-04T14:52:10Z</time>
      </trkpt>
      <trkpt lat="45.92716" lon="6.49356">
        <ele>1485</ele>
        <time>2023-03-04T14:52:21Z</time>
      </trkpt>
      <trkpt lat="45.92712" lon="6.49341">
        <ele>1485</ele>
        <time>2023-03-04T14:52:30Z</time>
      </trkpt>
      <trkpt lat="45.92711" lon="6.49336">
        <ele>1486</ele>
        <time>2023-03-04T14:52:33Z</time>
      </trkpt>
      <trkpt lat="45.9271" lon="6.49331">
        <ele>1486</ele>
        <time>2023-03-04T14:52:36Z</time>
      </trkpt>
      <trkpt lat="45.92709" lon="6.49327">
        <ele>1486</ele>
        <time>2023-03-04T14:52:39Z</time>
      </trkpt>
      <trkpt lat="45.92709" lon="6.49322">
        <ele>1486</ele>
        <time>2023-03-04T14:52:42Z</time>
      </trkpt>
      <trkpt lat="45.92705" lon="6.49314">
        <ele>1486</ele>
        <time>2023-03-04T14:52:48Z</time>
      </trkpt>
      <trkpt lat="45.92703" lon="6.49309">
        <ele>1486</ele>
        <time>2023-03-04T14:52:52Z</time>
      </trkpt>
      <trkpt lat="45.92698" lon="6.493">
        <ele>1486</ele>
        <time>2023-03-04T14:52:58Z</time>
      </trkpt>
      <trkpt lat="45.92695" lon="6.49296">
        <ele>1486</ele>
        <time>2023-03-04T14:53:02Z</time>
      </trkpt>
      <trkpt lat="45.92668" lon="6.49269">
        <ele>1486</ele>
        <time>2023-03-04T14:53:34Z</time>
      </trkpt>
      <trkpt lat="45.92665" lon="6.49266">
        <ele>1486</ele>
        <time>2023-03-04T14:53:38Z</time>
      </trkpt>
      <trkpt lat="45.92662" lon="6.49264">
        <ele>1486</ele>
        <time>2023-03-04T14:53:41Z</time>
      </trkpt>
      <trkpt lat="45.92657" lon="6.4926">
        <ele>1486</ele>
        <time>2023-03-04T14:53:48Z</time>
      </trkpt>
      <trkpt lat="45.92654" lon="6.49259">
        <ele>1486</ele>
        <time>2023-03-04T14:53:51Z</time>
      </trkpt>
      <trkpt lat="45.92648" lon="6.49257">
        <ele>1486</ele>
        <time>2023-03-04T14:53:58Z</time>
      </trkpt>
      <trkpt lat="45.9264" lon="6.49253">
        <ele>1486</ele>
        <time>2023-03-04T14:54:09Z</time>
      </trkpt>
      <trkpt lat="45.92631" lon="6.49243">
        <ele>1486</ele>
        <time>2023-03-04T14:54:23Z</time>
      </trkpt>
      <trkpt lat="45.92626" lon="6.49235">
        <ele>1486</ele>
        <time>2023-03-04T14:54:33Z</time>
      </trkpt>
      <trkpt lat="45.92619" lon="6.4923">
        <ele>1486</ele>
        <time>2023-03-04T14:54:42Z</time>
      </trkpt>
      <trkpt lat="45.92614" lon="6.49229">
        <ele>1487</ele>
        <time>2023-03-04T14:54:47Z</time>
      </trkpt>
      <trkpt lat="45.9261" lon="6.49227">
        <ele>1487</ele>
        <time>2023-03-04T14:54:53Z</time>
      </trkpt>
      <trkpt lat="45.92606" lon="6.49225">
        <ele>1487</ele>
        <time>2023-03-04T14:54:58Z</time>
      </trkpt>
      <trkpt lat="45.92602" lon="6.49225">
        <ele>1487</ele>
        <time>2023-03-04T14:55:04Z</time>
      </trkpt>
      <trkpt lat="45.92598" lon="6.49225">
        <ele>1487</ele>
        <time>2023-03-04T14:55:08Z</time>
      </trkpt>
      <trkpt lat="45.92591" lon="6.49223">
        <ele>1487</ele>
        <time>2023-03-04T14:55:20Z</time>
      </trkpt>
      <trkpt lat="45.92587" lon="6.49221">
        <ele>1487</ele>
        <time>2023-03-04T14:55:25Z</time>
      </trkpt>
      <trkpt lat="45.92583" lon="6.49219">
        <ele>1487</ele>
        <time>2023-03-04T14:55:31Z</time>
      </trkpt>
      <trkpt lat="45.92579" lon="6.49219">
        <ele>1488</ele>
        <time>2023-03-04T14:55:37Z</time>
      </trkpt>
      <trkpt lat="45.92576" lon="6.49217">
        <ele>1488</ele>
        <time>2023-03-04T14:55:43Z</time>
      </trkpt>
      <trkpt lat="45.92568" lon="6.49216">
        <ele>1489</ele>
        <time>2023-03-04T14:55:53Z</time>
      </trkpt>
      <trkpt lat="45.92559" lon="6.49214">
        <ele>1489</ele>
        <time>2023-03-04T14:56:01Z</time>
      </trkpt>
      <trkpt lat="45.92544" lon="6.49211">
        <ele>1491</ele>
        <time>2023-03-04T14:56:19Z</time>
      </trkpt>
      <trkpt lat="45.9254" lon="6.49212">
        <ele>1491</ele>
        <time>2023-03-04T14:56:25Z</time>
      </trkpt>
      <trkpt lat="45.92536" lon="6.49212">
        <ele>1491</ele>
        <time>2023-03-04T14:56:31Z</time>
      </trkpt>
      <trkpt lat="45.9253" lon="6.4921">
        <ele>1492</ele>
        <time>2023-03-04T14:56:39Z</time>
      </trkpt>
      <trkpt lat="45.92518" lon="6.49202">
        <ele>1493</ele>
        <time>2023-03-04T14:56:54Z</time>
      </trkpt>
      <trkpt lat="45.92514" lon="6.49199">
        <ele>1493</ele>
        <time>2023-03-04T14:56:58Z</time>
      </trkpt>
      <trkpt lat="45.92508" lon="6.49198">
        <ele>1493</ele>
        <time>2023-03-04T14:57:05Z</time>
      </trkpt>
      <trkpt lat="45.92505" lon="6.49196">
        <ele>1494</ele>
        <time>2023-03-04T14:57:08Z</time>
      </trkpt>
      <trkpt lat="45.92498" lon="6.49192">
        <ele>1494</ele>
        <time>2023-03-04T14:57:16Z</time>
      </trkpt>
      <trkpt lat="45.92495" lon="6.49189">
        <ele>1494</ele>
        <time>2023-03-04T14:57:21Z</time>
      </trkpt>
      <trkpt lat="45.92491" lon="6.4918">
        <ele>1495</ele>
        <time>2023-03-04T14:57:29Z</time>
      </trkpt>
      <trkpt lat="45.92488" lon="6.49179">
        <ele>1495</ele>
        <time>2023-03-04T14:57:33Z</time>
      </trkpt>
      <trkpt lat="45.92485" lon="6.49177">
        <ele>1495</ele>
        <time>2023-03-04T14:57:38Z</time>
      </trkpt>
      <trkpt lat="45.92479" lon="6.49172">
        <ele>1495</ele>
        <time>2023-03-04T14:57:48Z</time>
      </trkpt>
      <trkpt lat="45.92473" lon="6.49166">
        <ele>1495</ele>
        <time>2023-03-04T14:57:56Z</time>
      </trkpt>
      <trkpt lat="45.9247" lon="6.49161">
        <ele>1495</ele>
        <time>2023-03-04T14:58:02Z</time>
      </trkpt>
      <trkpt lat="45.92468" lon="6.49157">
        <ele>1495</ele>
        <time>2023-03-04T14:58:05Z</time>
      </trkpt>
      <trkpt lat="45.92466" lon="6.49153">
        <ele>1495</ele>
        <time>2023-03-04T14:58:07Z</time>
      </trkpt>
      <trkpt lat="45.92464" lon="6.4915">
        <ele>1495</ele>
        <time>2023-03-04T14:58:10Z</time>
      </trkpt>
      <trkpt lat="45.9246" lon="6.49143">
        <ele>1496</ele>
        <time>2023-03-04T14:58:16Z</time>
      </trkpt>
      <trkpt lat="45.92458" lon="6.4914">
        <ele>1496</ele>
        <time>2023-03-04T14:58:20Z</time>
      </trkpt>
      <trkpt lat="45.92457" lon="6.49136">
        <ele>1496</ele>
        <time>2023-03-04T14:58:23Z</time>
      </trkpt>
      <trkpt lat="45.92456" lon="6.49132">
        <ele>1496</ele>
        <time>2023-03-04T14:58:26Z</time>
      </trkpt>
      <trkpt lat="45.92449" lon="6.49123">
        <ele>1496</ele>
        <time>2023-03-04T14:58:37Z</time>
      </trkpt>
      <trkpt lat="45.92447" lon="6.49119">
        <ele>1496</ele>
        <time>2023-03-04T14:58:40Z</time>
      </trkpt>
      <trkpt lat="45.92442" lon="6.49114">
        <ele>1496</ele>
        <time>2023-03-04T14:58:47Z</time>
      </trkpt>
      <trkpt lat="45.92439" lon="6.49112">
        <ele>1496</ele>
        <time>2023-03-04T14:58:50Z</time>
      </trkpt>
      <trkpt lat="45.92437" lon="6.49111">
        <ele>1496</ele>
        <time>2023-03-04T14:58:53Z</time>
      </trkpt>
      <trkpt lat="45.92434" lon="6.49108">
        <ele>1496</ele>
        <time>2023-03-04T14:58:56Z</time>
      </trkpt>
      <trkpt lat="45.92432" lon="6.49106">
        <ele>1496</ele>
        <time>2023-03-04T14:58:59Z</time>
      </trkpt>
      <trkpt lat="45.92426" lon="6.49106">
        <ele>1496</ele>
        <time>2023-03-04T14:59:05Z</time>
      </trkpt>
      <trkpt lat="45.92423" lon="6.49106">
        <ele>1496</ele>
        <time>2023-03-04T14:59:08Z</time>
      </trkpt>
      <trkpt lat="45.92416" lon="6.49108">
        <ele>1496</ele>
        <time>2023-03-04T14:59:15Z</time>
      </trkpt>
      <trkpt lat="45.9241" lon="6.4911">
        <ele>1496</ele>
        <time>2023-03-04T14:59:22Z</time>
      </trkpt>
      <trkpt lat="45.92407" lon="6.4911">
        <ele>1496</ele>
        <time>2023-03-04T14:59:25Z</time>
      </trkpt>
      <trkpt lat="45.92404" lon="6.49108">
        <ele>1496</ele>
        <time>2023-03-04T14:59:28Z</time>
      </trkpt>
      <trkpt lat="45.92401" lon="6.49108">
        <ele>1496</ele>
        <time>2023-03-04T14:59:31Z</time>
      </trkpt>
      <trkpt lat="45.92398" lon="6.49108">
        <ele>1496</ele>
        <time>2023-03-04T14:59:34Z</time>
      </trkpt>
      <trkpt lat="45.92395" lon="6.49107">
        <ele>1495</ele>
        <time>2023-03-04T14:59:37Z</time>
      </trkpt>
      <trkpt lat="45.92389" lon="6.49111">
        <ele>1495</ele>
        <time>2023-03-04T14:59:44Z</time>
      </trkpt>
      <trkpt lat="45.92386" lon="6.49111">
        <ele>1495</ele>
        <time>2023-03-04T14:59:48Z</time>
      </trkpt>
      <trkpt lat="45.92383" lon="6.49112">
        <ele>1495</ele>
        <time>2023-03-04T14:59:52Z</time>
      </trkpt>
      <trkpt lat="45.9238" lon="6.49111">
        <ele>1494</ele>
        <time>2023-03-04T14:59:55Z</time>
      </trkpt>
      <trkpt lat="45.92374" lon="6.49108">
        <ele>1494</ele>
        <time>2023-03-04T15:00:02Z</time>
      </trkpt>
      <trkpt lat="45.92366" lon="6.49103">
        <ele>1493</ele>
        <time>2023-03-04T15:00:12Z</time>
      </trkpt>
      <trkpt lat="45.92363" lon="6.49101">
        <ele>1493</ele>
        <time>2023-03-04T15:00:15Z</time>
      </trkpt>
      <trkpt lat="45.92358" lon="6.49097">
        <ele>1492</ele>
        <time>2023-03-04T15:00:22Z</time>
      </trkpt>
      <trkpt lat="45.92353" lon="6.49089">
        <ele>1492</ele>
        <time>2023-03-04T15:00:29Z</time>
      </trkpt>
      <trkpt lat="45.92349" lon="6.49084">
        <ele>1491</ele>
        <time>2023-03-04T15:00:35Z</time>
      </trkpt>
      <trkpt lat="45.92347" lon="6.49081">
        <ele>1491</ele>
        <time>2023-03-04T15:00:39Z</time>
      </trkpt>
      <trkpt lat="45.92344" lon="6.49078">
        <ele>1490</ele>
        <time>2023-03-04T15:00:42Z</time>
      </trkpt>
      <trkpt lat="45.92342" lon="6.49076">
        <ele>1490</ele>
        <time>2023-03-04T15:00:45Z</time>
      </trkpt>
      <trkpt lat="45.92339" lon="6.49074">
        <ele>1489</ele>
        <time>2023-03-04T15:00:48Z</time>
      </trkpt>
      <trkpt lat="45.92336" lon="6.49072">
        <ele>1489</ele>
        <time>2023-03-04T15:00:51Z</time>
      </trkpt>
      <trkpt lat="45.92334" lon="6.49069">
        <ele>1489</ele>
        <time>2023-03-04T15:00:54Z</time>
      </trkpt>
      <trkpt lat="45.92315" lon="6.49063">
        <ele>1487</ele>
        <time>2023-03-04T15:01:11Z</time>
      </trkpt>
      <trkpt lat="45.92312" lon="6.49062">
        <ele>1486</ele>
        <time>2023-03-04T15:01:15Z</time>
      </trkpt>
      <trkpt lat="45.92301" lon="6.49055">
        <ele>1485</ele>
        <time>2023-03-04T15:01:27Z</time>
      </trkpt>
      <trkpt lat="45.92298" lon="6.49053">
        <ele>1485</ele>
        <time>2023-03-04T15:01:30Z</time>
      </trkpt>
      <trkpt lat="45.92295" lon="6.49052">
        <ele>1484</ele>
        <time>2023-03-04T15:01:33Z</time>
      </trkpt>
      <trkpt lat="45.92287" lon="6.49044">
        <ele>1483</ele>
        <time>2023-03-04T15:01:46Z</time>
      </trkpt>
      <trkpt lat="45.92284" lon="6.49041">
        <ele>1482</ele>
        <time>2023-03-04T15:01:49Z</time>
      </trkpt>
      <trkpt lat="45.92281" lon="6.49035">
        <ele>1481</ele>
        <time>2023-03-04T15:01:57Z</time>
      </trkpt>
      <trkpt lat="45.92276" lon="6.49028">
        <ele>1480</ele>
        <time>2023-03-04T15:02:04Z</time>
      </trkpt>
      <trkpt lat="45.92274" lon="6.49025">
        <ele>1479</ele>
        <time>2023-03-04T15:02:09Z</time>
      </trkpt>
      <trkpt lat="45.92272" lon="6.49022">
        <ele>1479</ele>
        <time>2023-03-04T15:02:12Z</time>
      </trkpt>
      <trkpt lat="45.92267" lon="6.49016">
        <ele>1478</ele>
        <time>2023-03-04T15:02:17Z</time>
      </trkpt>
      <trkpt lat="45.92263" lon="6.49009">
        <ele>1477</ele>
        <time>2023-03-04T15:02:23Z</time>
      </trkpt>
      <trkpt lat="45.92261" lon="6.49006">
        <ele>1477</ele>
        <time>2023-03-04T15:02:25Z</time>
      </trkpt>
      <trkpt lat="45.92258" lon="6.49002">
        <ele>1476</ele>
        <time>2023-03-04T15:02:28Z</time>
      </trkpt>
      <trkpt lat="45.92253" lon="6.48995">
        <ele>1475</ele>
        <time>2023-03-04T15:02:34Z</time>
      </trkpt>
      <trkpt lat="45.92249" lon="6.48989">
        <ele>1475</ele>
        <time>2023-03-04T15:02:39Z</time>
      </trkpt>
      <trkpt lat="45.92246" lon="6.48985">
        <ele>1474</ele>
        <time>2023-03-04T15:02:42Z</time>
      </trkpt>
      <trkpt lat="45.92244" lon="6.48983">
        <ele>1474</ele>
        <time>2023-03-04T15:02:45Z</time>
      </trkpt>
      <trkpt lat="45.92242" lon="6.4898">
        <ele>1474</ele>
        <time>2023-03-04T15:02:49Z</time>
      </trkpt>
      <trkpt lat="45.92235" lon="6.4897">
        <ele>1473</ele>
        <time>2023-03-04T15:02:59Z</time>
      </trkpt>
      <trkpt lat="45.92234" lon="6.48967">
        <ele>1472</ele>
        <time>2023-03-04T15:03:02Z</time>
      </trkpt>
      <trkpt lat="45.92232" lon="6.48962">
        <ele>1472</ele>
        <time>2023-03-04T15:03:06Z</time>
      </trkpt>
      <trkpt lat="45.9223" lon="6.48958">
        <ele>1471</ele>
        <time>2023-03-04T15:03:10Z</time>
      </trkpt>
      <trkpt lat="45.92228" lon="6.48955">
        <ele>1471</ele>
        <time>2023-03-04T15:03:13Z</time>
      </trkpt>
      <trkpt lat="45.9222" lon="6.48944">
        <ele>1469</ele>
        <time>2023-03-04T15:03:23Z</time>
      </trkpt>
      <trkpt lat="45.92218" lon="6.48939">
        <ele>1469</ele>
        <time>2023-03-04T15:03:27Z</time>
      </trkpt>
      <trkpt lat="45.92213" lon="6.48934">
        <ele>1468</ele>
        <time>2023-03-04T15:03:33Z</time>
      </trkpt>
      <trkpt lat="45.92211" lon="6.48931">
        <ele>1468</ele>
        <time>2023-03-04T15:03:36Z</time>
      </trkpt>
      <trkpt lat="45.92207" lon="6.48924">
        <ele>1467</ele>
        <time>2023-03-04T15:03:43Z</time>
      </trkpt>
      <trkpt lat="45.92205" lon="6.48921">
        <ele>1467</ele>
        <time>2023-03-04T15:03:46Z</time>
      </trkpt>
      <trkpt lat="45.92181" lon="6.48894">
        <ele>1464</ele>
        <time>2023-03-04T15:04:17Z</time>
      </trkpt>
      <trkpt lat="45.92178" lon="6.48891">
        <ele>1464</ele>
        <time>2023-03-04T15:04:20Z</time>
      </trkpt>
      <trkpt lat="45.92172" lon="6.48882">
        <ele>1463</ele>
        <time>2023-03-04T15:04:30Z</time>
      </trkpt>
      <trkpt lat="45.92165" lon="6.48871">
        <ele>1463</ele>
        <time>2023-03-04T15:04:41Z</time>
      </trkpt>
      <trkpt lat="45.92163" lon="6.4886">
        <ele>1463</ele>
        <time>2023-03-04T15:04:51Z</time>
      </trkpt>
      <trkpt lat="45.92162" lon="6.48853">
        <ele>1462</ele>
        <time>2023-03-04T15:04:58Z</time>
      </trkpt>
      <trkpt lat="45.92164" lon="6.48848">
        <ele>1462</ele>
        <time>2023-03-04T15:05:04Z</time>
      </trkpt>
      <trkpt lat="45.92173" lon="6.48836">
        <ele>1461</ele>
        <time>2023-03-04T15:05:18Z</time>
      </trkpt>
      <trkpt lat="45.92175" lon="6.48832">
        <ele>1461</ele>
        <time>2023-03-04T15:05:22Z</time>
      </trkpt>
      <trkpt lat="45.92177" lon="6.48824">
        <ele>1460</ele>
        <time>2023-03-04T15:05:31Z</time>
      </trkpt>
      <trkpt lat="45.92178" lon="6.4882">
        <ele>1460</ele>
        <time>2023-03-04T15:05:34Z</time>
      </trkpt>
      <trkpt lat="45.92179" lon="6.48816">
        <ele>1460</ele>
        <time>2023-03-04T15:05:38Z</time>
      </trkpt>
      <trkpt lat="45.9218" lon="6.48812">
        <ele>1460</ele>
        <time>2023-03-04T15:05:42Z</time>
      </trkpt>
      <trkpt lat="45.9218" lon="6.48808">
        <ele>1459</ele>
        <time>2023-03-04T15:05:46Z</time>
      </trkpt>
      <trkpt lat="45.92178" lon="6.48795">
        <ele>1459</ele>
        <time>2023-03-04T15:05:57Z</time>
      </trkpt>
      <trkpt lat="45.92176" lon="6.48787">
        <ele>1459</ele>
        <time>2023-03-04T15:06:06Z</time>
      </trkpt>
      <trkpt lat="45.92176" lon="6.48782">
        <ele>1458</ele>
        <time>2023-03-04T15:06:09Z</time>
      </trkpt>
      <trkpt lat="45.92176" lon="6.48778">
        <ele>1458</ele>
        <time>2023-03-04T15:06:13Z</time>
      </trkpt>
      <trkpt lat="45.92174" lon="6.48774">
        <ele>1458</ele>
        <time>2023-03-04T15:06:17Z</time>
      </trkpt>
      <trkpt lat="45.92174" lon="6.4877">
        <ele>1458</ele>
        <time>2023-03-04T15:06:20Z</time>
      </trkpt>
      <trkpt lat="45.92172" lon="6.48766">
        <ele>1458</ele>
        <time>2023-03-04T15:06:24Z</time>
      </trkpt>
      <trkpt lat="45.9217" lon="6.48759">
        <ele>1458</ele>
        <time>2023-03-04T15:06:30Z</time>
      </trkpt>
      <trkpt lat="45.92168" lon="6.48755">
        <ele>1458</ele>
        <time>2023-03-04T15:06:33Z</time>
      </trkpt>
      <trkpt lat="45.92166" lon="6.48747">
        <ele>1458</ele>
        <time>2023-03-04T15:06:40Z</time>
      </trkpt>
      <trkpt lat="45.92165" lon="6.48742">
        <ele>1458</ele>
        <time>2023-03-04T15:06:45Z</time>
      </trkpt>
      <trkpt lat="45.92164" lon="6.48739">
        <ele>1458</ele>
        <time>2023-03-04T15:06:48Z</time>
      </trkpt>
      <trkpt lat="45.92163" lon="6.48736">
        <ele>1458</ele>
        <time>2023-03-04T15:06:51Z</time>
      </trkpt>
      <trkpt lat="45.92152" lon="6.48706">
        <ele>1458</ele>
        <time>2023-03-04T15:07:21Z</time>
      </trkpt>
      <trkpt lat="45.92151" lon="6.48702">
        <ele>1458</ele>
        <time>2023-03-04T15:07:25Z</time>
      </trkpt>
      <trkpt lat="45.92146" lon="6.48695">
        <ele>1459</ele>
        <time>2023-03-04T15:07:32Z</time>
      </trkpt>
      <trkpt lat="45.92135" lon="6.4868">
        <ele>1460</ele>
        <time>2023-03-04T15:07:48Z</time>
      </trkpt>
      <trkpt lat="45.92133" lon="6.48677">
        <ele>1460</ele>
        <time>2023-03-04T15:07:51Z</time>
      </trkpt>
      <trkpt lat="45.92126" lon="6.48668">
        <ele>1460</ele>
        <time>2023-03-04T15:08:00Z</time>
      </trkpt>
      <trkpt lat="45.92121" lon="6.48657">
        <ele>1461</ele>
        <time>2023-03-04T15:08:11Z</time>
      </trkpt>
      <trkpt lat="45.92119" lon="6.48649">
        <ele>1462</ele>
        <time>2023-03-04T15:08:18Z</time>
      </trkpt>
      <trkpt lat="45.92119" lon="6.48645">
        <ele>1462</ele>
        <time>2023-03-04T15:08:22Z</time>
      </trkpt>
      <trkpt lat="45.9212" lon="6.48635">
        <ele>1462</ele>
        <time>2023-03-04T15:08:29Z</time>
      </trkpt>
      <trkpt lat="45.92122" lon="6.48631">
        <ele>1462</ele>
        <time>2023-03-04T15:08:32Z</time>
      </trkpt>
      <trkpt lat="45.92123" lon="6.48627">
        <ele>1463</ele>
        <time>2023-03-04T15:08:36Z</time>
      </trkpt>
      <trkpt lat="45.92132" lon="6.48602">
        <ele>1463</ele>
        <time>2023-03-04T15:08:54Z</time>
      </trkpt>
      <trkpt lat="45.92133" lon="6.48598">
        <ele>1463</ele>
        <time>2023-03-04T15:08:57Z</time>
      </trkpt>
      <trkpt lat="45.92135" lon="6.48594">
        <ele>1463</ele>
        <time>2023-03-04T15:09:01Z</time>
      </trkpt>
      <trkpt lat="45.92136" lon="6.48589">
        <ele>1464</ele>
        <time>2023-03-04T15:09:05Z</time>
      </trkpt>
      <trkpt lat="45.92136" lon="6.48585">
        <ele>1464</ele>
        <time>2023-03-04T15:09:08Z</time>
      </trkpt>
      <trkpt lat="45.92143" lon="6.48555">
        <ele>1464</ele>
        <time>2023-03-04T15:09:33Z</time>
      </trkpt>
      <trkpt lat="45.92144" lon="6.48549">
        <ele>1464</ele>
        <time>2023-03-04T15:09:37Z</time>
      </trkpt>
      <trkpt lat="45.92144" lon="6.48542">
        <ele>1464</ele>
        <time>2023-03-04T15:09:42Z</time>
      </trkpt>
      <trkpt lat="45.92145" lon="6.48536">
        <ele>1464</ele>
        <time>2023-03-04T15:09:47Z</time>
      </trkpt>
      <trkpt lat="45.92147" lon="6.48524">
        <ele>1464</ele>
        <time>2023-03-04T15:09:56Z</time>
      </trkpt>
      <trkpt lat="45.92148" lon="6.48519">
        <ele>1464</ele>
        <time>2023-03-04T15:10:00Z</time>
      </trkpt>
      <trkpt lat="45.9215" lon="6.48514">
        <ele>1464</ele>
        <time>2023-03-04T15:10:04Z</time>
      </trkpt>
      <trkpt lat="45.92162" lon="6.48496">
        <ele>1464</ele>
        <time>2023-03-04T15:10:21Z</time>
      </trkpt>
      <trkpt lat="45.92173" lon="6.48476">
        <ele>1464</ele>
        <time>2023-03-04T15:10:42Z</time>
      </trkpt>
      <trkpt lat="45.92178" lon="6.4847">
        <ele>1463</ele>
        <time>2023-03-04T15:10:49Z</time>
      </trkpt>
      <trkpt lat="45.92181" lon="6.48467">
        <ele>1463</ele>
        <time>2023-03-04T15:10:54Z</time>
      </trkpt>
      <trkpt lat="45.92195" lon="6.48451">
        <ele>1462</ele>
        <time>2023-03-04T15:11:12Z</time>
      </trkpt>
      <trkpt lat="45.922" lon="6.48448">
        <ele>1462</ele>
        <time>2023-03-04T15:11:16Z</time>
      </trkpt>
      <trkpt lat="45.9221" lon="6.48442">
        <ele>1461</ele>
        <time>2023-03-04T15:11:23Z</time>
      </trkpt>
      <trkpt lat="45.9222" lon="6.48434">
        <ele>1461</ele>
        <time>2023-03-04T15:11:35Z</time>
      </trkpt>
      <trkpt lat="45.92227" lon="6.4843">
        <ele>1461</ele>
        <time>2023-03-04T15:11:44Z</time>
      </trkpt>
      <trkpt lat="45.92231" lon="6.48427">
        <ele>1461</ele>
        <time>2023-03-04T15:11:49Z</time>
      </trkpt>
      <trkpt lat="45.92233" lon="6.48422">
        <ele>1460</ele>
        <time>2023-03-04T15:11:55Z</time>
      </trkpt>
      <trkpt lat="45.92243" lon="6.48412">
        <ele>1460</ele>
        <time>2023-03-04T15:12:10Z</time>
      </trkpt>
      <trkpt lat="45.92254" lon="6.48408">
        <ele>1460</ele>
        <time>2023-03-04T15:12:27Z</time>
      </trkpt>
      <trkpt lat="45.92259" lon="6.48407">
        <ele>1460</ele>
        <time>2023-03-04T15:12:31Z</time>
      </trkpt>
      <trkpt lat="45.9227" lon="6.48401">
        <ele>1459</ele>
        <time>2023-03-04T15:12:42Z</time>
      </trkpt>
      <trkpt lat="45.92277" lon="6.48398">
        <ele>1459</ele>
        <time>2023-03-04T15:12:50Z</time>
      </trkpt>
      <trkpt lat="45.92281" lon="6.48396">
        <ele>1459</ele>
        <time>2023-03-04T15:12:54Z</time>
      </trkpt>
      <trkpt lat="45.92284" lon="6.48393">
        <ele>1459</ele>
        <time>2023-03-04T15:13:01Z</time>
      </trkpt>
      <trkpt lat="45.92287" lon="6.48389">
        <ele>1459</ele>
        <time>2023-03-04T15:13:08Z</time>
      </trkpt>
      <trkpt lat="45.92286" lon="6.48386">
        <ele>1453</ele>
        <time>2023-03-04T15:22:00Z</time>
      </trkpt>
      <trkpt lat="45.92287" lon="6.48385">
        <ele>1449</ele>
        <time>2023-03-04T15:22:17Z</time>
      </trkpt>
      <trkpt lat="45.92287" lon="6.48385">
        <ele>1447</ele>
        <time>2023-03-04T15:23:51Z</time>
      </trkpt>
      <trkpt lat="45.92294" lon="6.48371">
        <ele>1447</ele>
        <time>2023-03-04T15:24:01Z</time>
      </trkpt>
      <trkpt lat="45.92329" lon="6.48345">
        <ele>1447</ele>
        <time>2023-03-04T15:24:18Z</time>
      </trkpt>
    </trkseg>
  </trk>
</gpx>